Darstellungsparameter: Aktuell verwendete Einstellungen:
Skalierung der Graphiken ... ?
xyx+y,   Skalierungsfaktor:      Skalierung: Modus: x, Faktor: 1
Darstellungszeitraum ... ?
Vom - - bis: - -   Zeitraum: 15.09.2010 - 14.09.2020
Min/Max/Avg-Anzeige ... ?
Zeige MMA aktuell
Zeige MMA Monat
Zeige MMA alles
Zeige --A aktuell
Zeige --A Monat
Zeige --A alles
Keine MMA-Anzeige
MMA:
Average (ber die Originaldaten)
MMA-Basis: 15.09.2010 - 14.09.2020
Quicknavigation für Darstellung... ?
Tage:      1T, 2T, 3T, 5T -1T -2T -3T -5T +1T +2T +3T +5T
Wochen: 1W, 2W, 3W -1W -2W -3W +1W +2W +3W
Monate: 1M, 3M, 6M -1M -3M -6M +1M +3M +6M
Jahre:    1J, 3J, 5J, 10J -1J -3J -5J -10J +1J +3J +5J +10J
Nutze für die Darstellung ... ?
Originaldaten oder ...
Mittelwerte Minima Maxima auf...
Stundenbasis Tagesbasis Wochenbasis
Monatsbasis Jahresbasis      Datenbasis: Mittelwerte auf Stundenbasis
Darstellen als:
Statistik (Auto) Statistik J:M      Darstellung:
Zur Graphik,    zurück zur Übersicht aller Sensoren.
 
Tabellarische Datenbersicht: ?
 
Sensor: Nr:Datum:Temp:Abs-Feuchte:Windchill:Wind:
Aussen-T/F 1 15-09-2010 00:00:00 18.02 C 7.87 g/m*3 18.02 C 0 km/h
2 15-09-2010 01:00:00 18.18 C 7.67 g/m*3 18.18 C 0 km/h
3 15-09-2010 02:00:00 18.32 C 7.64 g/m*3 18.32 C 0 km/h
4 15-09-2010 03:00:00 18.06 C 8.23 g/m*3 18.06 C 0 km/h
5 15-09-2010 04:00:00 17.7 C 9.11 g/m*3 17.7 C 0 km/h
6 15-09-2010 05:00:00 15 C 9.75 g/m*3 15 C 0 km/h
7 15-09-2010 06:00:00 12.78 C 10.09 g/m*3 12.78 C 0 km/h
8 15-09-2010 07:00:00 12.74 C 10.29 g/m*3 12.74 C 0 km/h
9 15-09-2010 08:00:00 12.7 C 10.35 g/m*3 12.7 C 0 km/h
10 15-09-2010 09:00:00 12.92 C 10.36 g/m*3 12.92 C 0 km/h
11 15-09-2010 10:00:00 14.06 C 9.95 g/m*3 14.06 C 0 km/h
12 15-09-2010 11:00:00 15.02 C 8.86 g/m*3 15.02 C 0 km/h
13 15-09-2010 12:00:00 16.5 C 7.02 g/m*3 16.5 C 0 km/h
14 15-09-2010 13:00:00 17.24 C 6.31 g/m*3 17.24 C 0 km/h
15 15-09-2010 14:00:00 18.38 C 5.66 g/m*3 18.38 C 0 km/h
16 15-09-2010 15:00:00 19.52 C 5.75 g/m*3 19.52 C 0 km/h
17 15-09-2010 16:00:00 19.52 C 5.98 g/m*3 19.52 C 0 km/h
18 15-09-2010 17:00:00 19.68 C 5.8 g/m*3 19.68 C 0 km/h
19 15-09-2010 18:00:00 17.84 C 5.32 g/m*3 17.84 C 0 km/h
20 15-09-2010 19:00:00 16.6 C 5.65 g/m*3 16.6 C 0 km/h
21 15-09-2010 20:00:00 15.84 C 6.26 g/m*3 15.84 C 0 km/h
22 15-09-2010 21:00:00 15.18 C 6.38 g/m*3 15.18 C 0 km/h
23 15-09-2010 22:00:00 14.96 C 5.96 g/m*3 14.96 C 0 km/h
24 15-09-2010 23:00:00 14.86 C 5.64 g/m*3 14.86 C 0 km/h
25 16-09-2010 00:00:00 14.18 C 5.9 g/m*3 14.18 C 0 km/h
Sensor: Nr:Datum:Temp:Abs-Feuchte:Windchill:Wind:
Aussen-T/F 26 16-09-2010 01:00:00 14.1 C 5.41 g/m*3 14.1 C 0 km/h
27 16-09-2010 02:00:00 13.94 C 5.79 g/m*3 13.94 C 0 km/h
28 16-09-2010 03:00:00 13.84 C 6.71 g/m*3 13.84 C 0 km/h
29 16-09-2010 04:00:00 13.58 C 6.98 g/m*3 13.58 C 0 km/h
30 16-09-2010 05:00:00 13.36 C 7.26 g/m*3 13.36 C 0 km/h
31 16-09-2010 06:00:00 12.44 C 8.08 g/m*3 12.44 C 0 km/h
32 16-09-2010 07:00:00 11.78 C 8.68 g/m*3 11.78 C 0 km/h
33 16-09-2010 08:00:00 11.86 C 8.83 g/m*3 11.86 C 0 km/h
34 16-09-2010 09:00:00 12.64 C 9.25 g/m*3 12.64 C 0 km/h
35 16-09-2010 10:00:00 14.12 C 8.65 g/m*3 14.12 C 0 km/h
36 16-09-2010 11:00:00 15.26 C 8.23 g/m*3 15.26 C 0 km/h
37 16-09-2010 12:00:00 17.02 C 7.68 g/m*3 17.02 C 0 km/h
38 16-09-2010 13:00:00 17.32 C 7.17 g/m*3 17.32 C 0 km/h
39 16-09-2010 14:00:00 15.28 C 8.71 g/m*3 15.28 C 0 km/h
40 16-09-2010 15:00:00 17.22 C 9.15 g/m*3 17.22 C 0 km/h
41 16-09-2010 16:00:00 16.36 C 8.49 g/m*3 16.36 C 0 km/h
42 16-09-2010 17:00:00 15.3 C 9.51 g/m*3 15.3 C 0 km/h
43 16-09-2010 18:00:00 14.9 C 8.95 g/m*3 14.9 C 0 km/h
44 16-09-2010 19:00:00 13.42 C 9.68 g/m*3 13.42 C 0 km/h
45 16-09-2010 20:00:00 12.84 C 10.02 g/m*3 12.84 C 0 km/h
46 16-09-2010 21:00:00 12.62 C 10.08 g/m*3 12.62 C 0 km/h
47 16-09-2010 22:00:00 12.2 C 9.58 g/m*3 12.2 C 0 km/h
48 16-09-2010 23:00:00 12.1 C 9.29 g/m*3 12.1 C 0 km/h
49 17-09-2010 00:00:00 12.16 C 9.24 g/m*3 12.16 C 0 km/h
50 17-09-2010 01:00:00 12.06 C 9.26 g/m*3 12.06 C 0 km/h
Sensor: Nr:Datum:Temp:Abs-Feuchte:Windchill:Wind:
Aussen-T/F 51 17-09-2010 02:00:00 11.96 C 9.29 g/m*3 11.96 C 0 km/h
52 17-09-2010 03:00:00 12.06 C 8.94 g/m*3 12.06 C 0 km/h
53 17-09-2010 04:00:00 11.94 C 8.73 g/m*3 11.94 C 0 km/h
54 17-09-2010 05:00:00 11.2 C 8.23 g/m*3 11.2 C 0 km/h
55 17-09-2010 06:00:00 10.6 C 8.59 g/m*3 10.6 C 0 km/h
56 17-09-2010 07:00:00 10.02 C 8.15 g/m*3 10.02 C 0 km/h
57 17-09-2010 08:00:00 10.22 C 7.66 g/m*3 10.22 C 0 km/h
58 17-09-2010 09:00:00 10.86 C 7.28 g/m*3 10.86 C 0 km/h
59 17-09-2010 10:00:00 12.06 C 7.55 g/m*3 12.06 C 0 km/h
60 17-09-2010 11:00:00 13.72 C 7.56 g/m*3 13.72 C 0 km/h
61 17-09-2010 12:00:00 15.7 C 6.58 g/m*3 15.7 C 0 km/h
62 17-09-2010 13:00:00 16.66 C 5.9 g/m*3 16.66 C 0 km/h
63 17-09-2010 14:00:00 17.62 C 5.29 g/m*3 17.62 C 0 km/h
64 17-09-2010 15:00:00 17.48 C 5.06 g/m*3 17.48 C 0 km/h
65 17-09-2010 16:00:00 19.06 C 4.94 g/m*3 19.06 C 0 km/h
66 17-09-2010 17:00:00 19.46 C 4.45 g/m*3 19.46 C 0 km/h
67 17-09-2010 18:00:00 16.66 C 6.1 g/m*3 16.66 C 0 km/h
68 17-09-2010 19:00:00 15.24 C 6.69 g/m*3 15.24 C 0 km/h
69 17-09-2010 20:00:00 14.26 C 7.06 g/m*3 14.26 C 0 km/h
70 17-09-2010 21:00:00 13.48 C 7.15 g/m*3 13.48 C 0 km/h
71 17-09-2010 22:00:00 13.34 C 6.72 g/m*3 13.34 C 0 km/h
72 17-09-2010 23:00:00 12.58 C 6.81 g/m*3 12.58 C 0 km/h
73 18-09-2010 00:00:00 12.12 C 6.94 g/m*3 12.12 C 0 km/h
74 18-09-2010 01:00:00 10.9 C 7 g/m*3 10.9 C 0 km/h
75 18-09-2010 02:00:00 10 C 7.2 g/m*3 10 C 0 km/h
Sensor: Nr:Datum:Temp:Abs-Feuchte:Windchill:Wind:
Aussen-T/F 76 18-09-2010 03:00:00 9.38 C 7.3 g/m*3 9.38 C 0 km/h
77 18-09-2010 04:00:00 8.54 C 7.19 g/m*3 8.54 C 0 km/h
78 18-09-2010 05:00:00 7.94 C 7.18 g/m*3 7.94 C 0 km/h
79 18-09-2010 06:00:00 7.62 C 7.36 g/m*3 7.62 C 0 km/h
80 18-09-2010 07:00:00 7.5 C 7.3 g/m*3 7.5 C 0 km/h
81 18-09-2010 08:00:00 7.46 C 7.23 g/m*3 7.46 C 0 km/h
82 18-09-2010 09:00:00 8.12 C 7.55 g/m*3 8.12 C 0 km/h
83 18-09-2010 10:00:00 10.2 C 8.18 g/m*3 10.2 C 0 km/h
84 18-09-2010 11:00:00 13.46 C 6.65 g/m*3 13.46 C 0 km/h
85 18-09-2010 12:00:00 15.14 C 5.92 g/m*3 15.14 C 0 km/h
86 18-09-2010 13:00:00 15.6 C 5.43 g/m*3 15.6 C 0 km/h
87 18-09-2010 14:00:00 15.26 C 4.77 g/m*3 15.26 C 0 km/h
88 18-09-2010 15:00:00 16.3 C 4.58 g/m*3 16.3 C 0 km/h
89 18-09-2010 16:00:00 16.22 C 4.86 g/m*3 16.22 C 0 km/h
90 18-09-2010 17:00:00 15.86 C 5.73 g/m*3 15.86 C 0 km/h
91 18-09-2010 18:00:00 15.66 C 6.06 g/m*3 15.66 C 0 km/h
92 18-09-2010 19:00:00 13.26 C 6.08 g/m*3 13.26 C 0 km/h
93 18-09-2010 20:00:00 11.08 C 6.6 g/m*3 11.08 C 0 km/h
94 18-09-2010 21:00:00 10.02 C 6.62 g/m*3 10.02 C 0 km/h
95 18-09-2010 22:00:00 8.98 C 6.69 g/m*3 8.98 C 0 km/h
96 18-09-2010 23:00:00 8.2 C 6.77 g/m*3 8.2 C 0 km/h
97 19-09-2010 00:00:00 7.56 C 6.72 g/m*3 7.56 C 0 km/h
98 19-09-2010 01:00:00 6.92 C 6.54 g/m*3 6.92 C 0 km/h
99 19-09-2010 02:00:00 6.44 C 6.53 g/m*3 6.44 C 0 km/h
100 19-09-2010 03:00:00 6.42 C 6.57 g/m*3 6.42 C 0 km/h
Sensor: Nr:Datum:Temp:Abs-Feuchte:Windchill:Wind:
Aussen-T/F 101 19-09-2010 04:00:00 6.2 C 6.5 g/m*3 6.2 C 0 km/h
102 19-09-2010 05:00:00 6.04 C 6.42 g/m*3 6.04 C 0 km/h
103 19-09-2010 06:00:00 5.76 C 6.33 g/m*3 5.76 C 0 km/h
104 19-09-2010 07:00:00 6 C 6.46 g/m*3 6 C 0 km/h
105 19-09-2010 08:00:00 6.96 C 6.79 g/m*3 6.96 C 0 km/h
106 19-09-2010 09:00:00 8.12 C 6.98 g/m*3 8.12 C 0 km/h
107 19-09-2010 10:00:00 10.72 C 6.69 g/m*3 10.72 C 0 km/h
108 19-09-2010 11:00:00 12.92 C 6.27 g/m*3 12.92 C 0 km/h
109 19-09-2010 12:00:00 14.94 C 5.67 g/m*3 14.94 C 0 km/h
110 19-09-2010 13:00:00 16.12 C 5.54 g/m*3 16.12 C 0 km/h
111 19-09-2010 14:00:00 17.38 C 5.68 g/m*3 17.38 C 0 km/h
112 19-09-2010 15:00:00 18.62 C 5.45 g/m*3 18.62 C 0 km/h
113 19-09-2010 16:00:00 19.04 C 5.29 g/m*3 19.04 C 0 km/h
114 19-09-2010 17:00:00 18.78 C 5.69 g/m*3 18.78 C 0 km/h
115 19-09-2010 18:00:00 17.08 C 5.99 g/m*3 17.08 C 0 km/h
116 19-09-2010 19:00:00 15.78 C 5.97 g/m*3 15.78 C 0 km/h
117 19-09-2010 20:00:00 14.46 C 6.3 g/m*3 14.46 C 0 km/h
118 19-09-2010 21:00:00 13.96 C 6.62 g/m*3 13.96 C 0 km/h
119 19-09-2010 22:00:00 13.32 C 6.78 g/m*3 13.32 C 0 km/h
120 19-09-2010 23:00:00 12.28 C 6.77 g/m*3 12.28 C 0 km/h
121 20-09-2010 00:00:00 11.68 C 6.87 g/m*3 11.68 C 0 km/h
122 20-09-2010 01:00:00 10.44 C 6.78 g/m*3 10.44 C 0 km/h
123 20-09-2010 02:00:00 9.84 C 6.88 g/m*3 9.84 C 0 km/h
124 20-09-2010 03:00:00 9.64 C 7.02 g/m*3 9.64 C 0 km/h
125 20-09-2010 04:00:00 8.98 C 6.89 g/m*3 8.98 C 0 km/h
Sensor: Nr:Datum:Temp:Abs-Feuchte:Windchill:Wind:
Aussen-T/F 126 20-09-2010 05:00:00 8.32 C 6.89 g/m*3 8.32 C 0 km/h
127 20-09-2010 06:00:00 8.48 C 7.03 g/m*3 8.48 C 0 km/h
128 20-09-2010 07:00:00 8.52 C 7.1 g/m*3 8.52 C 0 km/h
129 20-09-2010 08:00:00 9.18 C 6.87 g/m*3 9.18 C 0 km/h
130 20-09-2010 09:00:00 9.84 C 6.92 g/m*3 9.84 C 0 km/h
131 20-09-2010 10:00:00 12.4 C 7.21 g/m*3 12.4 C 0 km/h
132 20-09-2010 11:00:00 14.62 C 6.99 g/m*3 14.62 C 0 km/h
133 20-09-2010 12:00:00 16.26 C 6.34 g/m*3 16.26 C 0 km/h
134 20-09-2010 13:00:00 18.02 C 6.12 g/m*3 18.02 C 0 km/h
135 20-09-2010 14:00:00 20.02 C 5.81 g/m*3 20.02 C 0 km/h
136 20-09-2010 15:00:00 21.42 C 5.86 g/m*3 21.42 C 0 km/h
137 20-09-2010 16:00:00 22.46 C 6.22 g/m*3 22.46 C 0 km/h
138 20-09-2010 17:00:00 22.28 C 6.11 g/m*3 22.28 C 0 km/h
139 20-09-2010 18:00:00 21.3 C 6.67 g/m*3 21.3 C 0 km/h
140 20-09-2010 19:00:00 17.5 C 7.19 g/m*3 17.5 C 0 km/h
141 20-09-2010 20:00:00 15.34 C 7.54 g/m*3 15.34 C 0 km/h
142 20-09-2010 21:00:00 14.2 C 7.72 g/m*3 14.2 C 0 km/h
143 20-09-2010 22:00:00 13.22 C 8.07 g/m*3 13.22 C 0 km/h
144 20-09-2010 23:00:00 12.28 C 8.05 g/m*3 12.28 C 0 km/h
145 21-09-2010 00:00:00 11.52 C 7.88 g/m*3 11.52 C 0 km/h
146 21-09-2010 01:00:00 10.9 C 7.8 g/m*3 10.9 C 0 km/h
147 21-09-2010 02:00:00 10.24 C 7.69 g/m*3 10.24 C 0 km/h
148 21-09-2010 03:00:00 9.74 C 7.71 g/m*3 9.74 C 0 km/h
149 21-09-2010 04:00:00 9.22 C 7.51 g/m*3 9.22 C 0 km/h
150 21-09-2010 05:00:00 8.78 C 7.46 g/m*3 8.78 C 0 km/h
Sensor: Nr:Datum:Temp:Abs-Feuchte:Windchill:Wind:
Aussen-T/F 151 21-09-2010 06:00:00 8.34 C 7.37 g/m*3 8.34 C 0 km/h
152 21-09-2010 07:00:00 8.14 C 7.34 g/m*3 8.14 C 0 km/h
153 21-09-2010 08:00:00 8.26 C 7.53 g/m*3 8.26 C 0 km/h
154 21-09-2010 09:00:00 9.18 C 7.97 g/m*3 9.18 C 0 km/h
155 21-09-2010 10:00:00 11.12 C 8.71 g/m*3 11.12 C 0 km/h
156 21-09-2010 11:00:00 14.12 C 8.65 g/m*3 14.12 C 0 km/h
157 21-09-2010 12:00:00 16.14 C 8.99 g/m*3 16.14 C 0 km/h
158 21-09-2010 13:00:00 17.02 C 9.65 g/m*3 17.02 C 0 km/h
159 21-09-2010 14:00:00 17.82 C 9.48 g/m*3 17.82 C 0 km/h
160 21-09-2010 15:00:00 23.12 C 8.2 g/m*3 23.12 C 0 km/h
161 21-09-2010 16:00:00 25.16 C 7.62 g/m*3 25.16 C 0 km/h
162 21-09-2010 17:00:00 24.6 C 7.56 g/m*3 24.6 C 0 km/h
163 21-09-2010 18:00:00 22.18 C 7.88 g/m*3 22.18 C 0 km/h
164 21-09-2010 19:00:00 18.64 C 8.36 g/m*3 18.64 C 0 km/h
165 21-09-2010 20:00:00 16.3 C 8.52 g/m*3 16.3 C 0 km/h
166 21-09-2010 21:00:00 15.06 C 8.49 g/m*3 15.06 C 0 km/h
167 21-09-2010 22:00:00 13.9 C 8.51 g/m*3 13.9 C 0 km/h
168 21-09-2010 23:00:00 12.98 C 8.54 g/m*3 12.98 C 0 km/h
169 22-09-2010 00:00:00 12.2 C 8.55 g/m*3 12.2 C 0 km/h
170 22-09-2010 01:00:00 11.5 C 8.41 g/m*3 11.5 C 0 km/h
171 22-09-2010 02:00:00 10.78 C 8.15 g/m*3 10.78 C 0 km/h
172 22-09-2010 03:00:00 10.22 C 8 g/m*3 10.22 C 0 km/h
173 22-09-2010 04:00:00 9.72 C 7.94 g/m*3 9.72 C 0 km/h
174 22-09-2010 05:00:00 9.84 C 8.15 g/m*3 9.84 C 0 km/h
175 22-09-2010 06:00:00 9.78 C 8.15 g/m*3 9.78 C 0 km/h
Sensor: Nr:Datum:Temp:Abs-Feuchte:Windchill:Wind:
Aussen-T/F 176 22-09-2010 07:00:00 9.56 C 8.04 g/m*3 9.56 C 0 km/h
177 22-09-2010 08:00:00 9.36 C 7.96 g/m*3 9.36 C 0 km/h
178 22-09-2010 09:00:00 10.18 C 8.15 g/m*3 10.18 C 0 km/h
179 22-09-2010 10:00:00 12.42 C 8.64 g/m*3 12.42 C 0 km/h
180 22-09-2010 11:00:00 13.78 C 9.19 g/m*3 13.78 C 0 km/h
181 22-09-2010 12:00:00 16.54 C 9.97 g/m*3 16.54 C 0 km/h
182 22-09-2010 13:00:00 19.76 C 10.09 g/m*3 19.76 C 0 km/h
183 22-09-2010 14:00:00 22.86 C 10.07 g/m*3 22.86 C 0 km/h
184 22-09-2010 15:00:00 25.06 C 9.29 g/m*3 25.06 C 0 km/h
185 22-09-2010 16:00:00 27.32 C 8.59 g/m*3 27.32 C 0 km/h
186 22-09-2010 17:00:00 27.06 C 8.16 g/m*3 27.06 C 0 km/h
187 22-09-2010 18:00:00 24.88 C 9.1 g/m*3 24.88 C 0 km/h
188 22-09-2010 19:00:00 20.88 C 9.2 g/m*3 20.88 C 0 km/h
189 22-09-2010 20:00:00 18.54 C 9.1 g/m*3 18.54 C 0 km/h
190 22-09-2010 21:00:00 17.46 C 9.31 g/m*3 17.46 C 0 km/h
191 22-09-2010 22:00:00 16.18 C 9.26 g/m*3 16.18 C 0 km/h
192 22-09-2010 23:00:00 14.92 C 8.78 g/m*3 14.92 C 0 km/h
193 23-09-2010 00:00:00 14.02 C 8.65 g/m*3 14.02 C 0 km/h
194 23-09-2010 01:00:00 13.22 C 8.71 g/m*3 13.22 C 0 km/h
195 23-09-2010 02:00:00 12.44 C 8.7 g/m*3 12.44 C 0 km/h
196 23-09-2010 03:00:00 11.8 C 8.57 g/m*3 11.8 C 0 km/h
197 23-09-2010 04:00:00 11.16 C 8.39 g/m*3 11.16 C 0 km/h
198 23-09-2010 05:00:00 10.64 C 8.22 g/m*3 10.64 C 0 km/h
199 23-09-2010 06:00:00 10.46 C 8.2 g/m*3 10.46 C 0 km/h
200 23-09-2010 07:00:00 10.52 C 8.25 g/m*3 10.52 C 0 km/h
Sensor: Nr:Datum:Temp:Abs-Feuchte:Windchill:Wind:
Aussen-T/F 201 23-09-2010 08:00:00 10.88 C 8.42 g/m*3 10.88 C 0 km/h
202 23-09-2010 09:00:00 11.64 C 8.65 g/m*3 11.64 C 0 km/h
203 23-09-2010 10:00:00 12.98 C 9.24 g/m*3 12.98 C 0 km/h
204 23-09-2010 11:00:00 15.64 C 10.08 g/m*3 15.64 C 0 km/h
205 23-09-2010 12:00:00 18.66 C 10.61 g/m*3 18.66 C 0 km/h
206 23-09-2010 13:00:00 22.3 C 10.7 g/m*3 22.3 C 0 km/h
207 23-09-2010 14:00:00 24.06 C 10.22 g/m*3 24.06 C 0 km/h
208 23-09-2010 15:00:00 25.04 C 9.37 g/m*3 25.04 C 0 km/h
209 23-09-2010 16:00:00 25.14 C 9.88 g/m*3 25.14 C 0 km/h
210 23-09-2010 17:00:00 23.48 C 10.73 g/m*3 23.48 C 0 km/h
211 23-09-2010 18:00:00 22.12 C 10.63 g/m*3 22.12 C 0 km/h
212 23-09-2010 19:00:00 19.9 C 11.06 g/m*3 19.9 C 0 km/h
213 23-09-2010 20:00:00 18.5 C 11.3 g/m*3 18.5 C 0 km/h
214 23-09-2010 21:00:00 18.5 C 11.49 g/m*3 18.5 C 0 km/h
215 23-09-2010 22:00:00 17.94 C 11.82 g/m*3 17.94 C 0 km/h
216 23-09-2010 23:00:00 16.44 C 12.26 g/m*3 16.44 C 0 km/h
217 24-09-2010 00:00:00 15.7 C 12.18 g/m*3 15.7 C 0 km/h
218 24-09-2010 01:00:00 15.54 C 12.3 g/m*3 15.54 C 0 km/h
219 24-09-2010 02:00:00 15.38 C 12.15 g/m*3 15.38 C 0 km/h
220 24-09-2010 03:00:00 14.94 C 11.91 g/m*3 14.94 C 0 km/h
221 24-09-2010 04:00:00 14.78 C 11.89 g/m*3 14.78 C 0 km/h
222 24-09-2010 05:00:00 14.54 C 11.72 g/m*3 14.54 C 0 km/h
223 24-09-2010 06:00:00 14.7 C 11.83 g/m*3 14.7 C 0 km/h
224 24-09-2010 07:00:00 14.4 C 11.62 g/m*3 14.4 C 0 km/h
225 24-09-2010 08:00:00 14.58 C 11.82 g/m*3 14.58 C 0 km/h
Sensor: Nr:Datum:Temp:Abs-Feuchte:Windchill:Wind:
Aussen-T/F 226 24-09-2010 09:00:00 14.88 C 12.07 g/m*3 14.88 C 0 km/h
227 24-09-2010 10:00:00 14.98 C 12.06 g/m*3 14.98 C 0 km/h
228 24-09-2010 11:00:00 15.22 C 12.22 g/m*3 15.22 C 0 km/h
229 24-09-2010 12:00:00 15.14 C 12.18 g/m*3 15.14 C 0 km/h
230 24-09-2010 13:00:00 14.56 C 11.73 g/m*3 14.56 C 0 km/h
231 24-09-2010 14:00:00 13.54 C 11.02 g/m*3 13.54 C 0 km/h
232 24-09-2010 15:00:00 13.08 C 10.8 g/m*3 13.08 C 0 km/h
233 24-09-2010 16:00:00 13.8 C 11.32 g/m*3 13.8 C 0 km/h
234 24-09-2010 17:00:00 13.48 C 11.03 g/m*3 13.48 C 0 km/h
235 24-09-2010 18:00:00 13.26 C 10.83 g/m*3 13.26 C 0 km/h
236 24-09-2010 19:00:00 12.84 C 10.64 g/m*3 12.84 C 0 km/h
237 24-09-2010 20:00:00 12.7 C 10.58 g/m*3 12.7 C 0 km/h
238 24-09-2010 21:00:00 12.82 C 10.65 g/m*3 12.82 C 0 km/h
239 24-09-2010 22:00:00 12.7 C 10.58 g/m*3 12.7 C 0 km/h
240 24-09-2010 23:00:00 12.4 C 10.38 g/m*3 12.4 C 0 km/h
241 25-09-2010 00:00:00 12.48 C 10.43 g/m*3 12.48 C 0 km/h
242 25-09-2010 01:00:00 12.52 C 10.46 g/m*3 12.52 C 0 km/h
243 25-09-2010 02:00:00 12.6 C 10.51 g/m*3 12.6 C 0 km/h
244 25-09-2010 03:00:00 12.62 C 10.52 g/m*3 12.62 C 0 km/h
245 25-09-2010 04:00:00 12.54 C 10.47 g/m*3 12.54 C 0 km/h
246 25-09-2010 05:00:00 12.38 C 10.35 g/m*3 12.38 C 0 km/h
247 25-09-2010 06:00:00 12.06 C 10.06 g/m*3 12.06 C 0 km/h
248 25-09-2010 07:00:00 11.88 C 9.94 g/m*3 11.88 C 0 km/h
249 25-09-2010 08:00:00 11.26 C 9.5 g/m*3 11.26 C 0 km/h
250 25-09-2010 09:00:00 10.48 C 8.81 g/m*3 10.48 C 0 km/h
Sensor: Nr:Datum:Temp:Abs-Feuchte:Windchill:Wind:
Aussen-T/F 251 25-09-2010 10:00:00 11.04 C 8.25 g/m*3 11.04 C 0 km/h
252 25-09-2010 11:00:00 12.3 C 7.45 g/m*3 12.3 C 0 km/h
253 25-09-2010 12:00:00 12.44 C 6.9 g/m*3 12.44 C 0 km/h
254 25-09-2010 13:00:00 13.26 C 6.04 g/m*3 13.26 C 0 km/h
255 25-09-2010 14:00:00 14.24 C 5.36 g/m*3 14.24 C 0 km/h
256 25-09-2010 15:00:00 15.04 C 4.68 g/m*3 15.04 C 0 km/h
257 25-09-2010 16:00:00 14.72 C 4.97 g/m*3 14.72 C 0 km/h
258 25-09-2010 17:00:00 15.6 C 5.08 g/m*3 15.6 C 0 km/h
259 25-09-2010 18:00:00 14.22 C 5.06 g/m*3 14.22 C 0 km/h
260 25-09-2010 19:00:00 12.98 C 5.75 g/m*3 12.98 C 0 km/h
261 25-09-2010 20:00:00 11.7 C 5.88 g/m*3 11.7 C 0 km/h
262 25-09-2010 21:00:00 10.12 C 6.31 g/m*3 10.12 C 0 km/h
263 25-09-2010 22:00:00 10.28 C 6.68 g/m*3 10.28 C 0 km/h
264 25-09-2010 23:00:00 9.28 C 7.4 g/m*3 9.28 C 0 km/h
265 26-09-2010 00:00:00 9.44 C 7.76 g/m*3 9.44 C 0 km/h
266 26-09-2010 01:00:00 9.48 C 7.24 g/m*3 9.48 C 0 km/h
267 26-09-2010 02:00:00 9.42 C 7.05 g/m*3 9.42 C 0 km/h
268 26-09-2010 03:00:00 9.2 C 7.07 g/m*3 9.2 C 0 km/h
269 26-09-2010 04:00:00 8.88 C 7.28 g/m*3 8.88 C 0 km/h
270 26-09-2010 05:00:00 9.02 C 7.33 g/m*3 9.02 C 0 km/h
271 26-09-2010 06:00:00 8.9 C 7.38 g/m*3 8.9 C 0 km/h
272 26-09-2010 07:00:00 8.8 C 7.45 g/m*3 8.8 C 0 km/h
273 26-09-2010 08:00:00 9.62 C 7.3 g/m*3 9.62 C 0 km/h
274 26-09-2010 09:00:00 10.26 C 7.18 g/m*3 10.26 C 0 km/h
275 26-09-2010 10:00:00 11.84 C 6.75 g/m*3 11.84 C 0 km/h
Sensor: Nr:Datum:Temp:Abs-Feuchte:Windchill:Wind:
Aussen-T/F 276 26-09-2010 11:00:00 13.22 C 6.44 g/m*3 13.22 C 0 km/h
277 26-09-2010 12:00:00 14.48 C 6.39 g/m*3 14.48 C 0 km/h
278 26-09-2010 13:00:00 13 C 7.58 g/m*3 13 C 0 km/h
279 26-09-2010 14:00:00 13.3 C 8.3 g/m*3 13.3 C 0 km/h
280 26-09-2010 15:00:00 14.18 C 8.12 g/m*3 14.18 C 0 km/h
281 26-09-2010 16:00:00 14.92 C 7.04 g/m*3 14.92 C 0 km/h
282 26-09-2010 17:00:00 15.18 C 6.61 g/m*3 15.18 C 0 km/h
283 26-09-2010 18:00:00 12.96 C 6.95 g/m*3 12.96 C 0 km/h
284 26-09-2010 19:00:00 12.24 C 7.1 g/m*3 12.24 C 0 km/h
285 26-09-2010 20:00:00 11.78 C 7.21 g/m*3 11.78 C 0 km/h
286 26-09-2010 21:00:00 11.16 C 7.12 g/m*3 11.16 C 0 km/h
287 26-09-2010 22:00:00 9.7 C 7.06 g/m*3 9.7 C 0 km/h
288 26-09-2010 23:00:00 8.84 C 7.17 g/m*3 8.84 C 0 km/h
289 27-09-2010 00:00:00 8.12 C 7.07 g/m*3 8.12 C 0 km/h
290 27-09-2010 01:00:00 7.46 C 7.04 g/m*3 7.46 C 0 km/h
291 27-09-2010 02:00:00 6.84 C 6.86 g/m*3 6.84 C 0 km/h
292 27-09-2010 03:00:00 6.46 C 6.75 g/m*3 6.46 C 0 km/h
293 27-09-2010 04:00:00 6.24 C 6.8 g/m*3 6.24 C 0 km/h
294 27-09-2010 05:00:00 6.24 C 6.83 g/m*3 6.24 C 0 km/h
295 27-09-2010 06:00:00 6.32 C 6.89 g/m*3 6.32 C 0 km/h
296 27-09-2010 07:00:00 6.74 C 7.13 g/m*3 6.74 C 0 km/h
297 27-09-2010 08:00:00 7.7 C 7.61 g/m*3 7.7 C 0 km/h
298 27-09-2010 09:00:00 9.24 C 8.2 g/m*3 9.24 C 0 km/h
299 27-09-2010 10:00:00 10.76 C 7.57 g/m*3 10.76 C 0 km/h
300 27-09-2010 11:00:00 11.98 C 6.79 g/m*3 11.98 C 0 km/h
Sensor: Nr:Datum:Temp:Abs-Feuchte:Windchill:Wind:
Aussen-T/F 301 27-09-2010 12:00:00 12.78 C 6.82 g/m*3 12.78 C 0 km/h
302 27-09-2010 13:00:00 13.48 C 6.73 g/m*3 13.48 C 0 km/h
303 27-09-2010 14:00:00 13.26 C 6.66 g/m*3 13.26 C 0 km/h
304 27-09-2010 15:00:00 13.4 C 6.65 g/m*3 13.4 C 0 km/h
305 27-09-2010 16:00:00 13.38 C 7.2 g/m*3 13.38 C 0 km/h
306 27-09-2010 17:00:00 12.9 C 7.69 g/m*3 12.9 C 0 km/h
307 27-09-2010 18:00:00 11.94 C 7.73 g/m*3 11.94 C 0 km/h
308 27-09-2010 19:00:00 10.58 C 8.13 g/m*3 10.58 C 0 km/h
309 27-09-2010 20:00:00 10.3 C 8.39 g/m*3 10.3 C 0 km/h
310 27-09-2010 21:00:00 10.34 C 8.55 g/m*3 10.34 C 0 km/h
311 27-09-2010 22:00:00 10.3 C 8.6 g/m*3 10.3 C 0 km/h
312 27-09-2010 23:00:00 10.16 C 8.64 g/m*3 10.16 C 0 km/h
313 28-09-2010 00:00:00 10 C 8.68 g/m*3 10 C 0 km/h
314 28-09-2010 01:00:00 9.98 C 8.75 g/m*3 9.98 C 0 km/h
315 28-09-2010 02:00:00 9.9 C 8.78 g/m*3 9.9 C 0 km/h
316 28-09-2010 03:00:00 9.9 C 8.87 g/m*3 9.9 C 0 km/h
317 28-09-2010 04:00:00 9.92 C 8.86 g/m*3 9.92 C 0 km/h
318 28-09-2010 05:00:00 10 C 8.93 g/m*3 10 C 0 km/h
319 28-09-2010 06:00:00 10.08 C 8.97 g/m*3 10.08 C 0 km/h
320 28-09-2010 07:00:00 10 C 8.93 g/m*3 10 C 0 km/h
321 28-09-2010 08:00:00 10.04 C 8.95 g/m*3 10.04 C 0 km/h
322 28-09-2010 09:00:00 10.24 C 9.06 g/m*3 10.24 C 0 km/h
323 28-09-2010 10:00:00 10.58 C 9.26 g/m*3 10.58 C 0 km/h
324 28-09-2010 11:00:00 11.18 C 9.62 g/m*3 11.18 C 0 km/h
325 28-09-2010 12:00:00 11.48 C 9.72 g/m*3 11.48 C 0 km/h
Sensor: Nr:Datum:Temp:Abs-Feuchte:Windchill:Wind:
Aussen-T/F 326 28-09-2010 13:00:00 11.74 C 9.71 g/m*3 11.74 C 0 km/h
327 28-09-2010 14:00:00 11.76 C 9.66 g/m*3 11.76 C 0 km/h
328 28-09-2010 15:00:00 11.74 C 9.73 g/m*3 11.74 C 0 km/h
329 28-09-2010 16:00:00 11.84 C 9.85 g/m*3 11.84 C 0 km/h
330 28-09-2010 17:00:00 11.98 C 10.01 g/m*3 11.98 C 0 km/h
331 28-09-2010 18:00:00 11.86 C 9.99 g/m*3 11.86 C 0 km/h
332 28-09-2010 19:00:00 11.72 C 9.95 g/m*3 11.72 C 0 km/h
333 28-09-2010 20:00:00 11.6 C 9.87 g/m*3 11.6 C 0 km/h
334 28-09-2010 21:00:00 11.58 C 9.86 g/m*3 11.58 C 0 km/h
335 28-09-2010 22:00:00 11.62 C 9.89 g/m*3 11.62 C 0 km/h
336 28-09-2010 23:00:00 11.6 C 9.87 g/m*3 11.6 C 0 km/h
337 29-09-2010 00:00:00 11.64 C 9.9 g/m*3 11.64 C 0 km/h
338 29-09-2010 01:00:00 11.62 C 9.89 g/m*3 11.62 C 0 km/h
339 29-09-2010 02:00:00 11.56 C 9.85 g/m*3 11.56 C 0 km/h
340 29-09-2010 03:00:00 11.48 C 9.8 g/m*3 11.48 C 0 km/h
341 29-09-2010 04:00:00 11.48 C 9.8 g/m*3 11.48 C 0 km/h
342 29-09-2010 05:00:00 11.4 C 9.75 g/m*3 11.4 C 0 km/h
343 29-09-2010 06:00:00 11.52 C 9.82 g/m*3 11.52 C 0 km/h
344 29-09-2010 07:00:00 11.04 C 9.53 g/m*3 11.04 C 0 km/h
345 29-09-2010 08:00:00 11.18 C 9.62 g/m*3 11.18 C 0 km/h
346 29-09-2010 09:00:00 11.44 C 9.57 g/m*3 11.44 C 0 km/h
347 29-09-2010 10:00:00 12.92 C 8.98 g/m*3 12.92 C 0 km/h
348 29-09-2010 11:00:00 13.96 C 8.42 g/m*3 13.96 C 0 km/h
349 29-09-2010 12:00:00 14.4 C 8.03 g/m*3 14.4 C 0 km/h
350 29-09-2010 13:00:00 15.74 C 7.89 g/m*3 15.74 C 0 km/h
Sensor: Nr:Datum:Temp:Abs-Feuchte:Windchill:Wind:
Aussen-T/F 351 29-09-2010 14:00:00 16.82 C 7.64 g/m*3 16.82 C 0 km/h
352 29-09-2010 15:00:00 19.16 C 6.88 g/m*3 19.16 C 0 km/h
353 29-09-2010 16:00:00 18.14 C 7.62 g/m*3 18.14 C 0 km/h
354 29-09-2010 17:00:00 18.3 C 7.54 g/m*3 18.3 C 0 km/h
355 29-09-2010 18:00:00 14.62 C 7.84 g/m*3 14.62 C 0 km/h
356 29-09-2010 19:00:00 13.08 C 7.68 g/m*3 13.08 C 0 km/h
357 29-09-2010 20:00:00 13.12 C 7.7 g/m*3 13.12 C 0 km/h
358 29-09-2010 21:00:00 12.5 C 7.94 g/m*3 12.5 C 0 km/h
359 29-09-2010 22:00:00 12.38 C 8.36 g/m*3 12.38 C 0 km/h
360 29-09-2010 23:00:00 11.96 C 8.33 g/m*3 11.96 C 0 km/h
361 30-09-2010 00:00:00 12.16 C 8.44 g/m*3 12.16 C 0 km/h
362 30-09-2010 01:00:00 11.86 C 7.75 g/m*3 11.86 C 0 km/h
363 30-09-2010 02:00:00 11.46 C 7.62 g/m*3 11.46 C 0 km/h
364 30-09-2010 03:00:00 11.16 C 7.87 g/m*3 11.16 C 0 km/h
365 30-09-2010 04:00:00 11.02 C 7.88 g/m*3 11.02 C 0 km/h
366 30-09-2010 05:00:00 10.76 C 7.79 g/m*3 10.76 C 0 km/h
367 30-09-2010 06:00:00 10.7 C 7.33 g/m*3 10.7 C 0 km/h
368 30-09-2010 07:00:00 10.66 C 7.66 g/m*3 10.66 C 0 km/h
369 30-09-2010 08:00:00 10.9 C 7.76 g/m*3 10.9 C 0 km/h
370 30-09-2010 09:00:00 11.4 C 7.86 g/m*3 11.4 C 0 km/h
371 30-09-2010 10:00:00 11.64 C 8.27 g/m*3 11.64 C 0 km/h
372 30-09-2010 11:00:00 11.86 C 8.47 g/m*3 11.86 C 0 km/h
373 30-09-2010 12:00:00 11.98 C 8.94 g/m*3 11.98 C 0 km/h
374 30-09-2010 13:00:00 12.58 C 9.55 g/m*3 12.58 C 0 km/h
375 30-09-2010 14:00:00 12.94 C 9.9 g/m*3 12.94 C 0 km/h
Sensor: Nr:Datum:Temp:Abs-Feuchte:Windchill:Wind:
Aussen-T/F 376 30-09-2010 15:00:00 13.26 C 10.12 g/m*3 13.26 C 0 km/h
377 30-09-2010 16:00:00 13.4 C 10.16 g/m*3 13.4 C 0 km/h
378 30-09-2010 17:00:00 12.96 C 9.98 g/m*3 12.96 C 0 km/h
379 30-09-2010 18:00:00 12.48 C 9.82 g/m*3 12.48 C 0 km/h
380 30-09-2010 19:00:00 12.14 C 9.78 g/m*3 12.14 C 0 km/h
381 30-09-2010 20:00:00 12.16 C 9.92 g/m*3 12.16 C 0 km/h
382 30-09-2010 21:00:00 12.08 C 9.96 g/m*3 12.08 C 0 km/h
383 30-09-2010 22:00:00 11.96 C 9.93 g/m*3 11.96 C 0 km/h
384 30-09-2010 23:00:00 12 C 10 g/m*3 12 C 0 km/h
385 01-10-2010 00:00:00 12.02 C 10.05 g/m*3 12.02 C 0 km/h
386 01-10-2010 01:00:00 11.58 C 9.86 g/m*3 11.58 C 0 km/h
387 01-10-2010 02:00:00 11.44 C 9.78 g/m*3 11.44 C 0 km/h
388 01-10-2010 03:00:00 11.56 C 9.85 g/m*3 11.56 C 0 km/h
389 01-10-2010 04:00:00 11.7 C 9.94 g/m*3 11.7 C 0 km/h
390 01-10-2010 05:00:00 11.62 C 9.89 g/m*3 11.62 C 0 km/h
391 01-10-2010 06:00:00 11.4 C 9.75 g/m*3 11.4 C 0 km/h
392 01-10-2010 07:00:00 11 C 9.51 g/m*3 11 C 0 km/h
393 01-10-2010 08:00:00 10.3 C 9.1 g/m*3 10.3 C 0 km/h
394 01-10-2010 09:00:00 11.24 C 9.65 g/m*3 11.24 C 0 km/h
395 01-10-2010 10:00:00 11.72 C 9.63 g/m*3 11.72 C 0 km/h
396 01-10-2010 11:00:00 12.46 C 8.84 g/m*3 12.46 C 0 km/h
397 01-10-2010 12:00:00 12.68 C 8.49 g/m*3 12.68 C 0 km/h
398 01-10-2010 13:00:00 13.18 C 8.12 g/m*3 13.18 C 0 km/h
399 01-10-2010 14:00:00 13.32 C 7.94 g/m*3 13.32 C 0 km/h
400 01-10-2010 15:00:00 15.3 C 7.78 g/m*3 15.3 C 0 km/h
Sensor: Nr:Datum:Temp:Abs-Feuchte:Windchill:Wind:
Aussen-T/F 401 01-10-2010 16:00:00 16.74 C 7.61 g/m*3 16.74 C 0 km/h
402 01-10-2010 17:00:00 16.14 C 8.35 g/m*3 16.14 C 0 km/h
403 01-10-2010 18:00:00 14.34 C 8.79 g/m*3 14.34 C 0 km/h
404 01-10-2010 19:00:00 12.18 C 8.56 g/m*3 12.18 C 0 km/h
405 01-10-2010 20:00:00 11.26 C 8.51 g/m*3 11.26 C 0 km/h
406 01-10-2010 21:00:00 10.86 C 8.53 g/m*3 10.86 C 0 km/h
407 01-10-2010 22:00:00 10.98 C 8.76 g/m*3 10.98 C 0 km/h
408 01-10-2010 23:00:00 11.06 C 8.74 g/m*3 11.06 C 0 km/h
409 02-10-2010 00:00:00 11.12 C 8.71 g/m*3 11.12 C 0 km/h
410 02-10-2010 01:00:00 10.92 C 8.74 g/m*3 10.92 C 0 km/h
411 02-10-2010 02:00:00 10.96 C 8.97 g/m*3 10.96 C 0 km/h
412 02-10-2010 03:00:00 11.1 C 9.15 g/m*3 11.1 C 0 km/h
413 02-10-2010 04:00:00 11.08 C 9.26 g/m*3 11.08 C 0 km/h
414 02-10-2010 05:00:00 10.98 C 9.3 g/m*3 10.98 C 0 km/h
415 02-10-2010 06:00:00 11 C 9.39 g/m*3 11 C 0 km/h
416 02-10-2010 07:00:00 11.14 C 9.55 g/m*3 11.14 C 0 km/h
417 02-10-2010 08:00:00 11.46 C 9.79 g/m*3 11.46 C 0 km/h
418 02-10-2010 09:00:00 12 C 10.12 g/m*3 12 C 0 km/h
419 02-10-2010 10:00:00 13.14 C 10.75 g/m*3 13.14 C 0 km/h
420 02-10-2010 11:00:00 14.32 C 11.27 g/m*3 14.32 C 0 km/h
421 02-10-2010 12:00:00 15.04 C 11.52 g/m*3 15.04 C 0 km/h
422 02-10-2010 13:00:00 15.74 C 11.53 g/m*3 15.74 C 0 km/h
423 02-10-2010 14:00:00 15.64 C 11.41 g/m*3 15.64 C 0 km/h
424 02-10-2010 15:00:00 16 C 11.47 g/m*3 16 C 0 km/h
425 02-10-2010 16:00:00 16.24 C 11.09 g/m*3 16.24 C 0 km/h
Sensor: Nr:Datum:Temp:Abs-Feuchte:Windchill:Wind:
Aussen-T/F 426 02-10-2010 17:00:00 16.28 C 10.92 g/m*3 16.28 C 0 km/h
427 02-10-2010 18:00:00 15.42 C 10.92 g/m*3 15.42 C 0 km/h
428 02-10-2010 19:00:00 14.94 C 10.94 g/m*3 14.94 C 0 km/h
429 02-10-2010 20:00:00 14.8 C 11.1 g/m*3 14.8 C 0 km/h
430 02-10-2010 21:00:00 14.5 C 11.02 g/m*3 14.5 C 0 km/h
431 02-10-2010 22:00:00 14.48 C 11.16 g/m*3 14.48 C 0 km/h
432 02-10-2010 23:00:00 14.56 C 11.13 g/m*3 14.56 C 0 km/h
433 03-10-2010 00:00:00 14.44 C 11.08 g/m*3 14.44 C 0 km/h
434 03-10-2010 01:00:00 14.7 C 10.7 g/m*3 14.7 C 0 km/h
435 03-10-2010 02:00:00 14.58 C 10.32 g/m*3 14.58 C 0 km/h
436 03-10-2010 03:00:00 13.92 C 10.59 g/m*3 13.92 C 0 km/h
437 03-10-2010 04:00:00 14.08 C 10.62 g/m*3 14.08 C 0 km/h
438 03-10-2010 05:00:00 14.26 C 10.34 g/m*3 14.26 C 0 km/h
439 03-10-2010 06:00:00 13.46 C 10.24 g/m*3 13.46 C 0 km/h
440 03-10-2010 07:00:00 13.42 C 10.43 g/m*3 13.42 C 0 km/h
441 03-10-2010 08:00:00 13.98 C 10.41 g/m*3 13.98 C 0 km/h
442 03-10-2010 09:00:00 15.12 C 10.08 g/m*3 15.12 C 0 km/h
443 03-10-2010 10:00:00 16.78 C 9.91 g/m*3 16.78 C 0 km/h
444 03-10-2010 11:00:00 18.14 C 10.13 g/m*3 18.14 C 0 km/h
445 03-10-2010 12:00:00 19.68 C 9.74 g/m*3 19.68 C 0 km/h
446 03-10-2010 13:00:00 21.36 C 9.43 g/m*3 21.36 C 0 km/h
447 03-10-2010 14:00:00 23.34 C 9.09 g/m*3 23.34 C 0 km/h
448 03-10-2010 15:00:00 24.72 C 8.61 g/m*3 24.72 C 0 km/h
449 03-10-2010 16:00:00 25.12 C 8.67 g/m*3 25.12 C 0 km/h
450 03-10-2010 17:00:00 25.22 C 9.37 g/m*3 25.22 C 0 km/h
Sensor: Nr:Datum:Temp:Abs-Feuchte:Windchill:Wind:
Aussen-T/F 451 03-10-2010 18:00:00 21.54 C 10.55 g/m*3 21.54 C 0 km/h
452 03-10-2010 19:00:00 18.78 C 10.84 g/m*3 18.78 C 0 km/h
453 03-10-2010 20:00:00 18.34 C 10.88 g/m*3 18.34 C 0 km/h
454 03-10-2010 21:00:00 17.96 C 11.03 g/m*3 17.96 C 0 km/h
455 03-10-2010 22:00:00 17.56 C 10.86 g/m*3 17.56 C 0 km/h
456 03-10-2010 23:00:00 17.56 C 10.32 g/m*3 17.56 C 0 km/h
457 04-10-2010 00:00:00 17.28 C 9.86 g/m*3 17.28 C 0 km/h
458 04-10-2010 01:00:00 17.18 C 9.59 g/m*3 17.18 C 0 km/h
459 04-10-2010 02:00:00 16.82 C 9.65 g/m*3 16.82 C 0 km/h
460 04-10-2010 03:00:00 15.76 C 9.96 g/m*3 15.76 C 0 km/h
461 04-10-2010 04:00:00 15.1 C 9.99 g/m*3 15.1 C 0 km/h
462 04-10-2010 05:00:00 14.3 C 9.95 g/m*3 14.3 C 0 km/h
463 04-10-2010 06:00:00 13.92 C 9.94 g/m*3 13.92 C 0 km/h
464 04-10-2010 07:00:00 13.62 C 9.83 g/m*3 13.62 C 0 km/h
465 04-10-2010 08:00:00 14.26 C 9.8 g/m*3 14.26 C 0 km/h
466 04-10-2010 09:00:00 15 C 9.23 g/m*3 15 C 0 km/h
467 04-10-2010 10:00:00 15.66 C 8.97 g/m*3 15.66 C 0 km/h
468 04-10-2010 11:00:00 17.62 C 8.92 g/m*3 17.62 C 0 km/h
469 04-10-2010 12:00:00 17.84 C 8.76 g/m*3 17.84 C 0 km/h
470 04-10-2010 13:00:00 18.72 C 8.62 g/m*3 18.72 C 0 km/h
471 04-10-2010 14:00:00 19.76 C 8.72 g/m*3 19.76 C 0 km/h
472 04-10-2010 15:00:00 22.5 C 8.63 g/m*3 22.5 C 0 km/h
473 04-10-2010 16:00:00 23.64 C 8.23 g/m*3 23.64 C 0 km/h
474 04-10-2010 17:00:00 21.14 C 9.16 g/m*3 21.14 C 0 km/h
475 04-10-2010 18:00:00 18.68 C 9.66 g/m*3 18.68 C 0 km/h
Sensor: Nr:Datum:Temp:Abs-Feuchte:Windchill:Wind:
Aussen-T/F 476 04-10-2010 19:00:00 16.52 C 10.09 g/m*3 16.52 C 0 km/h
477 04-10-2010 20:00:00 16.22 C 10.02 g/m*3 16.22 C 0 km/h
478 04-10-2010 21:00:00 15.42 C 9.94 g/m*3 15.42 C 0 km/h
479 04-10-2010 22:00:00 14.56 C 9.91 g/m*3 14.56 C 0 km/h
480 04-10-2010 23:00:00 14.2 C 9.92 g/m*3 14.2 C 0 km/h
481 05-10-2010 00:00:00 14.2 C 10.01 g/m*3 14.2 C 0 km/h
482 05-10-2010 01:00:00 13.94 C 9.9 g/m*3 13.94 C 0 km/h
483 05-10-2010 02:00:00 13.52 C 9.84 g/m*3 13.52 C 0 km/h
484 05-10-2010 03:00:00 13.6 C 10 g/m*3 13.6 C 0 km/h
485 05-10-2010 04:00:00 13.6 C 10.1 g/m*3 13.6 C 0 km/h
486 05-10-2010 05:00:00 13.6 C 10.14 g/m*3 13.6 C 0 km/h
487 05-10-2010 06:00:00 13.42 C 10.38 g/m*3 13.42 C 0 km/h
488 05-10-2010 07:00:00 13.4 C 10.56 g/m*3 13.4 C 0 km/h
489 05-10-2010 08:00:00 13.14 C 10.41 g/m*3 13.14 C 0 km/h
490 05-10-2010 09:00:00 13.3 C 10.68 g/m*3 13.3 C 0 km/h
491 05-10-2010 10:00:00 14.8 C 11.81 g/m*3 14.8 C 0 km/h
492 05-10-2010 11:00:00 17.48 C 13.01 g/m*3 17.48 C 0 km/h
493 05-10-2010 12:00:00 18.1 C 11.43 g/m*3 18.1 C 0 km/h
494 05-10-2010 13:00:00 19.18 C 11.23 g/m*3 19.18 C 0 km/h
495 05-10-2010 14:00:00 19.26 C 10.95 g/m*3 19.26 C 0 km/h
496 05-10-2010 15:00:00 18.8 C 12.63 g/m*3 18.8 C 0 km/h
497 05-10-2010 16:00:00 18.5 C 12.47 g/m*3 18.5 C 0 km/h
498 05-10-2010 17:00:00 17.1 C 11.67 g/m*3 17.1 C 0 km/h
499 05-10-2010 18:00:00 17.02 C 11.44 g/m*3 17.02 C 0 km/h
500 05-10-2010 19:00:00 16.66 C 11.31 g/m*3 16.66 C 0 km/h
Sensor: Nr:Datum:Temp:Abs-Feuchte:Windchill:Wind:
Aussen-T/F 501 05-10-2010 20:00:00 16.36 C 10.94 g/m*3 16.36 C 0 km/h
502 05-10-2010 21:00:00 15.68 C 10.26 g/m*3 15.68 C 0 km/h
503 05-10-2010 22:00:00 15.3 C 9.98 g/m*3 15.3 C 0 km/h
504 05-10-2010 23:00:00 15.6 C 9.97 g/m*3 15.6 C 0 km/h
505 06-10-2010 00:00:00 15.6 C 9.97 g/m*3 15.6 C 0 km/h
506 06-10-2010 01:00:00 15.5 C 9.99 g/m*3 15.5 C 0 km/h
507 06-10-2010 02:00:00 15.44 C 10.17 g/m*3 15.44 C 0 km/h
508 06-10-2010 03:00:00 15.28 C 10.1 g/m*3 15.28 C 0 km/h
509 06-10-2010 04:00:00 15.1 C 10.09 g/m*3 15.1 C 0 km/h
510 06-10-2010 05:00:00 14.92 C 10.26 g/m*3 14.92 C 0 km/h
511 06-10-2010 06:00:00 14.82 C 10.1 g/m*3 14.82 C 0 km/h
512 06-10-2010 07:00:00 14.66 C 9.95 g/m*3 14.66 C 0 km/h
513 06-10-2010 08:00:00 14.52 C 10.19 g/m*3 14.52 C 0 km/h
514 06-10-2010 09:00:00 15.54 C 10.12 g/m*3 15.54 C 0 km/h
515 06-10-2010 10:00:00 16.24 C 9.93 g/m*3 16.24 C 0 km/h
516 06-10-2010 11:00:00 17.76 C 9.27 g/m*3 17.76 C 0 km/h
517 06-10-2010 12:00:00 19.04 C 8.69 g/m*3 19.04 C 0 km/h
518 06-10-2010 13:00:00 20.2 C 8.5 g/m*3 20.2 C 0 km/h
519 06-10-2010 14:00:00 21.62 C 8.24 g/m*3 21.62 C 0 km/h
520 06-10-2010 15:00:00 23.06 C 8.25 g/m*3 23.06 C 0 km/h
521 06-10-2010 16:00:00 22.84 C 8.96 g/m*3 22.84 C 0 km/h
522 06-10-2010 17:00:00 21.08 C 10.16 g/m*3 21.08 C 0 km/h
523 06-10-2010 18:00:00 18.94 C 10.23 g/m*3 18.94 C 0 km/h
524 06-10-2010 19:00:00 17.3 C 10.19 g/m*3 17.3 C 0 km/h
525 06-10-2010 20:00:00 16.9 C 10.13 g/m*3 16.9 C 0 km/h
Sensor: Nr:Datum:Temp:Abs-Feuchte:Windchill:Wind:
Aussen-T/F 526 06-10-2010 21:00:00 16.36 C 10.42 g/m*3 16.36 C 0 km/h
527 06-10-2010 22:00:00 15.74 C 10.52 g/m*3 15.74 C 0 km/h
528 06-10-2010 23:00:00 14.9 C 10.32 g/m*3 14.9 C 0 km/h
529 07-10-2010 00:00:00 14.22 C 10.17 g/m*3 14.22 C 0 km/h
530 07-10-2010 01:00:00 14.24 C 10.5 g/m*3 14.24 C 0 km/h
531 07-10-2010 02:00:00 14.24 C 10.43 g/m*3 14.24 C 0 km/h
532 07-10-2010 03:00:00 14.08 C 10.35 g/m*3 14.08 C 0 km/h
533 07-10-2010 04:00:00 13.82 C 10.31 g/m*3 13.82 C 0 km/h
534 07-10-2010 05:00:00 13.3 C 10.17 g/m*3 13.3 C 0 km/h
535 07-10-2010 06:00:00 13.84 C 10.51 g/m*3 13.84 C 0 km/h
536 07-10-2010 07:00:00 14.12 C 10.6 g/m*3 14.12 C 0 km/h
537 07-10-2010 08:00:00 14.66 C 10.9 g/m*3 14.66 C 0 km/h
538 07-10-2010 09:00:00 15.06 C 10.6 g/m*3 15.06 C 0 km/h
539 07-10-2010 10:00:00 16.18 C 10.33 g/m*3 16.18 C 0 km/h
540 07-10-2010 11:00:00 17.26 C 10.32 g/m*3 17.26 C 0 km/h
541 07-10-2010 12:00:00 18.4 C 9.97 g/m*3 18.4 C 0 km/h
542 07-10-2010 13:00:00 19.26 C 9.83 g/m*3 19.26 C 0 km/h
543 07-10-2010 14:00:00 19.88 C 9.78 g/m*3 19.88 C 0 km/h
544 07-10-2010 15:00:00 20.5 C 9.5 g/m*3 20.5 C 0 km/h
545 07-10-2010 16:00:00 19.94 C 9.47 g/m*3 19.94 C 0 km/h
546 07-10-2010 17:00:00 19.16 C 9.57 g/m*3 19.16 C 0 km/h
547 07-10-2010 18:00:00 17.88 C 10.22 g/m*3 17.88 C 0 km/h
548 07-10-2010 19:00:00 16.9 C 10.38 g/m*3 16.9 C 0 km/h
549 07-10-2010 20:00:00 16.3 C 10.35 g/m*3 16.3 C 0 km/h
550 07-10-2010 21:00:00 16.22 C 10.13 g/m*3 16.22 C 0 km/h
Sensor: Nr:Datum:Temp:Abs-Feuchte:Windchill:Wind:
Aussen-T/F 551 07-10-2010 22:00:00 16 C 9.86 g/m*3 16 C 0 km/h
552 07-10-2010 23:00:00 16.02 C 9.74 g/m*3 16.02 C 0 km/h
553 08-10-2010 00:00:00 15.82 C 9.89 g/m*3 15.82 C 0 km/h
554 08-10-2010 01:00:00 15.62 C 9.67 g/m*3 15.62 C 0 km/h
555 08-10-2010 02:00:00 15.44 C 9.35 g/m*3 15.44 C 0 km/h
556 08-10-2010 03:00:00 14.92 C 8.75 g/m*3 14.92 C 0 km/h
557 08-10-2010 04:00:00 14.52 C 8.57 g/m*3 14.52 C 0 km/h
558 08-10-2010 05:00:00 14.24 C 8.81 g/m*3 14.24 C 0 km/h
559 08-10-2010 06:00:00 13.98 C 8.96 g/m*3 13.98 C 0 km/h
560 08-10-2010 07:00:00 14.02 C 9.13 g/m*3 14.02 C 0 km/h
561 08-10-2010 08:00:00 14.2 C 9.23 g/m*3 14.2 C 0 km/h
562 08-10-2010 09:00:00 14.6 C 9.41 g/m*3 14.6 C 0 km/h
563 08-10-2010 10:00:00 15.28 C 9.47 g/m*3 15.28 C 0 km/h
564 08-10-2010 11:00:00 15.86 C 9.29 g/m*3 15.86 C 0 km/h
565 08-10-2010 12:00:00 16.54 C 9.09 g/m*3 16.54 C 0 km/h
566 08-10-2010 13:00:00 16.94 C 8.77 g/m*3 16.94 C 0 km/h
567 08-10-2010 14:00:00 18.76 C 8.77 g/m*3 18.76 C 0 km/h
568 08-10-2010 15:00:00 20.32 C 8.52 g/m*3 20.32 C 0 km/h
569 08-10-2010 16:00:00 22.2 C 8.95 g/m*3 22.2 C 0 km/h
570 08-10-2010 17:00:00 21.78 C 9.24 g/m*3 21.78 C 0 km/h
571 08-10-2010 18:00:00 19.06 C 9.68 g/m*3 19.06 C 0 km/h
572 08-10-2010 19:00:00 15.88 C 9.98 g/m*3 15.88 C 0 km/h
573 08-10-2010 20:00:00 14.78 C 9.79 g/m*3 14.78 C 0 km/h
574 08-10-2010 21:00:00 14.08 C 9.65 g/m*3 14.08 C 0 km/h
575 08-10-2010 22:00:00 13.28 C 9.51 g/m*3 13.28 C 0 km/h
Sensor: Nr:Datum:Temp:Abs-Feuchte:Windchill:Wind:
Aussen-T/F 576 08-10-2010 23:00:00 12.58 C 9.3 g/m*3 12.58 C 0 km/h
577 09-10-2010 00:00:00 11.9 C 9.11 g/m*3 11.9 C 0 km/h
578 09-10-2010 01:00:00 11.34 C 8.96 g/m*3 11.34 C 0 km/h
579 09-10-2010 02:00:00 10.74 C 8.68 g/m*3 10.74 C 0 km/h
580 09-10-2010 03:00:00 10.24 C 8.43 g/m*3 10.24 C 0 km/h
581 09-10-2010 04:00:00 9.78 C 8.32 g/m*3 9.78 C 0 km/h
582 09-10-2010 05:00:00 9.52 C 8.29 g/m*3 9.52 C 0 km/h
583 09-10-2010 06:00:00 9.42 C 8.31 g/m*3 9.42 C 0 km/h
584 09-10-2010 07:00:00 9.24 C 8.24 g/m*3 9.24 C 0 km/h
585 09-10-2010 08:00:00 9.2 C 8.22 g/m*3 9.2 C 0 km/h
586 09-10-2010 09:00:00 9.28 C 8.24 g/m*3 9.28 C 0 km/h
587 09-10-2010 10:00:00 10.44 C 8.87 g/m*3 10.44 C 0 km/h
588 09-10-2010 11:00:00 12.52 C 9.53 g/m*3 12.52 C 0 km/h
589 09-10-2010 12:00:00 14.68 C 8.2 g/m*3 14.68 C 0 km/h
590 09-10-2010 13:00:00 17.1 C 7.89 g/m*3 17.1 C 0 km/h
591 09-10-2010 14:00:00 19.96 C 7.03 g/m*3 19.96 C 0 km/h
592 09-10-2010 15:00:00 21.86 C 6.28 g/m*3 21.86 C 0 km/h
593 09-10-2010 16:00:00 22.16 C 6.23 g/m*3 22.16 C 0 km/h
594 09-10-2010 17:00:00 20.8 C 6.19 g/m*3 20.8 C 0 km/h
595 09-10-2010 18:00:00 17.02 C 6.26 g/m*3 17.02 C 0 km/h
596 09-10-2010 19:00:00 13.8 C 6.12 g/m*3 13.8 C 0 km/h
597 09-10-2010 20:00:00 12.84 C 6.58 g/m*3 12.84 C 0 km/h
598 09-10-2010 21:00:00 11.48 C 6.99 g/m*3 11.48 C 0 km/h
599 09-10-2010 22:00:00 10.6 C 7.03 g/m*3 10.6 C 0 km/h
600 09-10-2010 23:00:00 9.62 C 6.92 g/m*3 9.62 C 0 km/h
Sensor: Nr:Datum:Temp:Abs-Feuchte:Windchill:Wind:
Aussen-T/F 601 10-10-2010 00:00:00 8.94 C 6.99 g/m*3 8.94 C 0 km/h
602 10-10-2010 01:00:00 8.38 C 6.93 g/m*3 8.38 C 0 km/h
603 10-10-2010 02:00:00 7.76 C 6.82 g/m*3 7.76 C 0 km/h
604 10-10-2010 03:00:00 7.14 C 6.66 g/m*3 7.14 C 0 km/h
605 10-10-2010 04:00:00 6.76 C 6.61 g/m*3 6.76 C 0 km/h
606 10-10-2010 05:00:00 6.28 C 6.45 g/m*3 6.28 C 0 km/h
607 10-10-2010 06:00:00 5.86 C 6.36 g/m*3 5.86 C 0 km/h
608 10-10-2010 07:00:00 5.5 C 6.31 g/m*3 5.5 C 0 km/h
609 10-10-2010 08:00:00 6.36 C 6.69 g/m*3 6.36 C 0 km/h
610 10-10-2010 09:00:00 7.26 C 6.79 g/m*3 7.26 C 0 km/h
611 10-10-2010 10:00:00 8.92 C 6.6 g/m*3 8.92 C 0 km/h
612 10-10-2010 11:00:00 10.92 C 6.57 g/m*3 10.92 C 0 km/h
613 10-10-2010 12:00:00 12.8 C 6.47 g/m*3 12.8 C 0 km/h
614 10-10-2010 13:00:00 15.86 C 5.67 g/m*3 15.86 C 0 km/h
615 10-10-2010 14:00:00 18.62 C 5.45 g/m*3 18.62 C 0 km/h
616 10-10-2010 15:00:00 20.4 C 5.91 g/m*3 20.4 C 0 km/h
617 10-10-2010 16:00:00 21.28 C 5.7 g/m*3 21.28 C 0 km/h
618 10-10-2010 17:00:00 20.64 C 5.6 g/m*3 20.64 C 0 km/h
619 10-10-2010 18:00:00 17.2 C 5.45 g/m*3 17.2 C 0 km/h
620 10-10-2010 19:00:00 14.18 C 5.49 g/m*3 14.18 C 0 km/h
621 10-10-2010 20:00:00 13.02 C 4.91 g/m*3 13.02 C 0 km/h
622 10-10-2010 21:00:00 12.44 C 4.01 g/m*3 12.44 C 0 km/h
623 10-10-2010 22:00:00 11.46 C 4.12 g/m*3 11.46 C 0 km/h
624 10-10-2010 23:00:00 10.72 C 4.52 g/m*3 10.72 C 0 km/h
625 11-10-2010 00:00:00 9.98 C 4.88 g/m*3 9.98 C 0 km/h
Sensor: Nr:Datum:Temp:Abs-Feuchte:Windchill:Wind:
Aussen-T/F 626 11-10-2010 01:00:00 9.44 C 4.91 g/m*3 9.44 C 0 km/h
627 11-10-2010 02:00:00 9.08 C 4.87 g/m*3 9.08 C 0 km/h
628 11-10-2010 03:00:00 8.24 C 4.99 g/m*3 8.24 C 0 km/h
629 11-10-2010 04:00:00 7.58 C 5.1 g/m*3 7.58 C 0 km/h
630 11-10-2010 05:00:00 6.64 C 5.24 g/m*3 6.64 C 0 km/h
631 11-10-2010 06:00:00 5.72 C 5.32 g/m*3 5.72 C 0 km/h
632 11-10-2010 07:00:00 5.22 C 5.36 g/m*3 5.22 C 0 km/h
633 11-10-2010 08:00:00 4.96 C 5.39 g/m*3 4.96 C 0 km/h
634 11-10-2010 09:00:00 5.6 C 5.7 g/m*3 5.6 C 0 km/h
635 11-10-2010 10:00:00 7.12 C 6.11 g/m*3 7.12 C 0 km/h
636 11-10-2010 11:00:00 9.46 C 6.36 g/m*3 9.46 C 0 km/h
637 11-10-2010 12:00:00 11.62 C 6.45 g/m*3 11.62 C 0 km/h
638 11-10-2010 13:00:00 14.92 C 5.9 g/m*3 14.92 C 0 km/h
639 11-10-2010 14:00:00 17.48 C 5.45 g/m*3 17.48 C 0 km/h
640 11-10-2010 15:00:00 19.78 C 5.05 g/m*3 19.78 C 0 km/h
641 11-10-2010 16:00:00 20.96 C 4.61 g/m*3 20.96 C 0 km/h
642 11-10-2010 17:00:00 19.56 C 3.6 g/m*3 19.56 C 0 km/h
643 11-10-2010 18:00:00 16.12 C 3.98 g/m*3 16.12 C 0 km/h
644 11-10-2010 19:00:00 13.18 C 4.33 g/m*3 13.18 C 0 km/h
645 11-10-2010 20:00:00 11.32 C 4.82 g/m*3 11.32 C 0 km/h
646 11-10-2010 21:00:00 10.025 C 4.96 g/m*3 10.03 C 0 km/h
647 11-10-2010 22:00:00 9.2 C 4.84 g/m*3 9.2 C 0 km/h
648 11-10-2010 23:00:00 8.24 C 4.87 g/m*3 8.24 C 0 km/h
649 12-10-2010 00:00:00 7.16 C 5.01 g/m*3 7.16 C 0 km/h
650 12-10-2010 01:00:00 6.4 C 5.13 g/m*3 6.4 C 0 km/h
Sensor: Nr:Datum:Temp:Abs-Feuchte:Windchill:Wind:
Aussen-T/F 651 12-10-2010 02:00:00 5.74 C 5.24 g/m*3 5.74 C 0 km/h
652 12-10-2010 03:00:00 5.04 C 5.31 g/m*3 5.04 C 0 km/h
653 12-10-2010 04:00:00 4.42 C 5.34 g/m*3 4.42 C 0 km/h
654 12-10-2010 05:00:00 3.8 C 5.31 g/m*3 3.8 C 0 km/h
655 12-10-2010 06:00:00 3.46 C 5.26 g/m*3 3.46 C 0 km/h
656 12-10-2010 07:00:00 2.94 C 5.15 g/m*3 2.94 C 0 km/h
657 12-10-2010 08:00:00 3.56 C 5.52 g/m*3 3.56 C 0 km/h
658 12-10-2010 09:00:00 4.9 C 5.93 g/m*3 4.9 C 0 km/h
659 12-10-2010 10:00:00 5.82 C 6.07 g/m*3 5.82 C 0 km/h
660 12-10-2010 11:00:00 7.16 C 6.36 g/m*3 7.16 C 0 km/h
661 12-10-2010 12:00:00 9.56 C 6.18 g/m*3 9.56 C 0 km/h
662 12-10-2010 13:00:00 12.58 C 5.72 g/m*3 12.58 C 0 km/h
663 12-10-2010 14:00:00 15.26 C 5.65 g/m*3 15.26 C 0 km/h
664 12-10-2010 15:00:00 16.94 C 5.42 g/m*3 16.94 C 0 km/h
665 12-10-2010 16:00:00 17.66 C 5.42 g/m*3 17.66 C 0 km/h
666 12-10-2010 17:00:00 17.22 C 4.57 g/m*3 17.22 C 0 km/h
667 12-10-2010 18:00:00 14.5 C 5.65 g/m*3 14.5 C 0 km/h
668 12-10-2010 19:00:00 11.42 C 6.45 g/m*3 11.42 C 0 km/h
669 12-10-2010 20:00:00 9.84 C 6.47 g/m*3 9.84 C 0 km/h
670 12-10-2010 21:00:00 8.36 C 6.26 g/m*3 8.36 C 0 km/h
671 12-10-2010 22:00:00 7.74 C 6.15 g/m*3 7.74 C 0 km/h
672 12-10-2010 23:00:00 7.78 C 6 g/m*3 7.78 C 0 km/h
673 13-10-2010 00:00:00 7.6 C 5.86 g/m*3 7.6 C 0 km/h
674 13-10-2010 01:00:00 7.02 C 5.82 g/m*3 7.02 C 0 km/h
675 13-10-2010 02:00:00 6.8 C 5.83 g/m*3 6.8 C 0 km/h
Sensor: Nr:Datum:Temp:Abs-Feuchte:Windchill:Wind:
Aussen-T/F 676 13-10-2010 03:00:00 6.44 C 5.69 g/m*3 6.44 C 0 km/h
677 13-10-2010 04:00:00 6.2 C 5.59 g/m*3 6.2 C 0 km/h
678 13-10-2010 05:00:00 6.1 C 5.6 g/m*3 6.1 C 0 km/h
679 13-10-2010 06:00:00 5.84 C 5.6 g/m*3 5.84 C 0 km/h
680 13-10-2010 07:00:00 5.42 C 5.53 g/m*3 5.42 C 0 km/h
681 13-10-2010 08:00:00 5.62 C 5.49 g/m*3 5.62 C 0 km/h
682 13-10-2010 09:00:00 5.86 C 5.45 g/m*3 5.86 C 0 km/h
683 13-10-2010 10:00:00 6.66 C 5.3 g/m*3 6.66 C 0 km/h
684 13-10-2010 11:00:00 7.04 C 5.08 g/m*3 7.04 C 0 km/h
685 13-10-2010 12:00:00 8.14 C 5.06 g/m*3 8.14 C 0 km/h
686 13-10-2010 13:00:00 8.8 C 4.89 g/m*3 8.8 C 0 km/h
687 13-10-2010 14:00:00 9.8 C 4.95 g/m*3 9.8 C 0 km/h
688 13-10-2010 15:00:00 11.78 C 4.94 g/m*3 11.78 C 0 km/h
689 13-10-2010 16:00:00 12.06 C 5.01 g/m*3 12.06 C 0 km/h
690 13-10-2010 17:00:00 12.34 C 5.23 g/m*3 12.34 C 0 km/h
691 13-10-2010 18:00:00 9.94 C 5.5 g/m*3 9.94 C 0 km/h
692 13-10-2010 19:00:00 7.48 C 5.76 g/m*3 7.48 C 0 km/h
693 13-10-2010 20:00:00 6.96 C 5.81 g/m*3 6.96 C 0 km/h
694 13-10-2010 21:00:00 5.82 C 5.72 g/m*3 5.82 C 0 km/h
695 13-10-2010 22:00:00 5.16 C 5.73 g/m*3 5.16 C 0 km/h
696 13-10-2010 23:00:00 4.52 C 5.61 g/m*3 4.52 C 0 km/h
697 14-10-2010 00:00:00 3.88 C 5.51 g/m*3 3.88 C 0 km/h
698 14-10-2010 01:00:00 3.38 C 5.47 g/m*3 3.38 C 0 km/h
699 14-10-2010 02:00:00 3.62 C 5.65 g/m*3 3.62 C 0 km/h
700 14-10-2010 03:00:00 3.52 C 5.57 g/m*3 3.52 C 0 km/h
Sensor: Nr:Datum:Temp:Abs-Feuchte:Windchill:Wind:
Aussen-T/F 701 14-10-2010 04:00:00 3.54 C 5.55 g/m*3 3.54 C 0 km/h
702 14-10-2010 05:00:00 3.62 C 5.63 g/m*3 3.62 C 0 km/h
703 14-10-2010 06:00:00 3.92 C 5.7 g/m*3 3.92 C 0 km/h
704 14-10-2010 07:00:00 4.12 C 5.76 g/m*3 4.12 C 0 km/h
705 14-10-2010 08:00:00 4.44 C 5.84 g/m*3 4.44 C 0 km/h
706 14-10-2010 09:00:00 4.56 C 5.86 g/m*3 4.56 C 0 km/h
707 14-10-2010 10:00:00 5.16 C 5.88 g/m*3 5.16 C 0 km/h
708 14-10-2010 11:00:00 6.2 C 5.75 g/m*3 6.2 C 0 km/h
709 14-10-2010 12:00:00 7.86 C 5.59 g/m*3 7.86 C 0 km/h
710 14-10-2010 13:00:00 9.36 C 5.58 g/m*3 9.36 C 0 km/h
711 14-10-2010 14:00:00 11.86 C 5.85 g/m*3 11.86 C 0 km/h
712 14-10-2010 15:00:00 13.94 C 5.72 g/m*3 13.94 C 0 km/h
713 14-10-2010 16:00:00 14.4 C 5.83 g/m*3 14.4 C 0 km/h
714 14-10-2010 17:00:00 13.24 C 5.5 g/m*3 13.24 C 0 km/h
715 14-10-2010 18:00:00 11.04 C 5.96 g/m*3 11.04 C 0 km/h
716 14-10-2010 19:00:00 10.26 C 6.25 g/m*3 10.26 C 0 km/h
717 14-10-2010 20:00:00 10.2 C 6.24 g/m*3 10.2 C 0 km/h
718 14-10-2010 21:00:00 9.8 C 6.33 g/m*3 9.8 C 0 km/h
719 14-10-2010 22:00:00 9.74 C 6.51 g/m*3 9.74 C 0 km/h
720 14-10-2010 23:00:00 9.68 C 6.68 g/m*3 9.68 C 0 km/h
721 15-10-2010 00:00:00 9.5 C 6.75 g/m*3 9.5 C 0 km/h
722 15-10-2010 01:00:00 9.42 C 6.88 g/m*3 9.42 C 0 km/h
723 15-10-2010 02:00:00 9.24 C 7.13 g/m*3 9.24 C 0 km/h
724 15-10-2010 03:00:00 9.28 C 7.25 g/m*3 9.28 C 0 km/h
725 15-10-2010 04:00:00 9.28 C 7.36 g/m*3 9.28 C 0 km/h
Sensor: Nr:Datum:Temp:Abs-Feuchte:Windchill:Wind:
Aussen-T/F 726 15-10-2010 05:00:00 9.2 C 7.41 g/m*3 9.2 C 0 km/h
727 15-10-2010 06:00:00 9.3 C 7.66 g/m*3 9.3 C 0 km/h
728 15-10-2010 07:00:00 9.28 C 7.74 g/m*3 9.28 C 0 km/h
729 15-10-2010 08:00:00 9.24 C 7.86 g/m*3 9.24 C 0 km/h
730 15-10-2010 09:00:00 9.82 C 8.19 g/m*3 9.82 C 0 km/h
731 15-10-2010 10:00:00 10.72 C 8.06 g/m*3 10.72 C 0 km/h
732 15-10-2010 11:00:00 11.52 C 7.76 g/m*3 11.52 C 0 km/h
733 15-10-2010 12:00:00 12.42 C 7.33 g/m*3 12.42 C 0 km/h
734 15-10-2010 13:00:00 13.38 C 6.9 g/m*3 13.38 C 0 km/h
735 15-10-2010 14:00:00 12.78 C 6.76 g/m*3 12.78 C 0 km/h
736 15-10-2010 15:00:00 12.86 C 6.68 g/m*3 12.86 C 0 km/h
737 15-10-2010 16:00:00 12.24 C 6.79 g/m*3 12.24 C 0 km/h
738 15-10-2010 17:00:00 11.56 C 7.07 g/m*3 11.56 C 0 km/h
739 15-10-2010 18:00:00 10.88 C 7.03 g/m*3 10.88 C 0 km/h
740 15-10-2010 19:00:00 10.52 C 7.01 g/m*3 10.52 C 0 km/h
741 15-10-2010 20:00:00 10.36 C 7.02 g/m*3 10.36 C 0 km/h
742 15-10-2010 21:00:00 10.1 C 7.19 g/m*3 10.1 C 0 km/h
743 15-10-2010 22:00:00 9.3 C 7.67 g/m*3 9.3 C 0 km/h
744 15-10-2010 23:00:00 9.2 C 8.04 g/m*3 9.2 C 0 km/h
745 16-10-2010 00:00:00 9.02 C 8.16 g/m*3 9.02 C 0 km/h
746 16-10-2010 01:00:00 8.82 C 8.19 g/m*3 8.82 C 0 km/h
747 16-10-2010 02:00:00 8.78 C 8.22 g/m*3 8.78 C 0 km/h
748 16-10-2010 03:00:00 8.68 C 8.21 g/m*3 8.68 C 0 km/h
749 16-10-2010 04:00:00 8.54 C 8.13 g/m*3 8.54 C 0 km/h
750 16-10-2010 05:00:00 8.36 C 8.04 g/m*3 8.36 C 0 km/h
Sensor: Nr:Datum:Temp:Abs-Feuchte:Windchill:Wind:
Aussen-T/F 751 16-10-2010 06:00:00 8.3 C 8.01 g/m*3 8.3 C 0 km/h
752 16-10-2010 07:00:00 8.12 C 7.88 g/m*3 8.12 C 0 km/h
753 16-10-2010 08:00:00 8.1 C 7.77 g/m*3 8.1 C 0 km/h
754 16-10-2010 09:00:00 8.24 C 7.81 g/m*3 8.24 C 0 km/h
755 16-10-2010 10:00:00 8.64 C 8.03 g/m*3 8.64 C 0 km/h
756 16-10-2010 11:00:00 8.96 C 8.11 g/m*3 8.96 C 0 km/h
757 16-10-2010 12:00:00 9.38 C 8.11 g/m*3 9.38 C 0 km/h
758 16-10-2010 13:00:00 9.72 C 8.16 g/m*3 9.72 C 0 km/h
759 16-10-2010 14:00:00 9.96 C 7.89 g/m*3 9.96 C 0 km/h
760 16-10-2010 15:00:00 10.08 C 7.82 g/m*3 10.08 C 0 km/h
761 16-10-2010 16:00:00 9.9 C 7.84 g/m*3 9.9 C 0 km/h
762 16-10-2010 17:00:00 9.36 C 7.9 g/m*3 9.36 C 0 km/h
763 16-10-2010 18:00:00 8.38 C 6.98 g/m*3 8.38 C 0 km/h
764 16-10-2010 19:00:00 6.96 C 6.55 g/m*3 6.96 C 0 km/h
765 16-10-2010 20:00:00 6.56 C 6.31 g/m*3 6.56 C 0 km/h
766 16-10-2010 21:00:00 6.28 C 6.21 g/m*3 6.28 C 0 km/h
767 16-10-2010 22:00:00 5.9 C 6.37 g/m*3 5.9 C 0 km/h
768 16-10-2010 23:00:00 5.96 C 6.56 g/m*3 5.96 C 0 km/h
769 17-10-2010 00:00:00 6.14 C 6.7 g/m*3 6.14 C 0 km/h
770 17-10-2010 01:00:00 6.24 C 6.71 g/m*3 6.24 C 0 km/h
771 17-10-2010 02:00:00 6.22 C 6.61 g/m*3 6.22 C 0 km/h
772 17-10-2010 03:00:00 6.24 C 6.49 g/m*3 6.24 C 0 km/h
773 17-10-2010 04:00:00 6.22 C 6.33 g/m*3 6.22 C 0 km/h
774 17-10-2010 05:00:00 6.3 C 6.43 g/m*3 6.3 C 0 km/h
775 17-10-2010 06:00:00 6.34 C 6.46 g/m*3 6.34 C 0 km/h
Sensor: Nr:Datum:Temp:Abs-Feuchte:Windchill:Wind:
Aussen-T/F 776 17-10-2010 07:00:00 6.34 C 6.29 g/m*3 6.34 C 0 km/h
777 17-10-2010 08:00:00 6.58 C 6.17 g/m*3 6.58 C 0 km/h
778 17-10-2010 09:00:00 6.88 C 6.15 g/m*3 6.88 C 0 km/h
779 17-10-2010 10:00:00 7.32 C 6.14 g/m*3 7.32 C 0 km/h
780 17-10-2010 11:00:00 7.7 C 5.98 g/m*3 7.7 C 0 km/h
781 17-10-2010 12:00:00 7.88 C 5.97 g/m*3 7.88 C 0 km/h
782 17-10-2010 13:00:00 8.1 C 5.96 g/m*3 8.1 C 0 km/h
783 17-10-2010 14:00:00 8.36 C 6.14 g/m*3 8.36 C 0 km/h
784 17-10-2010 15:00:00 8.52 C 6.12 g/m*3 8.52 C 0 km/h
785 17-10-2010 16:00:00 8.46 C 6.28 g/m*3 8.46 C 0 km/h
786 17-10-2010 17:00:00 8.3 C 6.32 g/m*3 8.3 C 0 km/h
787 17-10-2010 18:00:00 7.9 C 6.32 g/m*3 7.9 C 0 km/h
788 17-10-2010 19:00:00 7.68 C 6.38 g/m*3 7.68 C 0 km/h
789 17-10-2010 20:00:00 7.68 C 6.43 g/m*3 7.68 C 0 km/h
790 17-10-2010 21:00:00 7.62 C 6.44 g/m*3 7.62 C 0 km/h
791 17-10-2010 22:00:00 7.38 C 6.43 g/m*3 7.38 C 0 km/h
792 17-10-2010 23:00:00 7.04 C 6.31 g/m*3 7.04 C 0 km/h
793 18-10-2010 00:00:00 6.48 C 6.19 g/m*3 6.48 C 0 km/h
794 18-10-2010 01:00:00 5.18 C 5.97 g/m*3 5.18 C 0 km/h
795 18-10-2010 02:00:00 5.8 C 6.35 g/m*3 5.8 C 0 km/h
796 18-10-2010 03:00:00 6 C 6.3 g/m*3 6 C 0 km/h
797 18-10-2010 04:00:00 6.02 C 6.25 g/m*3 6.02 C 0 km/h
798 18-10-2010 05:00:00 5.84 C 6.1 g/m*3 5.84 C 0 km/h
799 18-10-2010 06:00:00 5.8 C 6.16 g/m*3 5.8 C 0 km/h
800 18-10-2010 07:00:00 5.76 C 6.14 g/m*3 5.76 C 0 km/h
Sensor: Nr:Datum:Temp:Abs-Feuchte:Windchill:Wind:
Aussen-T/F 801 18-10-2010 08:00:00 5.78 C 6.2 g/m*3 5.78 C 0 km/h
802 18-10-2010 09:00:00 6.66 C 6.44 g/m*3 6.66 C 0 km/h
803 18-10-2010 10:00:00 7.56 C 5.99 g/m*3 7.56 C 0 km/h
804 18-10-2010 11:00:00 7.76 C 5.06 g/m*3 7.76 C 0 km/h
805 18-10-2010 12:00:00 8.26 C 4.98 g/m*3 8.26 C 0 km/h
806 18-10-2010 13:00:00 8.82 C 4.85 g/m*3 8.82 C 0 km/h
807 18-10-2010 14:00:00 8.88 C 4.86 g/m*3 8.88 C 0 km/h
808 18-10-2010 15:00:00 8.74 C 4.86 g/m*3 8.74 C 0 km/h
809 18-10-2010 16:00:00 8.74 C 4.91 g/m*3 8.74 C 0 km/h
810 18-10-2010 17:00:00 8.52 C 4.86 g/m*3 8.52 C 0 km/h
811 18-10-2010 18:00:00 7.76 C 4.97 g/m*3 7.76 C 0 km/h
812 18-10-2010 19:00:00 6.32 C 4.89 g/m*3 6.32 C 0 km/h
813 18-10-2010 20:00:00 5.6 C 5.05 g/m*3 5.6 C 0 km/h
814 18-10-2010 21:00:00 5.18 C 5.03 g/m*3 5.18 C 0 km/h
815 18-10-2010 22:00:00 4.92 C 5.06 g/m*3 4.92 C 0 km/h
816 18-10-2010 23:00:00 4.86 C 5.17 g/m*3 4.86 C 0 km/h
817 19-10-2010 00:00:00 5.14 C 5.24 g/m*3 5.14 C 0 km/h
818 19-10-2010 01:00:00 5.42 C 5.27 g/m*3 5.42 C 0 km/h
819 19-10-2010 02:00:00 5.5 C 5.32 g/m*3 5.5 C 0 km/h
820 19-10-2010 03:00:00 4.96 C 5.75 g/m*3 4.96 C 0 km/h
821 19-10-2010 04:00:00 5.04 C 6.04 g/m*3 5.04 C 0 km/h
822 19-10-2010 05:00:00 5.42 C 6.06 g/m*3 5.42 C 0 km/h
823 19-10-2010 06:00:00 5.6 C 6.31 g/m*3 5.6 C 0 km/h
824 19-10-2010 07:00:00 5.98 C 6.38 g/m*3 5.98 C 0 km/h
825 19-10-2010 08:00:00 5.98 C 6.42 g/m*3 5.98 C 0 km/h
Sensor: Nr:Datum:Temp:Abs-Feuchte:Windchill:Wind:
Aussen-T/F 826 19-10-2010 09:00:00 6.54 C 6.62 g/m*3 6.54 C 0 km/h
827 19-10-2010 10:00:00 7.34 C 6.65 g/m*3 7.34 C 0 km/h
828 19-10-2010 11:00:00 7.5 C 6.93 g/m*3 7.5 C 0 km/h
829 19-10-2010 12:00:00 7.98 C 7.08 g/m*3 7.98 C 0 km/h
830 19-10-2010 13:00:00 9.08 C 7.48 g/m*3 9.08 C 0 km/h
831 19-10-2010 14:00:00 9.8 C 7.42 g/m*3 9.8 C 0 km/h
832 19-10-2010 15:00:00 10.34 C 7.37 g/m*3 10.34 C 0 km/h
833 19-10-2010 16:00:00 12.46 C 7 g/m*3 12.46 C 0 km/h
834 19-10-2010 17:00:00 10.3 C 7.22 g/m*3 10.3 C 0 km/h
835 19-10-2010 18:00:00 9.04 C 6.96 g/m*3 9.04 C 0 km/h
836 19-10-2010 19:00:00 7.98 C 6.85 g/m*3 7.98 C 0 km/h
837 19-10-2010 20:00:00 7.36 C 6.46 g/m*3 7.36 C 0 km/h
838 19-10-2010 21:00:00 6.94 C 6.22 g/m*3 6.94 C 0 km/h
839 19-10-2010 22:00:00 6.52 C 6.16 g/m*3 6.52 C 0 km/h
840 19-10-2010 23:00:00 6.54 C 6.2 g/m*3 6.54 C 0 km/h
841 20-10-2010 00:00:00 6.34 C 6.16 g/m*3 6.34 C 0 km/h
842 20-10-2010 01:00:00 6.38 C 6.16 g/m*3 6.38 C 0 km/h
843 20-10-2010 02:00:00 5.94 C 6.39 g/m*3 5.94 C 0 km/h
844 20-10-2010 03:00:00 5.76 C 6.53 g/m*3 5.76 C 0 km/h
845 20-10-2010 04:00:00 5.84 C 6.51 g/m*3 5.84 C 0 km/h
846 20-10-2010 05:00:00 5.62 C 6.56 g/m*3 5.62 C 0 km/h
847 20-10-2010 06:00:00 5.52 C 6.61 g/m*3 5.52 C 0 km/h
848 20-10-2010 07:00:00 5.5 C 6.64 g/m*3 5.5 C 0 km/h
849 20-10-2010 08:00:00 5.6 C 6.66 g/m*3 5.6 C 0 km/h
850 20-10-2010 09:00:00 6 C 6.84 g/m*3 6 C 0 km/h
Sensor: Nr:Datum:Temp:Abs-Feuchte:Windchill:Wind:
Aussen-T/F 851 20-10-2010 10:00:00 6.92 C 6.95 g/m*3 6.92 C 0 km/h
852 20-10-2010 11:00:00 6.84 C 6.44 g/m*3 6.84 C 0 km/h
853 20-10-2010 12:00:00 6.92 C 6.38 g/m*3 6.92 C 0 km/h
854 20-10-2010 13:00:00 7.92 C 6.2 g/m*3 7.92 C 0 km/h
855 20-10-2010 14:00:00 9.48 C 5.67 g/m*3 9.48 C 0 km/h
856 20-10-2010 15:00:00 7.68 C 5.56 g/m*3 7.68 C 0 km/h
857 20-10-2010 16:00:00 7.36 C 5.06 g/m*3 7.36 C 0 km/h
858 20-10-2010 17:00:00 7.02 C 4.92 g/m*3 7.02 C 0 km/h
859 20-10-2010 18:00:00 6.32 C 5.04 g/m*3 6.32 C 0 km/h
860 20-10-2010 19:00:00 4.64 C 5.24 g/m*3 4.64 C 0 km/h
861 20-10-2010 20:00:00 4.54 C 5.25 g/m*3 4.54 C 0 km/h
862 20-10-2010 21:00:00 4.46 C 5.11 g/m*3 4.46 C 0 km/h
863 20-10-2010 22:00:00 4.48 C 5.07 g/m*3 4.48 C 0 km/h
864 20-10-2010 23:00:00 4.32 C 5.05 g/m*3 4.32 C 0 km/h
865 21-10-2010 00:00:00 4.6 C 5.11 g/m*3 4.6 C 0 km/h
866 21-10-2010 01:00:00 4.44 C 5.04 g/m*3 4.44 C 0 km/h
867 21-10-2010 02:00:00 3.74 C 4.97 g/m*3 3.74 C 0 km/h
868 21-10-2010 03:00:00 3.32 C 4.98 g/m*3 3.32 C 0 km/h
869 21-10-2010 04:00:00 2.64 C 4.9 g/m*3 2.64 C 0 km/h
870 21-10-2010 05:00:00 1.92 C 4.82 g/m*3 1.92 C 0 km/h
871 21-10-2010 06:00:00 1.7 C 4.9 g/m*3 1.7 C 0 km/h
872 21-10-2010 07:00:00 1.66 C 5 g/m*3 1.66 C 0 km/h
873 21-10-2010 08:00:00 2.1 C 5.14 g/m*3 2.1 C 0 km/h
874 21-10-2010 09:00:00 3 C 5.24 g/m*3 3 C 0 km/h
875 21-10-2010 10:00:00 4.16 C 5.06 g/m*3 4.16 C 0 km/h
Sensor: Nr:Datum:Temp:Abs-Feuchte:Windchill:Wind:
Aussen-T/F 876 21-10-2010 11:00:00 5.64 C 4.99 g/m*3 5.64 C 0 km/h
877 21-10-2010 12:00:00 6.98 C 4.63 g/m*3 6.98 C 0 km/h
878 21-10-2010 13:00:00 8.7 C 4.13 g/m*3 8.7 C 0 km/h
879 21-10-2010 14:00:00 10.38 C 3.87 g/m*3 10.38 C 0 km/h
880 21-10-2010 15:00:00 10.66 C 3.63 g/m*3 10.66 C 0 km/h
881 21-10-2010 16:00:00 10.4 C 3.64 g/m*3 10.4 C 0 km/h
882 21-10-2010 17:00:00 10.96 C 3.55 g/m*3 10.96 C 0 km/h
883 21-10-2010 18:00:00 7.38 C 3.99 g/m*3 7.38 C 0 km/h
884 21-10-2010 19:00:00 5.64 C 4.05 g/m*3 5.64 C 0 km/h
885 21-10-2010 20:00:00 4.86 C 3.96 g/m*3 4.86 C 0 km/h
886 21-10-2010 21:00:00 4.62 C 3.74 g/m*3 4.62 C 0 km/h
887 21-10-2010 22:00:00 3.84 C 3.84 g/m*3 3.84 C 0 km/h
888 21-10-2010 23:00:00 3.14 C 3.89 g/m*3 3.14 C 0 km/h
889 22-10-2010 00:00:00 2.38 C 4.06 g/m*3 2.38 C 0 km/h
890 22-10-2010 01:00:00 1.74 C 4.11 g/m*3 1.74 C 0 km/h
891 22-10-2010 02:00:00 2.12 C 4.09 g/m*3 2.12 C 0 km/h
892 22-10-2010 03:00:00 2.16 C 4.08 g/m*3 2.16 C 0 km/h
893 22-10-2010 04:00:00 1.48 C 4.09 g/m*3 1.48 C 0 km/h
894 22-10-2010 05:00:00 1.38 C 4.11 g/m*3 1.38 C 0 km/h
895 22-10-2010 06:00:00 1.66 C 4.06 g/m*3 1.66 C 0 km/h
896 22-10-2010 07:00:00 0.94 C 3.98 g/m*3 0.94 C 0 km/h
897 22-10-2010 08:00:00 1.28 C 4.04 g/m*3 1.28 C 0 km/h
898 22-10-2010 09:00:00 2.06 C 4.3 g/m*3 2.06 C 0 km/h
899 22-10-2010 10:00:00 4.3 C 4.23 g/m*3 4.3 C 0 km/h
900 22-10-2010 11:00:00 5.36 C 3.94 g/m*3 5.36 C 0 km/h
Sensor: Nr:Datum:Temp:Abs-Feuchte:Windchill:Wind:
Aussen-T/F 901 22-10-2010 12:00:00 6.56 C 3.9 g/m*3 6.56 C 0 km/h
902 22-10-2010 13:00:00 7.18 C 3.89 g/m*3 7.18 C 0 km/h
903 22-10-2010 14:00:00 7.36 C 3.87 g/m*3 7.36 C 0 km/h
904 22-10-2010 15:00:00 7.22 C 3.82 g/m*3 7.22 C 0 km/h
905 22-10-2010 16:00:00 7.42 C 4.33 g/m*3 7.42 C 0 km/h
906 22-10-2010 17:00:00 7.22 C 4.28 g/m*3 7.22 C 0 km/h
907 22-10-2010 18:00:00 6.18 C 4.1 g/m*3 6.18 C 0 km/h
908 22-10-2010 19:00:00 6.2 C 3.69 g/m*3 6.2 C 0 km/h
909 22-10-2010 20:00:00 6.02 C 3.82 g/m*3 6.02 C 0 km/h
910 22-10-2010 21:00:00 5.72 C 3.9 g/m*3 5.72 C 0 km/h
911 22-10-2010 22:00:00 4.14 C 4.09 g/m*3 4.14 C 0 km/h
912 22-10-2010 23:00:00 2.76 C 4.31 g/m*3 2.76 C 0 km/h
913 23-10-2010 00:00:00 1.7 C 4.3 g/m*3 1.7 C 0 km/h
914 23-10-2010 01:00:00 1.08 C 4.29 g/m*3 1.08 C 0 km/h
915 23-10-2010 02:00:00 0.54 C 4.24 g/m*3 0.54 C 0 km/h
916 23-10-2010 03:00:00 0.1 C 4.19 g/m*3 0.1 C 0 km/h
917 23-10-2010 04:00:00 -0.34 C 4.14 g/m*3 -0.34 C 0 km/h
918 23-10-2010 05:00:00 -0.82 C 4.03 g/m*3 -0.82 C 0 km/h
919 23-10-2010 06:00:00 -1.04 C 4 g/m*3 -1.04 C 0 km/h
920 23-10-2010 07:00:00 -0.86 C 4.09 g/m*3 -0.86 C 0 km/h
921 23-10-2010 08:00:00 -0.78 C 4.18 g/m*3 -0.78 C 0 km/h
922 23-10-2010 09:00:00 -0.82 C 4.14 g/m*3 -0.82 C 0 km/h
923 23-10-2010 10:00:00 1.06 C 4.78 g/m*3 1.06 C 0 km/h
924 23-10-2010 11:00:00 4.08 C 5.33 g/m*3 4.08 C 0 km/h
925 23-10-2010 12:00:00 6.64 C 5.16 g/m*3 6.64 C 0 km/h
Sensor: Nr:Datum:Temp:Abs-Feuchte:Windchill:Wind:
Aussen-T/F 926 23-10-2010 13:00:00 8.56 C 4.97 g/m*3 8.56 C 0 km/h
927 23-10-2010 14:00:00 9.08 C 4.25 g/m*3 9.08 C 0 km/h
928 23-10-2010 15:00:00 8.42 C 4.64 g/m*3 8.42 C 0 km/h
929 23-10-2010 16:00:00 7.92 C 4.93 g/m*3 7.92 C 0 km/h
930 23-10-2010 17:00:00 7.88 C 5.35 g/m*3 7.88 C 0 km/h
931 23-10-2010 18:00:00 8.04 C 5.49 g/m*3 8.04 C 0 km/h
932 23-10-2010 19:00:00 8.56 C 5.16 g/m*3 8.56 C 0 km/h
933 23-10-2010 20:00:00 9.14 C 5.27 g/m*3 9.14 C 0 km/h
934 23-10-2010 21:00:00 9.26 C 5.77 g/m*3 9.26 C 0 km/h
935 23-10-2010 22:00:00 9.375 C 5.85 g/m*3 9.38 C 0 km/h
936 23-10-2010 23:00:00 9.32 C 5.67 g/m*3 9.32 C 0 km/h
937 24-10-2010 00:00:00 9.02 C 5.74 g/m*3 9.02 C 0 km/h
938 24-10-2010 01:00:00 8.98 C 5.85 g/m*3 8.98 C 0 km/h
939 24-10-2010 02:00:00 8.46 C 6.28 g/m*3 8.46 C 0 km/h
940 24-10-2010 03:00:00 8.46 C 6.3 g/m*3 8.46 C 0 km/h
941 24-10-2010 04:00:00 8.66 C 6.02 g/m*3 8.66 C 0 km/h
942 24-10-2010 05:00:00 8.5 C 5.98 g/m*3 8.5 C 0 km/h
943 24-10-2010 06:00:00 7.98 C 6.24 g/m*3 7.98 C 0 km/h
944 24-10-2010 07:00:00 7.06 C 6.72 g/m*3 7.06 C 0 km/h
945 24-10-2010 08:00:00 6.96 C 6.91 g/m*3 6.96 C 0 km/h
946 24-10-2010 09:00:00 7.14 C 7.02 g/m*3 7.14 C 0 km/h
947 24-10-2010 10:00:00 7 C 6.65 g/m*3 7 C 0 km/h
948 24-10-2010 11:00:00 8.3 C 5.85 g/m*3 8.3 C 0 km/h
949 24-10-2010 12:00:00 9.36 C 4.75 g/m*3 9.36 C 0 km/h
950 24-10-2010 13:00:00 10.46 C 4.6 g/m*3 10.46 C 0 km/h
Sensor: Nr:Datum:Temp:Abs-Feuchte:Windchill:Wind:
Aussen-T/F 951 24-10-2010 14:00:00 11.62 C 4.29 g/m*3 11.62 C 0 km/h
952 24-10-2010 15:00:00 12.3 C 4.23 g/m*3 12.3 C 0 km/h
953 24-10-2010 16:00:00 13.04 C 3.75 g/m*3 13.04 C 0 km/h
954 24-10-2010 17:00:00 12.02 C 4.01 g/m*3 12.02 C 0 km/h
955 24-10-2010 18:00:00 9.56 C 4.75 g/m*3 9.56 C 0 km/h
956 24-10-2010 19:00:00 7.42 C 5.14 g/m*3 7.42 C 0 km/h
957 24-10-2010 20:00:00 6.48 C 5.18 g/m*3 6.48 C 0 km/h
958 24-10-2010 21:00:00 6.12 C 5.38 g/m*3 6.12 C 0 km/h
959 24-10-2010 22:00:00 5.62 C 5.56 g/m*3 5.62 C 0 km/h
960 24-10-2010 23:00:00 4.84 C 5.49 g/m*3 4.84 C 0 km/h
961 25-10-2010 00:00:00 4.8 C 5.7 g/m*3 4.8 C 0 km/h
962 25-10-2010 01:00:00 4.5 C 5.65 g/m*3 4.5 C 0 km/h
963 25-10-2010 02:00:00 4.42 C 5.69 g/m*3 4.42 C 0 km/h
964 25-10-2010 03:00:00 4.62 C 5.76 g/m*3 4.62 C 0 km/h
965 25-10-2010 04:00:00 5.1 C 5.73 g/m*3 5.1 C 0 km/h
966 25-10-2010 05:00:00 5.1 C 5.62 g/m*3 5.1 C 0 km/h
967 25-10-2010 06:00:00 5.04 C 5.55 g/m*3 5.04 C 0 km/h
968 25-10-2010 07:00:00 4.86 C 5.51 g/m*3 4.86 C 0 km/h
969 25-10-2010 08:00:00 4.9 C 5.52 g/m*3 4.9 C 0 km/h
970 25-10-2010 09:00:00 5.06 C 5.47 g/m*3 5.06 C 0 km/h
971 25-10-2010 10:00:00 5.8 C 5.5 g/m*3 5.8 C 0 km/h
972 25-10-2010 11:00:00 6.54 C 5.44 g/m*3 6.54 C 0 km/h
973 25-10-2010 12:00:00 7.84 C 5.3 g/m*3 7.84 C 0 km/h
974 25-10-2010 13:00:00 8.74 C 5.12 g/m*3 8.74 C 0 km/h
975 25-10-2010 14:00:00 10.1 C 4.63 g/m*3 10.1 C 0 km/h
Sensor: Nr:Datum:Temp:Abs-Feuchte:Windchill:Wind:
Aussen-T/F 976 25-10-2010 15:00:00 10.4 C 3.91 g/m*3 10.4 C 0 km/h
977 25-10-2010 16:00:00 10.72 C 3.91 g/m*3 10.72 C 0 km/h
978 25-10-2010 17:00:00 10.68 C 4.06 g/m*3 10.68 C 0 km/h
979 25-10-2010 18:00:00 8.36 C 4.25 g/m*3 8.36 C 0 km/h
980 25-10-2010 19:00:00 6.22 C 4.68 g/m*3 6.22 C 0 km/h
981 25-10-2010 20:00:00 4.66 C 4.77 g/m*3 4.66 C 0 km/h
982 25-10-2010 21:00:00 3.92 C 4.92 g/m*3 3.92 C 0 km/h
983 25-10-2010 22:00:00 3 C 4.83 g/m*3 3 C 0 km/h
984 25-10-2010 23:00:00 2.28 C 4.79 g/m*3 2.28 C 0 km/h
985 26-10-2010 00:00:00 1.88 C 4.78 g/m*3 1.88 C 0 km/h
986 26-10-2010 01:00:00 1.48 C 4.76 g/m*3 1.48 C 0 km/h
987 26-10-2010 02:00:00 0.82 C 4.64 g/m*3 0.82 C 0 km/h
988 26-10-2010 03:00:00 0.3 C 4.5 g/m*3 0.3 C 0 km/h
989 26-10-2010 04:00:00 0.12 C 4.51 g/m*3 0.12 C 0 km/h
990 26-10-2010 05:00:00 0.08 C 4.56 g/m*3 0.08 C 0 km/h
991 26-10-2010 06:00:00 0.14 C 4.6 g/m*3 0.14 C 0 km/h
992 26-10-2010 07:00:00 -0.32 C 4.45 g/m*3 -0.32 C 0 km/h
993 26-10-2010 08:00:00 -0.42 C 4.42 g/m*3 -0.42 C 0 km/h
994 26-10-2010 09:00:00 -0.36 C 4.44 g/m*3 -0.36 C 0 km/h
995 26-10-2010 10:00:00 0.1 C 4.58 g/m*3 0.1 C 0 km/h
996 26-10-2010 11:00:00 1.22 C 4.82 g/m*3 1.22 C 0 km/h
997 26-10-2010 12:00:00 3.16 C 5.19 g/m*3 3.16 C 0 km/h
998 26-10-2010 13:00:00 5.54 C 5.61 g/m*3 5.54 C 0 km/h
999 26-10-2010 14:00:00 8.88 C 5.51 g/m*3 8.88 C 0 km/h
1000 26-10-2010 15:00:00 9.72 C 5.28 g/m*3 9.72 C 0 km/h
Sensor: Nr:Datum:Temp:Abs-Feuchte:Windchill:Wind:
Aussen-T/F 1001 26-10-2010 16:00:00 9.24 C 5.41 g/m*3 9.24 C 0 km/h
1002 26-10-2010 17:00:00 8.04 C 5.69 g/m*3 8.04 C 0 km/h
1003 26-10-2010 18:00:00 7.08 C 5.64 g/m*3 7.08 C 0 km/h
1004 26-10-2010 19:00:00 6.58 C 5.68 g/m*3 6.58 C 0 km/h
1005 26-10-2010 20:00:00 6.34 C 5.66 g/m*3 6.34 C 0 km/h
1006 26-10-2010 21:00:00 6.06 C 5.58 g/m*3 6.06 C 0 km/h
1007 26-10-2010 22:00:00 5.7 C 5.71 g/m*3 5.7 C 0 km/h
1008 26-10-2010 23:00:00 5.6 C 5.73 g/m*3 5.6 C 0 km/h
1009 27-10-2010 00:00:00 5.16 C 5.6 g/m*3 5.16 C 0 km/h
1010 27-10-2010 01:00:00 5.36 C 5.14 g/m*3 5.36 C 0 km/h
1011 27-10-2010 02:00:00 5.54 C 5.11 g/m*3 5.54 C 0 km/h
1012 27-10-2010 03:00:00 5.48 C 5.26 g/m*3 5.48 C 0 km/h
1013 27-10-2010 04:00:00 5.42 C 5.24 g/m*3 5.42 C 0 km/h
1014 27-10-2010 05:00:00 5.64 C 5.16 g/m*3 5.64 C 0 km/h
1015 27-10-2010 06:00:00 5.68 C 5.22 g/m*3 5.68 C 0 km/h
1016 27-10-2010 07:00:00 5.76 C 5.16 g/m*3 5.76 C 0 km/h
1017 27-10-2010 08:00:00 5.68 C 5.09 g/m*3 5.68 C 0 km/h
1018 27-10-2010 09:00:00 5.84 C 5.65 g/m*3 5.84 C 0 km/h
1019 27-10-2010 10:00:00 7 C 5.8 g/m*3 7 C 0 km/h
1020 27-10-2010 11:00:00 8.22 C 5.45 g/m*3 8.22 C 0 km/h
1021 27-10-2010 12:00:00 9.62 C 4.46 g/m*3 9.62 C 0 km/h
1022 27-10-2010 13:00:00 10.92 C 3.84 g/m*3 10.92 C 0 km/h
1023 27-10-2010 14:00:00 11.06 C 3.64 g/m*3 11.06 C 0 km/h
1024 27-10-2010 15:00:00 11.56 C 3.55 g/m*3 11.56 C 0 km/h
1025 27-10-2010 16:00:00 11.98 C 3.43 g/m*3 11.98 C 0 km/h
Sensor: Nr:Datum:Temp:Abs-Feuchte:Windchill:Wind:
Aussen-T/F 1026 27-10-2010 17:00:00 11.6 C 3.55 g/m*3 11.6 C 0 km/h
1027 27-10-2010 18:00:00 10.44 C 4.27 g/m*3 10.44 C 0 km/h
1028 27-10-2010 19:00:00 10.04 C 4.41 g/m*3 10.04 C 0 km/h
1029 27-10-2010 20:00:00 9.8 C 4.42 g/m*3 9.8 C 0 km/h
1030 27-10-2010 21:00:00 9.56 C 4.71 g/m*3 9.56 C 0 km/h
1031 27-10-2010 22:00:00 9.2 C 4.89 g/m*3 9.2 C 0 km/h
1032 27-10-2010 23:00:00 9.02 C 4.86 g/m*3 9.02 C 0 km/h
1033 28-10-2010 00:00:00 8.66 C 4.87 g/m*3 8.66 C 0 km/h
1034 28-10-2010 01:00:00 8.46 C 4.91 g/m*3 8.46 C 0 km/h
1035 28-10-2010 02:00:00 8.06 C 5.05 g/m*3 8.06 C 0 km/h
1036 28-10-2010 03:00:00 7.62 C 4.86 g/m*3 7.62 C 0 km/h
1037 28-10-2010 04:00:00 7.66 C 5.06 g/m*3 7.66 C 0 km/h
1038 28-10-2010 05:00:00 7.52 C 5.05 g/m*3 7.52 C 0 km/h
1039 28-10-2010 06:00:00 7.98 C 4.41 g/m*3 7.98 C 0 km/h
1040 28-10-2010 07:00:00 8.48 C 4.31 g/m*3 8.48 C 0 km/h
1041 28-10-2010 08:00:00 8.7 C 4.67 g/m*3 8.7 C 0 km/h
1042 28-10-2010 09:00:00 8.86 C 4.91 g/m*3 8.86 C 0 km/h
1043 28-10-2010 10:00:00 7.9 C 6.09 g/m*3 7.9 C 0 km/h
1044 28-10-2010 11:00:00 9.7 C 5.97 g/m*3 9.7 C 0 km/h
1045 28-10-2010 12:00:00 10.72 C 5.78 g/m*3 10.72 C 0 km/h
1046 28-10-2010 13:00:00 11.34 C 5.69 g/m*3 11.34 C 0 km/h
1047 28-10-2010 14:00:00 12.3 C 5.67 g/m*3 12.3 C 0 km/h
1048 28-10-2010 15:00:00 12.72 C 5.66 g/m*3 12.72 C 0 km/h
1049 28-10-2010 16:00:00 11.62 C 6.12 g/m*3 11.62 C 0 km/h
1050 28-10-2010 17:00:00 11.08 C 6.14 g/m*3 11.08 C 0 km/h
Sensor: Nr:Datum:Temp:Abs-Feuchte:Windchill:Wind:
Aussen-T/F 1051 28-10-2010 18:00:00 9.86 C 6.13 g/m*3 9.86 C 0 km/h
1052 28-10-2010 19:00:00 9.18 C 6.22 g/m*3 9.18 C 0 km/h
1053 28-10-2010 20:00:00 9 C 6.24 g/m*3 9 C 0 km/h
1054 28-10-2010 21:00:00 8.38 C 6.3 g/m*3 8.38 C 0 km/h
1055 28-10-2010 22:00:00 7.56 C 6.36 g/m*3 7.56 C 0 km/h
1056 28-10-2010 23:00:00 6.78 C 6.32 g/m*3 6.78 C 0 km/h
1057 29-10-2010 00:00:00 6.26 C 6.26 g/m*3 6.26 C 0 km/h
1058 29-10-2010 01:00:00 6.28 C 6.4 g/m*3 6.28 C 0 km/h
1059 29-10-2010 02:00:00 6.46 C 6.57 g/m*3 6.46 C 0 km/h
1060 29-10-2010 03:00:00 7.23333 C 6.82 g/m*3 7.23 C 0 km/h
1061 02-11-2010 08:00:00 8.77778 C 6.98 g/m*3 8.78 C 0 km/h
1062 02-11-2010 09:00:00 9.9 C 6.85 g/m*3 9.9 C 0 km/h
1063 02-11-2010 10:00:00 11.04 C 6.74 g/m*3 11.04 C 0 km/h
1064 02-11-2010 11:00:00 11.88 C 6.43 g/m*3 11.88 C 0 km/h
1065 02-11-2010 12:00:00 12.52 C 6.49 g/m*3 12.52 C 0 km/h
1066 02-11-2010 13:00:00 12.72 C 6.33 g/m*3 12.72 C 0 km/h
1067 02-11-2010 14:00:00 12.8 C 6.36 g/m*3 12.8 C 0 km/h
1068 02-11-2010 15:00:00 12.92 C 6.39 g/m*3 12.92 C 0 km/h
1069 02-11-2010 16:00:00 12.34 C 6.44 g/m*3 12.34 C 0 km/h
1070 02-11-2010 17:00:00 11.34 C 6.61 g/m*3 11.34 C 0 km/h
1071 02-11-2010 18:00:00 11.22 C 6.66 g/m*3 11.22 C 0 km/h
1072 02-11-2010 19:00:00 11.46 C 6.66 g/m*3 11.46 C 0 km/h
1073 02-11-2010 20:00:00 11 C 7.01 g/m*3 11 C 0 km/h
1074 02-11-2010 21:00:00 10.94 C 7.18 g/m*3 10.94 C 0 km/h
1075 02-11-2010 22:00:00 11.08 C 7.42 g/m*3 11.08 C 0 km/h
Sensor: Nr:Datum:Temp:Abs-Feuchte:Windchill:Wind:
Aussen-T/F 1076 02-11-2010 23:00:00 11.14 C 7.57 g/m*3 11.14 C 0 km/h
1077 03-11-2010 00:00:00 11.32 C 7.66 g/m*3 11.32 C 0 km/h
1078 03-11-2010 01:00:00 10.88 C 7.49 g/m*3 10.88 C 0 km/h
1079 03-11-2010 02:00:00 11.68 C 7.56 g/m*3 11.68 C 0 km/h
1080 03-11-2010 03:00:00 12.06 C 7.34 g/m*3 12.06 C 0 km/h
1081 03-11-2010 04:00:00 12.44 C 7.47 g/m*3 12.44 C 0 km/h
1082 03-11-2010 05:00:00 12.72 C 7.49 g/m*3 12.72 C 0 km/h
1083 03-11-2010 06:00:00 12.66 C 7.62 g/m*3 12.66 C 0 km/h
1084 03-11-2010 07:00:00 12.76 C 7.66 g/m*3 12.76 C 0 km/h
1085 03-11-2010 08:00:00 13.28 C 7.57 g/m*3 13.28 C 0 km/h
1086 03-11-2010 09:00:00 13.78 C 7.64 g/m*3 13.78 C 0 km/h
1087 03-11-2010 10:00:00 14.2 C 7.55 g/m*3 14.2 C 0 km/h
1088 03-11-2010 11:00:00 14.42 C 7.65 g/m*3 14.42 C 0 km/h
1089 03-11-2010 12:00:00 13.94 C 7.74 g/m*3 13.94 C 0 km/h
1090 03-11-2010 13:00:00 13.54 C 7.83 g/m*3 13.54 C 0 km/h
1091 03-11-2010 14:00:00 13.66 C 7.94 g/m*3 13.66 C 0 km/h
1092 03-11-2010 15:00:00 13.78 C 8.07 g/m*3 13.78 C 0 km/h
1093 03-11-2010 16:00:00 13.46 C 8.1 g/m*3 13.46 C 0 km/h
1094 03-11-2010 17:00:00 13.06 C 8.2 g/m*3 13.06 C 0 km/h
1095 03-11-2010 18:00:00 12.66 C 8.31 g/m*3 12.66 C 0 km/h
1096 03-11-2010 19:00:00 12.96 C 8.26 g/m*3 12.96 C 0 km/h
1097 03-11-2010 20:00:00 13.38 C 8.2 g/m*3 13.38 C 0 km/h
1098 03-11-2010 21:00:00 13.54 C 8.16 g/m*3 13.54 C 0 km/h
1099 03-11-2010 22:00:00 14.1 C 8.16 g/m*3 14.1 C 0 km/h
1100 03-11-2010 23:00:00 14.2 C 8.4 g/m*3 14.2 C 0 km/h
Sensor: Nr:Datum:Temp:Abs-Feuchte:Windchill:Wind:
Aussen-T/F 1101 04-11-2010 00:00:00 14.3 C 8.77 g/m*3 14.3 C 0 km/h
1102 04-11-2010 01:00:00 14.74 C 9.06 g/m*3 14.74 C 0 km/h
1103 04-11-2010 02:00:00 14.96 C 9.06 g/m*3 14.96 C 0 km/h
1104 04-11-2010 03:00:00 15.16 C 9.12 g/m*3 15.16 C 0 km/h
1105 04-11-2010 04:00:00 15.22 C 9.3 g/m*3 15.22 C 0 km/h
1106 04-11-2010 05:00:00 15.54 C 9.41 g/m*3 15.54 C 0 km/h
1107 04-11-2010 06:00:00 15.7 C 9.61 g/m*3 15.7 C 0 km/h
1108 04-11-2010 07:00:00 15.92 C 9.52 g/m*3 15.92 C 0 km/h
1109 04-11-2010 08:00:00 16.2 C 9.43 g/m*3 16.2 C 0 km/h
1110 04-11-2010 09:00:00 16.64 C 9.06 g/m*3 16.64 C 0 km/h
1111 04-11-2010 10:00:00 17.24 C 8.84 g/m*3 17.24 C 0 km/h
1112 04-11-2010 11:00:00 17.82 C 8.45 g/m*3 17.82 C 0 km/h
1113 04-11-2010 12:00:00 18.44 C 8.17 g/m*3 18.44 C 0 km/h
1114 04-11-2010 13:00:00 18.54 C 8.18 g/m*3 18.54 C 0 km/h
1115 04-11-2010 14:00:00 18.44 C 8.01 g/m*3 18.44 C 0 km/h
1116 04-11-2010 15:00:00 18.24 C 8.13 g/m*3 18.24 C 0 km/h
1117 04-11-2010 16:00:00 17.52 C 8.42 g/m*3 17.52 C 0 km/h
1118 04-11-2010 17:00:00 16.92 C 8.44 g/m*3 16.92 C 0 km/h
1119 04-11-2010 18:00:00 16.78 C 8.43 g/m*3 16.78 C 0 km/h
1120 04-11-2010 19:00:00 16.92 C 8.47 g/m*3 16.92 C 0 km/h
1121 04-11-2010 20:00:00 16.12 C 8.12 g/m*3 16.12 C 0 km/h
1122 04-11-2010 21:00:00 15.74 C 8.05 g/m*3 15.74 C 0 km/h
1123 04-11-2010 22:00:00 15.38 C 7.87 g/m*3 15.38 C 0 km/h
1124 04-11-2010 23:00:00 15.4 C 7.88 g/m*3 15.4 C 0 km/h
1125 05-11-2010 00:00:00 15.34 C 7.88 g/m*3 15.34 C 0 km/h
Sensor: Nr:Datum:Temp:Abs-Feuchte:Windchill:Wind:
Aussen-T/F 1126 05-11-2010 01:00:00 15.14 C 7.53 g/m*3 15.14 C 0 km/h
1127 05-11-2010 02:00:00 14.74 C 7.45 g/m*3 14.74 C 0 km/h
1128 05-11-2010 03:00:00 14.46 C 7.37 g/m*3 14.46 C 0 km/h
1129 05-11-2010 04:00:00 14.2 C 7.38 g/m*3 14.2 C 0 km/h
1130 05-11-2010 05:00:00 14.14 C 7.18 g/m*3 14.14 C 0 km/h
1131 05-11-2010 06:00:00 13.82 C 7.13 g/m*3 13.82 C 0 km/h
1132 05-11-2010 07:00:00 13.46 C 6.95 g/m*3 13.46 C 0 km/h
1133 05-11-2010 08:00:00 13.88 C 6.61 g/m*3 13.88 C 0 km/h
1134 05-11-2010 09:00:00 14.52 C 6.72 g/m*3 14.52 C 0 km/h
1135 05-11-2010 10:00:00 14.9 C 6.88 g/m*3 14.9 C 0 km/h
1136 05-11-2010 11:00:00 15.22 C 6.99 g/m*3 15.22 C 0 km/h
1137 05-11-2010 12:00:00 15.14 C 7.09 g/m*3 15.14 C 0 km/h
1138 05-11-2010 13:00:00 15.1 C 7.1 g/m*3 15.1 C 0 km/h
1139 05-11-2010 14:00:00 14.8 C 7.4 g/m*3 14.8 C 0 km/h
1140 05-11-2010 15:00:00 14.6 C 7.48 g/m*3 14.6 C 0 km/h
1141 05-11-2010 16:00:00 14.56 C 7.49 g/m*3 14.56 C 0 km/h
1142 05-11-2010 17:00:00 14.64 C 7.55 g/m*3 14.64 C 0 km/h
1143 05-11-2010 18:00:00 14.76 C 7.58 g/m*3 14.76 C 0 km/h
1144 05-11-2010 19:00:00 14.36 C 7.57 g/m*3 14.36 C 0 km/h
1145 05-11-2010 20:00:00 14.44 C 7.58 g/m*3 14.44 C 0 km/h
1146 05-11-2010 21:00:00 14.28 C 7.61 g/m*3 14.28 C 0 km/h
1147 05-11-2010 22:00:00 14.02 C 7.58 g/m*3 14.02 C 0 km/h
1148 05-11-2010 23:00:00 13.94 C 7.57 g/m*3 13.94 C 0 km/h
1149 06-11-2010 00:00:00 14.04 C 7.57 g/m*3 14.04 C 0 km/h
1150 06-11-2010 01:00:00 14.02 C 7.61 g/m*3 14.02 C 0 km/h
Sensor: Nr:Datum:Temp:Abs-Feuchte:Windchill:Wind:
Aussen-T/F 1151 06-11-2010 02:00:00 13.38 C 7.69 g/m*3 13.38 C 0 km/h
1152 06-11-2010 03:00:00 12.9 C 7.98 g/m*3 12.9 C 0 km/h
1153 06-11-2010 04:00:00 12.78 C 8.12 g/m*3 12.78 C 0 km/h
1154 06-11-2010 05:00:00 13.12 C 8 g/m*3 13.12 C 0 km/h
1155 06-11-2010 06:00:00 13.46 C 7.86 g/m*3 13.46 C 0 km/h
1156 06-11-2010 07:00:00 13.48 C 7.57 g/m*3 13.48 C 0 km/h
1157 06-11-2010 08:00:00 13.34 C 7.5 g/m*3 13.34 C 0 km/h
1158 06-11-2010 09:00:00 11.92 C 7.55 g/m*3 11.92 C 0 km/h
1159 06-11-2010 10:00:00 10.18 C 7.93 g/m*3 10.18 C 0 km/h
1160 06-11-2010 11:00:00 10.58 C 8.19 g/m*3 10.58 C 0 km/h
1161 06-11-2010 12:00:00 9.78 C 7.67 g/m*3 9.78 C 0 km/h
1162 06-11-2010 13:00:00 9.08 C 7.46 g/m*3 9.08 C 0 km/h
1163 06-11-2010 14:00:00 8.92 C 7.67 g/m*3 8.92 C 0 km/h
1164 06-11-2010 15:00:00 8.64 C 7.67 g/m*3 8.64 C 0 km/h
1165 06-11-2010 16:00:00 8.2 C 7.54 g/m*3 8.2 C 0 km/h
1166 06-11-2010 17:00:00 7.84 C 7.49 g/m*3 7.84 C 0 km/h
1167 06-11-2010 18:00:00 7.44 C 7.34 g/m*3 7.44 C 0 km/h
1168 06-11-2010 19:00:00 7.42 C 7.41 g/m*3 7.42 C 0 km/h
1169 06-11-2010 20:00:00 7.2 C 7.3 g/m*3 7.2 C 0 km/h
1170 06-11-2010 21:00:00 7.26 C 7.33 g/m*3 7.26 C 0 km/h
1171 06-11-2010 22:00:00 7.48 C 7.43 g/m*3 7.48 C 0 km/h
1172 06-11-2010 23:00:00 7.36 C 7.38 g/m*3 7.36 C 0 km/h
1173 07-11-2010 00:00:00 7.22 C 7.31 g/m*3 7.22 C 0 km/h
1174 07-11-2010 01:00:00 7.18 C 7.29 g/m*3 7.18 C 0 km/h
1175 07-11-2010 02:00:00 6.98 C 7.24 g/m*3 6.98 C 0 km/h
Sensor: Nr:Datum:Temp:Abs-Feuchte:Windchill:Wind:
Aussen-T/F 1176 07-11-2010 03:00:00 7.3 C 7.4 g/m*3 7.3 C 0 km/h
1177 07-11-2010 04:00:00 7.18 C 7.34 g/m*3 7.18 C 0 km/h
1178 07-11-2010 05:00:00 6.8 C 7.19 g/m*3 6.8 C 0 km/h
1179 07-11-2010 06:00:00 6.48 C 7.04 g/m*3 6.48 C 0 km/h
1180 07-11-2010 07:00:00 6.7 C 7.14 g/m*3 6.7 C 0 km/h
1181 07-11-2010 08:00:00 7.16 C 7.28 g/m*3 7.16 C 0 km/h
1182 07-11-2010 09:00:00 7.46 C 7.47 g/m*3 7.46 C 0 km/h
1183 07-11-2010 10:00:00 7.82 C 7.68 g/m*3 7.82 C 0 km/h
1184 07-11-2010 11:00:00 8.06 C 7.67 g/m*3 8.06 C 0 km/h
1185 07-11-2010 12:00:00 8.74 C 7.87 g/m*3 8.74 C 0 km/h
1186 07-11-2010 13:00:00 8.48 C 7.5 g/m*3 8.48 C 0 km/h
1187 07-11-2010 14:00:00 8.22 C 7.43 g/m*3 8.22 C 0 km/h
1188 07-11-2010 15:00:00 7.5 C 7.17 g/m*3 7.5 C 0 km/h
1189 07-11-2010 16:00:00 6.82 C 6.97 g/m*3 6.82 C 0 km/h
1190 07-11-2010 17:00:00 6.76 C 7.02 g/m*3 6.76 C 0 km/h
1191 07-11-2010 18:00:00 6.58 C 6.94 g/m*3 6.58 C 0 km/h
1192 07-11-2010 19:00:00 5.72 C 6.61 g/m*3 5.72 C 0 km/h
1193 07-11-2010 20:00:00 5.18 C 6.4 g/m*3 5.18 C 0 km/h
1194 07-11-2010 21:00:00 4.98 C 6.32 g/m*3 4.98 C 0 km/h
1195 07-11-2010 22:00:00 4.9 C 6.32 g/m*3 4.9 C 0 km/h
1196 07-11-2010 23:00:00 4.64 C 6.22 g/m*3 4.64 C 0 km/h
1197 08-11-2010 00:00:00 4.04 C 5.95 g/m*3 4.04 C 0 km/h
1198 08-11-2010 01:00:00 4.12 C 5.97 g/m*3 4.12 C 0 km/h
1199 08-11-2010 02:00:00 4.04 C 5.97 g/m*3 4.04 C 0 km/h
1200 08-11-2010 03:00:00 4.46 C 6.16 g/m*3 4.46 C 0 km/h
Sensor: Nr:Datum:Temp:Abs-Feuchte:Windchill:Wind:
Aussen-T/F 1201 08-11-2010 04:00:00 4.4 C 6.14 g/m*3 4.4 C 0 km/h
1202 08-11-2010 05:00:00 4.6 C 6.22 g/m*3 4.6 C 0 km/h
1203 08-11-2010 06:00:00 4.86 C 6.33 g/m*3 4.86 C 0 km/h
1204 08-11-2010 07:00:00 4.74 C 6.26 g/m*3 4.74 C 0 km/h
1205 08-11-2010 08:00:00 4.96 C 6.34 g/m*3 4.96 C 0 km/h
1206 08-11-2010 09:00:00 5.84 C 6.58 g/m*3 5.84 C 0 km/h
1207 08-11-2010 10:00:00 7.08 C 6.5 g/m*3 7.08 C 0 km/h
1208 08-11-2010 11:00:00 7.26 C 5.75 g/m*3 7.26 C 0 km/h
1209 08-11-2010 12:00:00 6.78 C 5.3 g/m*3 6.78 C 0 km/h
1210 08-11-2010 13:00:00 7.24 C 5.15 g/m*3 7.24 C 0 km/h
1211 08-11-2010 14:00:00 6.88 C 4.74 g/m*3 6.88 C 0 km/h
1212 08-11-2010 15:00:00 5.6 C 4.67 g/m*3 5.6 C 0 km/h
1213 08-11-2010 16:00:00 2.98 C 4.87 g/m*3 2.98 C 0 km/h
1214 08-11-2010 17:00:00 2.08 C 4.85 g/m*3 2.08 C 0 km/h
1215 08-11-2010 18:00:00 1.46 C 4.79 g/m*3 1.46 C 0 km/h
1216 08-11-2010 19:00:00 2.26 C 5.11 g/m*3 2.26 C 0 km/h
1217 08-11-2010 20:00:00 3.5 C 5.42 g/m*3 3.5 C 0 km/h
1218 08-11-2010 21:00:00 3.9 C 5.56 g/m*3 3.9 C 0 km/h
1219 08-11-2010 22:00:00 4.22 C 5.72 g/m*3 4.22 C 0 km/h
1220 08-11-2010 23:00:00 4.44 C 5.62 g/m*3 4.44 C 0 km/h
1221 09-11-2010 00:00:00 4.24 C 5.65 g/m*3 4.24 C 0 km/h
1222 09-11-2010 01:00:00 4.2 C 5.73 g/m*3 4.2 C 0 km/h
1223 09-11-2010 02:00:00 4.2 C 5.79 g/m*3 4.2 C 0 km/h
1224 09-11-2010 03:00:00 4.46 C 5.97 g/m*3 4.46 C 0 km/h
1225 09-11-2010 04:00:00 4.44 C 5.96 g/m*3 4.44 C 0 km/h
Sensor: Nr:Datum:Temp:Abs-Feuchte:Windchill:Wind:
Aussen-T/F 1226 09-11-2010 05:00:00 4.74 C 6.08 g/m*3 4.74 C 0 km/h
1227 09-11-2010 06:00:00 5.1 C 6.16 g/m*3 5.1 C 0 km/h
1228 09-11-2010 07:00:00 5.58 C 6.24 g/m*3 5.58 C 0 km/h
1229 09-11-2010 08:00:00 6.42 C 6.09 g/m*3 6.42 C 0 km/h
1230 09-11-2010 09:00:00 6.9 C 6.1 g/m*3 6.9 C 0 km/h
1231 09-11-2010 10:00:00 7.9 C 6.26 g/m*3 7.9 C 0 km/h
1232 09-11-2010 11:00:00 9.16 C 6.29 g/m*3 9.16 C 0 km/h
1233 09-11-2010 12:00:00 9.52 C 6.43 g/m*3 9.52 C 0 km/h
1234 09-11-2010 13:00:00 9.66 C 6.47 g/m*3 9.66 C 0 km/h
1235 09-11-2010 14:00:00 8.86 C 6.85 g/m*3 8.86 C 0 km/h
1236 09-11-2010 15:00:00 8.42 C 7.07 g/m*3 8.42 C 0 km/h
1237 09-11-2010 16:00:00 7.92 C 7.19 g/m*3 7.92 C 0 km/h
1238 09-11-2010 17:00:00 7.3 C 7.05 g/m*3 7.3 C 0 km/h
1239 09-11-2010 18:00:00 6.64 C 6.83 g/m*3 6.64 C 0 km/h
1240 09-11-2010 19:00:00 6.86 C 7.02 g/m*3 6.86 C 0 km/h
1241 09-11-2010 20:00:00 6.78 C 7.03 g/m*3 6.78 C 0 km/h
1242 09-11-2010 21:00:00 6.84 C 7.05 g/m*3 6.84 C 0 km/h
1243 09-11-2010 22:00:00 6.78 C 7.03 g/m*3 6.78 C 0 km/h
1244 09-11-2010 23:00:00 6.84 C 7.05 g/m*3 6.84 C 0 km/h
1245 10-11-2010 00:00:00 6.56 C 6.93 g/m*3 6.56 C 0 km/h
1246 10-11-2010 01:00:00 6.92 C 7.14 g/m*3 6.92 C 0 km/h
1247 10-11-2010 02:00:00 6.9 C 7.14 g/m*3 6.9 C 0 km/h
1248 10-11-2010 03:00:00 7.1 C 7.18 g/m*3 7.1 C 0 km/h
1249 10-11-2010 04:00:00 6.88 C 7.12 g/m*3 6.88 C 0 km/h
1250 10-11-2010 05:00:00 6.9 C 7.13 g/m*3 6.9 C 0 km/h
Sensor: Nr:Datum:Temp:Abs-Feuchte:Windchill:Wind:
Aussen-T/F 1251 10-11-2010 06:00:00 6.82 C 7.09 g/m*3 6.82 C 0 km/h
1252 10-11-2010 07:00:00 6.34 C 6.87 g/m*3 6.34 C 0 km/h
1253 10-11-2010 08:00:00 6.72 C 7.05 g/m*3 6.72 C 0 km/h
1254 10-11-2010 09:00:00 8.22 C 7.56 g/m*3 8.22 C 0 km/h
1255 10-11-2010 10:00:00 9.6 C 6.93 g/m*3 9.6 C 0 km/h
1256 10-11-2010 11:00:00 9.64 C 6.48 g/m*3 9.64 C 0 km/h
1257 10-11-2010 12:00:00 10.18 C 6.48 g/m*3 10.18 C 0 km/h
1258 10-11-2010 13:00:00 11.08 C 6.16 g/m*3 11.08 C 0 km/h
1259 10-11-2010 14:00:00 10.52 C 6.02 g/m*3 10.52 C 0 km/h
1260 10-11-2010 15:00:00 7.86 C 6.41 g/m*3 7.86 C 0 km/h
1261 10-11-2010 16:00:00 6.24 C 6.18 g/m*3 6.24 C 0 km/h
1262 10-11-2010 17:00:00 5.94 C 5.81 g/m*3 5.94 C 0 km/h
1263 10-11-2010 18:00:00 5.22 C 5.67 g/m*3 5.22 C 0 km/h
1264 10-11-2010 19:00:00 5.2 C 5.63 g/m*3 5.2 C 0 km/h
1265 10-11-2010 20:00:00 5.34 C 5.5 g/m*3 5.34 C 0 km/h
1266 10-11-2010 21:00:00 4.46 C 5.52 g/m*3 4.46 C 0 km/h
1267 10-11-2010 22:00:00 4.55 C 5.59 g/m*3 4.55 C 0 km/h
1268 10-11-2010 23:00:00 4.3 C 5.34 g/m*3 4.3 C 0 km/h
1269 11-11-2010 00:00:00 4.6 C 5.29 g/m*3 4.6 C 0 km/h
1270 11-11-2010 01:00:00 4.5 C 5.44 g/m*3 4.5 C 0 km/h
1271 11-11-2010 02:00:00 5.02 C 5.42 g/m*3 5.02 C 0 km/h
1272 11-11-2010 03:00:00 4.84 C 5.23 g/m*3 4.84 C 0 km/h
1273 11-11-2010 04:00:00 4.3 C 5.24 g/m*3 4.3 C 0 km/h
1274 11-11-2010 05:00:00 4.12 C 5.2 g/m*3 4.12 C 0 km/h
1275 11-11-2010 06:00:00 3.7 C 5.01 g/m*3 3.7 C 0 km/h
Sensor: Nr:Datum:Temp:Abs-Feuchte:Windchill:Wind:
Aussen-T/F 1276 11-11-2010 07:00:00 3.56 C 4.98 g/m*3 3.56 C 0 km/h
1277 11-11-2010 08:00:00 2.32 C 4.71 g/m*3 2.32 C 0 km/h
1278 11-11-2010 09:00:00 3.66 C 5.28 g/m*3 3.66 C 0 km/h
1279 11-11-2010 10:00:00 5.58 C 4.59 g/m*3 5.58 C 0 km/h
1280 11-11-2010 11:00:00 6.94 C 3.78 g/m*3 6.94 C 0 km/h
1281 11-11-2010 12:00:00 7.46 C 3.98 g/m*3 7.46 C 0 km/h
1282 11-11-2010 13:00:00 7.7 C 4.15 g/m*3 7.7 C 0 km/h
1283 11-11-2010 14:00:00 7.36 C 4.24 g/m*3 7.36 C 0 km/h
1284 11-11-2010 15:00:00 6.8 C 4.45 g/m*3 6.8 C 0 km/h
1285 11-11-2010 16:00:00 5.54 C 5.08 g/m*3 5.54 C 0 km/h
1286 11-11-2010 17:00:00 5.28 C 5.48 g/m*3 5.28 C 0 km/h
1287 11-11-2010 18:00:00 5.64 C 5.87 g/m*3 5.64 C 0 km/h
1288 11-11-2010 19:00:00 6.22 C 6.27 g/m*3 6.22 C 0 km/h
1289 11-11-2010 20:00:00 7.5 C 6.34 g/m*3 7.5 C 0 km/h
1290 11-11-2010 21:00:00 8.44 C 6.57 g/m*3 8.44 C 0 km/h
1291 11-11-2010 22:00:00 9.34 C 7.23 g/m*3 9.34 C 0 km/h
1292 11-11-2010 23:00:00 9.78 C 7.69 g/m*3 9.78 C 0 km/h
1293 12-11-2010 00:00:00 9.74 C 6.82 g/m*3 9.74 C 0 km/h
1294 12-11-2010 01:00:00 9.84 C 5.93 g/m*3 9.84 C 0 km/h
1295 12-11-2010 02:00:00 9.88 C 5.63 g/m*3 9.88 C 0 km/h
1296 12-11-2010 03:00:00 9.6 C 5.81 g/m*3 9.6 C 0 km/h
1297 12-11-2010 04:00:00 9.8 C 5.6 g/m*3 9.8 C 0 km/h
1298 12-11-2010 05:00:00 9.94 C 5.77 g/m*3 9.94 C 0 km/h
1299 12-11-2010 06:00:00 10.62 C 5.77 g/m*3 10.62 C 0 km/h
1300 12-11-2010 07:00:00 10.62 C 5.8 g/m*3 10.62 C 0 km/h
Sensor: Nr:Datum:Temp:Abs-Feuchte:Windchill:Wind:
Aussen-T/F 1301 12-11-2010 08:00:00 10.7 C 5.81 g/m*3 10.7 C 0 km/h
1302 12-11-2010 09:00:00 10.84 C 5.85 g/m*3 10.84 C 0 km/h
1303 12-11-2010 10:00:00 10.7 C 6.11 g/m*3 10.7 C 0 km/h
1304 12-11-2010 11:00:00 11.42 C 6.08 g/m*3 11.42 C 0 km/h
1305 12-11-2010 12:00:00 11.88 C 5.99 g/m*3 11.88 C 0 km/h
1306 12-11-2010 13:00:00 11.64 C 6.29 g/m*3 11.64 C 0 km/h
1307 12-11-2010 14:00:00 11.6 C 6.55 g/m*3 11.6 C 0 km/h
1308 12-11-2010 15:00:00 11.6 C 6.57 g/m*3 11.6 C 0 km/h
1309 12-11-2010 16:00:00 11.54 C 6.73 g/m*3 11.54 C 0 km/h
1310 12-11-2010 17:00:00 11.16 C 7.2 g/m*3 11.16 C 0 km/h
1311 12-11-2010 18:00:00 10.48 C 7.73 g/m*3 10.48 C 0 km/h
1312 12-11-2010 19:00:00 10.52 C 8.29 g/m*3 10.52 C 0 km/h
1313 12-11-2010 20:00:00 11.52 C 8.77 g/m*3 11.52 C 0 km/h
1314 12-11-2010 21:00:00 12.16 C 9.28 g/m*3 12.16 C 0 km/h
1315 12-11-2010 22:00:00 13.3 C 9.22 g/m*3 13.3 C 0 km/h
1316 12-11-2010 23:00:00 13.88 C 8.69 g/m*3 13.88 C 0 km/h
1317 13-11-2010 00:00:00 13.82 C 8.85 g/m*3 13.82 C 0 km/h
1318 13-11-2010 01:00:00 13.86 C 9.06 g/m*3 13.86 C 0 km/h
1319 13-11-2010 02:00:00 13.78 C 9.28 g/m*3 13.78 C 0 km/h
1320 13-11-2010 03:00:00 14.2 C 9.33 g/m*3 14.2 C 0 km/h
1321 13-11-2010 04:00:00 14.14 C 9.25 g/m*3 14.14 C 0 km/h
1322 13-11-2010 05:00:00 14.5 C 9.1 g/m*3 14.5 C 0 km/h
1323 13-11-2010 06:00:00 14.62 C 9.05 g/m*3 14.62 C 0 km/h
1324 13-11-2010 07:00:00 14.72 C 9 g/m*3 14.72 C 0 km/h
1325 13-11-2010 08:00:00 14.72 C 9 g/m*3 14.72 C 0 km/h
Sensor: Nr:Datum:Temp:Abs-Feuchte:Windchill:Wind:
Aussen-T/F 1326 13-11-2010 09:00:00 14.18 C 9.15 g/m*3 14.18 C 0 km/h
1327 13-11-2010 10:00:00 14.32 C 9.23 g/m*3 14.32 C 0 km/h
1328 13-11-2010 11:00:00 14.76 C 9 g/m*3 14.76 C 0 km/h
1329 13-11-2010 12:00:00 14.8 C 8.84 g/m*3 14.8 C 0 km/h
1330 13-11-2010 13:00:00 14.76 C 8.85 g/m*3 14.76 C 0 km/h
1331 13-11-2010 14:00:00 14.78 C 8.68 g/m*3 14.78 C 0 km/h
1332 13-11-2010 15:00:00 14.82 C 8.55 g/m*3 14.82 C 0 km/h
1333 13-11-2010 16:00:00 14.68 C 8.68 g/m*3 14.68 C 0 km/h
1334 13-11-2010 17:00:00 14.26 C 8.75 g/m*3 14.26 C 0 km/h
1335 13-11-2010 18:00:00 14.68 C 8.7 g/m*3 14.68 C 0 km/h
1336 13-11-2010 19:00:00 14.94 C 8.51 g/m*3 14.94 C 0 km/h
1337 13-11-2010 20:00:00 15 C 8.28 g/m*3 15 C 0 km/h
1338 13-11-2010 21:00:00 14.52 C 8.39 g/m*3 14.52 C 0 km/h
1339 13-11-2010 22:00:00 14.86 C 8.11 g/m*3 14.86 C 0 km/h
1340 13-11-2010 23:00:00 14.74 C 8.05 g/m*3 14.74 C 0 km/h
1341 14-11-2010 00:00:00 15.08 C 8.07 g/m*3 15.08 C 0 km/h
1342 14-11-2010 01:00:00 14.24 C 8.27 g/m*3 14.24 C 0 km/h
1343 14-11-2010 02:00:00 13.58 C 8.7 g/m*3 13.58 C 0 km/h
1344 14-11-2010 03:00:00 14.36 C 8.39 g/m*3 14.36 C 0 km/h
1345 14-11-2010 04:00:00 14.02 C 8.38 g/m*3 14.02 C 0 km/h
1346 14-11-2010 05:00:00 13.9 C 8.46 g/m*3 13.9 C 0 km/h
1347 14-11-2010 06:00:00 13.42 C 8.36 g/m*3 13.42 C 0 km/h
1348 14-11-2010 07:00:00 11.92 C 8 g/m*3 11.92 C 0 km/h
1349 14-11-2010 08:00:00 12.66 C 7.53 g/m*3 12.66 C 0 km/h
1350 14-11-2010 09:00:00 14.28 C 7.24 g/m*3 14.28 C 0 km/h
Sensor: Nr:Datum:Temp:Abs-Feuchte:Windchill:Wind:
Aussen-T/F 1351 14-11-2010 10:00:00 15.02 C 7.22 g/m*3 15.02 C 0 km/h
1352 14-11-2010 11:00:00 15.44 C 7.22 g/m*3 15.44 C 0 km/h
1353 14-11-2010 12:00:00 16.16 C 7.4 g/m*3 16.16 C 0 km/h
1354 14-11-2010 13:00:00 17.46 C 7.44 g/m*3 17.46 C 0 km/h
1355 14-11-2010 14:00:00 17.64 C 7.25 g/m*3 17.64 C 0 km/h
1356 14-11-2010 15:00:00 17.7 C 7.12 g/m*3 17.7 C 0 km/h
1357 14-11-2010 16:00:00 15.72 C 7.64 g/m*3 15.72 C 0 km/h
1358 14-11-2010 17:00:00 14.74 C 8.13 g/m*3 14.74 C 0 km/h
1359 14-11-2010 18:00:00 14.16 C 8.02 g/m*3 14.16 C 0 km/h
1360 14-11-2010 19:00:00 13.96 C 7.89 g/m*3 13.96 C 0 km/h
1361 14-11-2010 20:00:00 14.02 C 7.68 g/m*3 14.02 C 0 km/h
1362 14-11-2010 21:00:00 13.92 C 7.27 g/m*3 13.92 C 0 km/h
1363 14-11-2010 22:00:00 13.78 C 7.09 g/m*3 13.78 C 0 km/h
1364 14-11-2010 23:00:00 13.42 C 6.94 g/m*3 13.42 C 0 km/h
1365 15-11-2010 00:00:00 12.88 C 6.98 g/m*3 12.88 C 0 km/h
1366 15-11-2010 01:00:00 12.22 C 6.91 g/m*3 12.22 C 0 km/h
1367 15-11-2010 02:00:00 11.78 C 6.92 g/m*3 11.78 C 0 km/h
1368 15-11-2010 03:00:00 10.9 C 7.02 g/m*3 10.9 C 0 km/h
1369 15-11-2010 04:00:00 10.24 C 6.95 g/m*3 10.24 C 0 km/h
1370 15-11-2010 05:00:00 9.92 C 6.53 g/m*3 9.92 C 0 km/h
1371 15-11-2010 06:00:00 9.34 C 6.27 g/m*3 9.34 C 0 km/h
1372 15-11-2010 07:00:00 8.96 C 6.42 g/m*3 8.96 C 0 km/h
1373 15-11-2010 08:00:00 9.1 C 6.28 g/m*3 9.1 C 0 km/h
1374 15-11-2010 09:00:00 9.16 C 6.07 g/m*3 9.16 C 0 km/h
1375 15-11-2010 10:00:00 9.82 C 5.87 g/m*3 9.82 C 0 km/h
Sensor: Nr:Datum:Temp:Abs-Feuchte:Windchill:Wind:
Aussen-T/F 1376 15-11-2010 11:00:00 10.3 C 5.75 g/m*3 10.3 C 0 km/h
1377 15-11-2010 12:00:00 10.84 C 5.57 g/m*3 10.84 C 0 km/h
1378 15-11-2010 13:00:00 10.48 C 5.62 g/m*3 10.48 C 0 km/h
1379 15-11-2010 14:00:00 10.24 C 5.5 g/m*3 10.24 C 0 km/h
1380 15-11-2010 15:00:00 9.68 C 5.54 g/m*3 9.68 C 0 km/h
1381 15-11-2010 16:00:00 8.96 C 5.7 g/m*3 8.96 C 0 km/h
1382 15-11-2010 17:00:00 8.16 C 5.81 g/m*3 8.16 C 0 km/h
1383 15-11-2010 18:00:00 8.14 C 5.89 g/m*3 8.14 C 0 km/h
1384 15-11-2010 19:00:00 7.98 C 5.88 g/m*3 7.98 C 0 km/h
1385 15-11-2010 20:00:00 7.6 C 5.95 g/m*3 7.6 C 0 km/h
1386 15-11-2010 21:00:00 7.16 C 5.93 g/m*3 7.16 C 0 km/h
1387 15-11-2010 22:00:00 6.94 C 5.97 g/m*3 6.94 C 0 km/h
1388 15-11-2010 23:00:00 6.68 C 5.99 g/m*3 6.68 C 0 km/h
1389 16-11-2010 00:00:00 5.88 C 5.95 g/m*3 5.88 C 0 km/h
1390 16-11-2010 01:00:00 5.2 C 5.87 g/m*3 5.2 C 0 km/h
1391 16-11-2010 02:00:00 5.48 C 6.1 g/m*3 5.48 C 0 km/h
1392 16-11-2010 03:00:00 5.86 C 6.21 g/m*3 5.86 C 0 km/h
1393 16-11-2010 04:00:00 5.22 C 5.97 g/m*3 5.22 C 0 km/h
1394 16-11-2010 05:00:00 5.5 C 6.07 g/m*3 5.5 C 0 km/h
1395 16-11-2010 06:00:00 5.22 C 5.83 g/m*3 5.22 C 0 km/h
1396 16-11-2010 07:00:00 5.18 C 5.79 g/m*3 5.18 C 0 km/h
1397 16-11-2010 08:00:00 5.42 C 5.83 g/m*3 5.42 C 0 km/h
1398 16-11-2010 09:00:00 5.88 C 5.82 g/m*3 5.88 C 0 km/h
1399 16-11-2010 10:00:00 6.26 C 5.74 g/m*3 6.26 C 0 km/h
1400 16-11-2010 11:00:00 6.56 C 5.65 g/m*3 6.56 C 0 km/h
Sensor: Nr:Datum:Temp:Abs-Feuchte:Windchill:Wind:
Aussen-T/F 1401 16-11-2010 12:00:00 7.34 C 5.53 g/m*3 7.34 C 0 km/h
1402 16-11-2010 13:00:00 7.54 C 5.59 g/m*3 7.54 C 0 km/h
1403 16-11-2010 14:00:00 7.68 C 5.52 g/m*3 7.68 C 0 km/h
1404 16-11-2010 15:00:00 7.24 C 5.51 g/m*3 7.24 C 0 km/h
1405 16-11-2010 16:00:00 7.08 C 5.53 g/m*3 7.08 C 0 km/h
1406 16-11-2010 17:00:00 6.8 C 5.64 g/m*3 6.8 C 0 km/h
1407 16-11-2010 18:00:00 6.22 C 5.67 g/m*3 6.22 C 0 km/h
1408 16-11-2010 19:00:00 5.92 C 5.75 g/m*3 5.92 C 0 km/h
1409 16-11-2010 20:00:00 5.56 C 5.71 g/m*3 5.56 C 0 km/h
1410 16-11-2010 21:00:00 5.42 C 5.66 g/m*3 5.42 C 0 km/h
1411 16-11-2010 22:00:00 5.24 C 5.61 g/m*3 5.24 C 0 km/h
1412 16-11-2010 23:00:00 4.6 C 5.58 g/m*3 4.6 C 0 km/h
1413 17-11-2010 00:00:00 4.78 C 5.72 g/m*3 4.78 C 0 km/h
1414 17-11-2010 01:00:00 5.08 C 5.62 g/m*3 5.08 C 0 km/h
1415 17-11-2010 02:00:00 5 C 5.59 g/m*3 5 C 0 km/h
1416 17-11-2010 03:00:00 4.92 C 5.66 g/m*3 4.92 C 0 km/h
1417 17-11-2010 04:00:00 4.8 C 5.65 g/m*3 4.8 C 0 km/h
1418 17-11-2010 05:00:00 4.74 C 5.72 g/m*3 4.74 C 0 km/h
1419 17-11-2010 06:00:00 4.7 C 5.73 g/m*3 4.7 C 0 km/h
1420 17-11-2010 07:00:00 4.72 C 5.67 g/m*3 4.72 C 0 km/h
1421 17-11-2010 08:00:00 5.1 C 4.98 g/m*3 5.1 C 0 km/h
1422 17-11-2010 09:00:00 5.56 C 4.64 g/m*3 5.56 C 0 km/h
1423 17-11-2010 10:00:00 5.78 C 4.66 g/m*3 5.78 C 0 km/h
1424 17-11-2010 11:00:00 6.04 C 4.6 g/m*3 6.04 C 0 km/h
1425 17-11-2010 12:00:00 6.28 C 4.6 g/m*3 6.28 C 0 km/h
Sensor: Nr:Datum:Temp:Abs-Feuchte:Windchill:Wind:
Aussen-T/F 1426 17-11-2010 13:00:00 6.54 C 4.63 g/m*3 6.54 C 0 km/h
1427 17-11-2010 14:00:00 6.18 C 4.55 g/m*3 6.18 C 0 km/h
1428 17-11-2010 15:00:00 5.86 C 4.67 g/m*3 5.86 C 0 km/h
1429 17-11-2010 16:00:00 5.54 C 4.8 g/m*3 5.54 C 0 km/h
1430 17-11-2010 17:00:00 5.26 C 4.91 g/m*3 5.26 C 0 km/h
1431 17-11-2010 18:00:00 5.2 C 4.97 g/m*3 5.2 C 0 km/h
1432 17-11-2010 19:00:00 5.3 C 4.99 g/m*3 5.3 C 0 km/h
1433 17-11-2010 20:00:00 5.3 C 5.12 g/m*3 5.3 C 0 km/h
1434 17-11-2010 21:00:00 5.26 C 5.21 g/m*3 5.26 C 0 km/h
1435 17-11-2010 22:00:00 5.04 C 5.34 g/m*3 5.04 C 0 km/h
1436 17-11-2010 23:00:00 4.52 C 5.58 g/m*3 4.52 C 0 km/h
1437 18-11-2010 00:00:00 4.56 C 5.74 g/m*3 4.56 C 0 km/h
1438 18-11-2010 01:00:00 4.28 C 5.71 g/m*3 4.28 C 0 km/h
1439 18-11-2010 02:00:00 4.28 C 5.77 g/m*3 4.28 C 0 km/h
1440 18-11-2010 03:00:00 4.06 C 5.75 g/m*3 4.06 C 0 km/h
1441 18-11-2010 04:00:00 4.28 C 5.88 g/m*3 4.28 C 0 km/h
1442 18-11-2010 05:00:00 4.28 C 5.89 g/m*3 4.28 C 0 km/h
1443 18-11-2010 06:00:00 3.92 C 5.81 g/m*3 3.92 C 0 km/h
1444 18-11-2010 07:00:00 3.98 C 5.84 g/m*3 3.98 C 0 km/h
1445 18-11-2010 08:00:00 4.22 C 5.94 g/m*3 4.22 C 0 km/h
1446 18-11-2010 09:00:00 4.94 C 6.2 g/m*3 4.94 C 0 km/h
1447 18-11-2010 10:00:00 5.96 C 6.24 g/m*3 5.96 C 0 km/h
1448 18-11-2010 11:00:00 6.9 C 6.02 g/m*3 6.9 C 0 km/h
1449 18-11-2010 12:00:00 7.54 C 5.92 g/m*3 7.54 C 0 km/h
1450 18-11-2010 13:00:00 8.36 C 5.7 g/m*3 8.36 C 0 km/h
Sensor: Nr:Datum:Temp:Abs-Feuchte:Windchill:Wind:
Aussen-T/F 1451 18-11-2010 14:00:00 8.14 C 5.32 g/m*3 8.14 C 0 km/h
1452 18-11-2010 15:00:00 7.76 C 5.39 g/m*3 7.76 C 0 km/h
1453 18-11-2010 16:00:00 6.9 C 5.77 g/m*3 6.9 C 0 km/h
1454 18-11-2010 17:00:00 6.12 C 5.87 g/m*3 6.12 C 0 km/h
1455 18-11-2010 18:00:00 6.2 C 6.02 g/m*3 6.2 C 0 km/h
1456 18-11-2010 19:00:00 5.94 C 6.01 g/m*3 5.94 C 0 km/h
1457 18-11-2010 20:00:00 5.58 C 6.23 g/m*3 5.58 C 0 km/h
1458 18-11-2010 21:00:00 5.52 C 6.27 g/m*3 5.52 C 0 km/h
1459 18-11-2010 22:00:00 5.5 C 6.32 g/m*3 5.5 C 0 km/h
1460 18-11-2010 23:00:00 5.64 C 6.42 g/m*3 5.64 C 0 km/h
1461 19-11-2010 00:00:00 5.66 C 6.26 g/m*3 5.66 C 0 km/h
1462 19-11-2010 01:00:00 5.58 C 6.11 g/m*3 5.58 C 0 km/h
1463 19-11-2010 02:00:00 5.34 C 6.17 g/m*3 5.34 C 0 km/h
1464 19-11-2010 03:00:00 5.12 C 6.08 g/m*3 5.12 C 0 km/h
1465 19-11-2010 04:00:00 5.04 C 6.05 g/m*3 5.04 C 0 km/h
1466 19-11-2010 05:00:00 4.94 C 6.04 g/m*3 4.94 C 0 km/h
1467 19-11-2010 06:00:00 4.9 C 6.02 g/m*3 4.9 C 0 km/h
1468 19-11-2010 07:00:00 5.14 C 6.1 g/m*3 5.14 C 0 km/h
1469 19-11-2010 08:00:00 5.44 C 6.23 g/m*3 5.44 C 0 km/h
1470 19-11-2010 09:00:00 6.32 C 6.26 g/m*3 6.32 C 0 km/h
1471 19-11-2010 10:00:00 7.62 C 6.28 g/m*3 7.62 C 0 km/h
1472 19-11-2010 11:00:00 8.84 C 6.06 g/m*3 8.84 C 0 km/h
1473 19-11-2010 12:00:00 9.52 C 5.85 g/m*3 9.52 C 0 km/h
1474 19-11-2010 13:00:00 9.74 C 5.82 g/m*3 9.74 C 0 km/h
1475 19-11-2010 14:00:00 9.94 C 5.69 g/m*3 9.94 C 0 km/h
Sensor: Nr:Datum:Temp:Abs-Feuchte:Windchill:Wind:
Aussen-T/F 1476 19-11-2010 15:00:00 8.5 C 5.93 g/m*3 8.5 C 0 km/h
1477 19-11-2010 16:00:00 7.04 C 6.23 g/m*3 7.04 C 0 km/h
1478 19-11-2010 17:00:00 7.58 C 6.31 g/m*3 7.58 C 0 km/h
1479 19-11-2010 18:00:00 7.62 C 6.32 g/m*3 7.62 C 0 km/h
1480 19-11-2010 19:00:00 6.96 C 6.23 g/m*3 6.96 C 0 km/h
1481 19-11-2010 20:00:00 5.1 C 5.91 g/m*3 5.1 C 0 km/h
1482 19-11-2010 21:00:00 3.86 C 5.62 g/m*3 3.86 C 0 km/h
1483 19-11-2010 22:00:00 3.92 C 5.74 g/m*3 3.92 C 0 km/h
1484 19-11-2010 23:00:00 4.54 C 6.02 g/m*3 4.54 C 0 km/h
1485 20-11-2010 00:00:00 4.04 C 5.86 g/m*3 4.04 C 0 km/h
1486 20-11-2010 01:00:00 4.18 C 5.92 g/m*3 4.18 C 0 km/h
1487 20-11-2010 02:00:00 1.94 C 5.11 g/m*3 1.94 C 0 km/h
1488 20-11-2010 03:00:00 1.34 C 4.91 g/m*3 1.34 C 0 km/h
1489 20-11-2010 04:00:00 2.64 C 5.37 g/m*3 2.64 C 0 km/h
1490 20-11-2010 05:00:00 3.34 C 5.65 g/m*3 3.34 C 0 km/h
1491 20-11-2010 06:00:00 3.76 C 5.82 g/m*3 3.76 C 0 km/h
1492 20-11-2010 07:00:00 4.06 C 5.94 g/m*3 4.06 C 0 km/h
1493 20-11-2010 08:00:00 4.4 C 6.07 g/m*3 4.4 C 0 km/h
1494 20-11-2010 09:00:00 5.04 C 6.32 g/m*3 5.04 C 0 km/h
1495 20-11-2010 10:00:00 6.02 C 6.63 g/m*3 6.02 C 0 km/h
1496 20-11-2010 11:00:00 7.46 C 6.75 g/m*3 7.46 C 0 km/h
1497 20-11-2010 12:00:00 9.1 C 6.67 g/m*3 9.1 C 0 km/h
1498 20-11-2010 13:00:00 8.88 C 6.37 g/m*3 8.88 C 0 km/h
1499 20-11-2010 14:00:00 8.78 C 6.29 g/m*3 8.78 C 0 km/h
1500 20-11-2010 15:00:00 7.76 C 6.19 g/m*3 7.76 C 0 km/h
Sensor: Nr:Datum:Temp:Abs-Feuchte:Windchill:Wind:
Aussen-T/F 1501 20-11-2010 16:00:00 5.34 C 5.87 g/m*3 5.34 C 0 km/h
1502 20-11-2010 17:00:00 4.6 C 5.9 g/m*3 4.6 C 0 km/h
1503 20-11-2010 18:00:00 4.4 C 5.9 g/m*3 4.4 C 0 km/h
1504 20-11-2010 19:00:00 3.92 C 5.75 g/m*3 3.92 C 0 km/h
1505 20-11-2010 20:00:00 3.28 C 5.55 g/m*3 3.28 C 0 km/h
1506 20-11-2010 21:00:00 3.26 C 5.57 g/m*3 3.26 C 0 km/h
1507 20-11-2010 22:00:00 4.32 C 5.98 g/m*3 4.32 C 0 km/h
1508 20-11-2010 23:00:00 4.12 C 5.92 g/m*3 4.12 C 0 km/h
1509 21-11-2010 00:00:00 4.32 C 5.96 g/m*3 4.32 C 0 km/h
1510 21-11-2010 01:00:00 4.48 C 5.75 g/m*3 4.48 C 0 km/h
1511 21-11-2010 02:00:00 4.44 C 5.43 g/m*3 4.44 C 0 km/h
1512 21-11-2010 03:00:00 4.5 C 5.28 g/m*3 4.5 C 0 km/h
1513 21-11-2010 04:00:00 4.56 C 5.06 g/m*3 4.56 C 0 km/h
1514 21-11-2010 05:00:00 4.5 C 4.94 g/m*3 4.5 C 0 km/h
1515 21-11-2010 06:00:00 4.4 C 4.92 g/m*3 4.4 C 0 km/h
1516 21-11-2010 07:00:00 4.38 C 5.05 g/m*3 4.38 C 0 km/h
1517 21-11-2010 08:00:00 4.7 C 5.14 g/m*3 4.7 C 0 km/h
1518 21-11-2010 09:00:00 5 C 4.92 g/m*3 5 C 0 km/h
1519 21-11-2010 10:00:00 5.36 C 4.82 g/m*3 5.36 C 0 km/h
1520 21-11-2010 11:00:00 5.3 C 4.63 g/m*3 5.3 C 0 km/h
1521 21-11-2010 12:00:00 5.1 C 4.53 g/m*3 5.1 C 0 km/h
1522 21-11-2010 13:00:00 5.12 C 4.45 g/m*3 5.12 C 0 km/h
1523 21-11-2010 14:00:00 4.88 C 4.42 g/m*3 4.88 C 0 km/h
1524 21-11-2010 15:00:00 4.44 C 4.28 g/m*3 4.44 C 0 km/h
1525 21-11-2010 16:00:00 4.16 C 4.38 g/m*3 4.16 C 0 km/h
Sensor: Nr:Datum:Temp:Abs-Feuchte:Windchill:Wind:
Aussen-T/F 1526 21-11-2010 17:00:00 3.96 C 4.5 g/m*3 3.96 C 0 km/h
1527 21-11-2010 18:00:00 3.96 C 4.57 g/m*3 3.96 C 0 km/h
1528 21-11-2010 19:00:00 4.06 C 4.61 g/m*3 4.06 C 0 km/h
1529 21-11-2010 20:00:00 4.3 C 4.55 g/m*3 4.3 C 0 km/h
1530 21-11-2010 21:00:00 4.16 C 4.5 g/m*3 4.16 C 0 km/h
1531 21-11-2010 22:00:00 3.76 C 4.66 g/m*3 3.76 C 0 km/h
1532 21-11-2010 23:00:00 3.76 C 4.81 g/m*3 3.76 C 0 km/h
1533 22-11-2010 00:00:00 4.06 C 4.93 g/m*3 4.06 C 0 km/h
1534 22-11-2010 01:00:00 4.08 C 4.92 g/m*3 4.08 C 0 km/h
1535 22-11-2010 02:00:00 4.16 C 4.97 g/m*3 4.16 C 0 km/h
1536 22-11-2010 03:00:00 4.46 C 5.06 g/m*3 4.46 C 0 km/h
1537 22-11-2010 04:00:00 4.86 C 5.01 g/m*3 4.86 C 0 km/h
1538 22-11-2010 05:00:00 4.88 C 4.95 g/m*3 4.88 C 0 km/h
1539 22-11-2010 06:00:00 4.7 C 4.86 g/m*3 4.7 C 0 km/h
1540 22-11-2010 07:00:00 4.64 C 4.79 g/m*3 4.64 C 0 km/h
1541 22-11-2010 08:00:00 4.64 C 4.8 g/m*3 4.64 C 0 km/h
1542 22-11-2010 09:00:00 4.74 C 4.81 g/m*3 4.74 C 0 km/h
1543 22-11-2010 10:00:00 4.82 C 4.86 g/m*3 4.82 C 0 km/h
1544 22-11-2010 11:00:00 4.48 C 4.95 g/m*3 4.48 C 0 km/h
1545 22-11-2010 12:00:00 4.2 C 5.21 g/m*3 4.2 C 0 km/h
1546 22-11-2010 13:00:00 4.24 C 5.38 g/m*3 4.24 C 0 km/h
1547 22-11-2010 14:00:00 4.78 C 5.25 g/m*3 4.78 C 0 km/h
1548 22-11-2010 15:00:00 4.9 C 5.02 g/m*3 4.9 C 0 km/h
1549 22-11-2010 16:00:00 4.32 C 4.91 g/m*3 4.32 C 0 km/h
1550 22-11-2010 17:00:00 4.04 C 4.99 g/m*3 4.04 C 0 km/h
Sensor: Nr:Datum:Temp:Abs-Feuchte:Windchill:Wind:
Aussen-T/F 1551 22-11-2010 18:00:00 4.28 C 4.95 g/m*3 4.28 C 0 km/h
1552 22-11-2010 19:00:00 4.38 C 4.88 g/m*3 4.38 C 0 km/h
1553 22-11-2010 20:00:00 4.42 C 4.8 g/m*3 4.42 C 0 km/h
1554 22-11-2010 21:00:00 4.4 C 4.82 g/m*3 4.4 C 0 km/h
1555 22-11-2010 22:00:00 4.5 C 4.89 g/m*3 4.5 C 0 km/h
1556 22-11-2010 23:00:00 4.4 C 4.94 g/m*3 4.4 C 0 km/h
1557 23-11-2010 00:00:00 4.44 C 4.94 g/m*3 4.44 C 0 km/h
1558 23-11-2010 01:00:00 4.46 C 4.85 g/m*3 4.46 C 0 km/h
1559 23-11-2010 02:00:00 4.26 C 4.62 g/m*3 4.26 C 0 km/h
1560 23-11-2010 03:00:00 4.08 C 4.42 g/m*3 4.08 C 0 km/h
1561 23-11-2010 04:00:00 3.68 C 4.52 g/m*3 3.68 C 0 km/h
1562 23-11-2010 05:00:00 3.2 C 4.65 g/m*3 3.2 C 0 km/h
1563 23-11-2010 06:00:00 2.66 C 5.01 g/m*3 2.66 C 0 km/h
1564 23-11-2010 07:00:00 2.96 C 5.08 g/m*3 2.96 C 0 km/h
1565 23-11-2010 08:00:00 3.18 C 4.89 g/m*3 3.18 C 0 km/h
1566 23-11-2010 09:00:00 3.68 C 4.75 g/m*3 3.68 C 0 km/h
1567 23-11-2010 10:00:00 4.26 C 4.58 g/m*3 4.26 C 0 km/h
1568 23-11-2010 11:00:00 4.72 C 4.66 g/m*3 4.72 C 0 km/h
1569 23-11-2010 12:00:00 5.28 C 4.47 g/m*3 5.28 C 0 km/h
1570 23-11-2010 13:00:00 6.04 C 4.37 g/m*3 6.04 C 0 km/h
1571 23-11-2010 14:00:00 5.74 C 4.25 g/m*3 5.74 C 0 km/h
1572 23-11-2010 15:00:00 5.54 C 4.25 g/m*3 5.54 C 0 km/h
1573 23-11-2010 16:00:00 5.38 C 4.47 g/m*3 5.38 C 0 km/h
1574 23-11-2010 17:00:00 5.32 C 4.46 g/m*3 5.32 C 0 km/h
1575 23-11-2010 18:00:00 5.28 C 4.42 g/m*3 5.28 C 0 km/h
Sensor: Nr:Datum:Temp:Abs-Feuchte:Windchill:Wind:
Aussen-T/F 1576 23-11-2010 19:00:00 5.2 C 4.5 g/m*3 5.2 C 0 km/h
1577 23-11-2010 20:00:00 5.14 C 4.46 g/m*3 5.14 C 0 km/h
1578 23-11-2010 21:00:00 4.98 C 4.33 g/m*3 4.98 C 0 km/h
1579 23-11-2010 22:00:00 4.95 C 4.33 g/m*3 4.95 C 0 km/h
1580 23-11-2010 23:00:00 4.64 C 4.39 g/m*3 4.64 C 0 km/h
1581 24-11-2010 00:00:00 4.32 C 4.44 g/m*3 4.32 C 0 km/h
1582 24-11-2010 01:00:00 3.96 C 4.46 g/m*3 3.96 C 0 km/h
1583 24-11-2010 02:00:00 3.42 C 4.5 g/m*3 3.42 C 0 km/h
1584 24-11-2010 03:00:00 3.52 C 4.62 g/m*3 3.52 C 0 km/h
1585 24-11-2010 04:00:00 3.46 C 4.72 g/m*3 3.46 C 0 km/h
1586 24-11-2010 05:00:00 2.92 C 5 g/m*3 2.92 C 0 km/h
1587 24-11-2010 06:00:00 3.2 C 5.07 g/m*3 3.2 C 0 km/h
1588 24-11-2010 07:00:00 3.34 C 5.01 g/m*3 3.34 C 0 km/h
1589 24-11-2010 08:00:00 3.42 C 5.08 g/m*3 3.42 C 0 km/h
1590 24-11-2010 09:00:00 4.22 C 4.99 g/m*3 4.22 C 0 km/h
1591 24-11-2010 10:00:00 5.22 C 4.7 g/m*3 5.22 C 0 km/h
1592 24-11-2010 11:00:00 5.22 C 4.78 g/m*3 5.22 C 0 km/h
1593 24-11-2010 12:00:00 5.8 C 4.57 g/m*3 5.8 C 0 km/h
1594 24-11-2010 13:00:00 5.36 C 4.61 g/m*3 5.36 C 0 km/h
1595 24-11-2010 14:00:00 4.48 C 5.08 g/m*3 4.48 C 0 km/h
1596 24-11-2010 15:00:00 3.48 C 5.24 g/m*3 3.48 C 0 km/h
1597 24-11-2010 16:00:00 3.3 C 5.22 g/m*3 3.3 C 0 km/h
1598 24-11-2010 17:00:00 2.28 C 4.88 g/m*3 2.28 C 0 km/h
1599 24-11-2010 18:00:00 1.64 C 4.9 g/m*3 1.64 C 0 km/h
1600 24-11-2010 19:00:00 2.02 C 5.09 g/m*3 2.02 C 0 km/h
Sensor: Nr:Datum:Temp:Abs-Feuchte:Windchill:Wind:
Aussen-T/F 1601 24-11-2010 20:00:00 1.42 C 4.91 g/m*3 1.42 C 0 km/h
1602 24-11-2010 21:00:00 1.42 C 4.91 g/m*3 1.42 C 0 km/h
1603 24-11-2010 22:00:00 2.14 C 5.13 g/m*3 2.14 C 0 km/h
1604 24-11-2010 23:00:00 2.4 C 5.06 g/m*3 2.4 C 0 km/h
1605 25-11-2010 00:00:00 2.5 C 4.93 g/m*3 2.5 C 0 km/h
1606 25-11-2010 01:00:00 2.94 C 4.82 g/m*3 2.94 C 0 km/h
1607 25-11-2010 02:00:00 2.76 C 4.55 g/m*3 2.76 C 0 km/h
1608 25-11-2010 03:00:00 2.82 C 4.43 g/m*3 2.82 C 0 km/h
1609 25-11-2010 04:00:00 2.02 C 4.2 g/m*3 2.02 C 0 km/h
1610 25-11-2010 05:00:00 1.3 C 4.08 g/m*3 1.3 C 0 km/h
1611 25-11-2010 06:00:00 0.66 C 4.12 g/m*3 0.66 C 0 km/h
1612 25-11-2010 07:00:00 0.06 C 4.24 g/m*3 0.06 C 0 km/h
1613 25-11-2010 08:00:00 -0.28 C 4.23 g/m*3 -0.28 C 0 km/h
1614 25-11-2010 09:00:00 0.58 C 4.45 g/m*3 0.58 C 0 km/h
1615 25-11-2010 10:00:00 0.8 C 4.42 g/m*3 0.8 C 0 km/h
1616 25-11-2010 11:00:00 1.76 C 4.53 g/m*3 1.76 C 0 km/h
1617 25-11-2010 12:00:00 2 C 4.51 g/m*3 2 C 0 km/h
1618 25-11-2010 13:00:00 3.48 C 4.22 g/m*3 3.48 C 0 km/h
1619 25-11-2010 14:00:00 3.66 C 4.03 g/m*3 3.66 C 0 km/h
1620 25-11-2010 15:00:00 3.28 C 3.96 g/m*3 3.28 C 0 km/h
1621 25-11-2010 16:00:00 2.04 C 4.21 g/m*3 2.04 C 0 km/h
1622 25-11-2010 17:00:00 2.04 C 4.35 g/m*3 2.04 C 0 km/h
1623 25-11-2010 18:00:00 1.74 C 4.42 g/m*3 1.74 C 0 km/h
1624 25-11-2010 19:00:00 0.98 C 4.38 g/m*3 0.98 C 0 km/h
1625 25-11-2010 20:00:00 0.7 C 4.4 g/m*3 0.7 C 0 km/h
Sensor: Nr:Datum:Temp:Abs-Feuchte:Windchill:Wind:
Aussen-T/F 1626 25-11-2010 21:00:00 1.24 C 4.5 g/m*3 1.24 C 0 km/h
1627 25-11-2010 22:00:00 1.34 C 4.49 g/m*3 1.34 C 0 km/h
1628 25-11-2010 23:00:00 1.36 C 4.52 g/m*3 1.36 C 0 km/h
1629 26-11-2010 00:00:00 1.4 C 4.51 g/m*3 1.4 C 0 km/h
1630 26-11-2010 01:00:00 1.06 C 4.49 g/m*3 1.06 C 0 km/h
1631 26-11-2010 02:00:00 1.06 C 4.47 g/m*3 1.06 C 0 km/h
1632 26-11-2010 03:00:00 0.74 C 4.37 g/m*3 0.74 C 0 km/h
1633 26-11-2010 04:00:00 0.32 C 4.4 g/m*3 0.32 C 0 km/h
1634 26-11-2010 05:00:00 0.26 C 4.47 g/m*3 0.26 C 0 km/h
1635 26-11-2010 06:00:00 0.22 C 4.49 g/m*3 0.22 C 0 km/h
1636 26-11-2010 07:00:00 0 C 4.46 g/m*3 0 C 0 km/h
1637 26-11-2010 08:00:00 0.04 C 4.49 g/m*3 0.04 C 0 km/h
1638 26-11-2010 09:00:00 0.14 C 4.55 g/m*3 0.14 C 0 km/h
1639 26-11-2010 10:00:00 0.58 C 4.66 g/m*3 0.58 C 0 km/h
1640 26-11-2010 11:00:00 1.12 C 4.61 g/m*3 1.12 C 0 km/h
1641 26-11-2010 12:00:00 0.84 C 4.41 g/m*3 0.84 C 0 km/h
1642 26-11-2010 13:00:00 0.9 C 4.37 g/m*3 0.9 C 0 km/h
1643 26-11-2010 14:00:00 1.6 C 4.17 g/m*3 1.6 C 0 km/h
1644 26-11-2010 15:00:00 0.8 C 3.8 g/m*3 0.8 C 0 km/h
1645 26-11-2010 16:00:00 -1.48 C 3.69 g/m*3 -1.48 C 0 km/h
1646 26-11-2010 17:00:00 -2.36 C 3.65 g/m*3 -2.36 C 0 km/h
1647 26-11-2010 18:00:00 -1.38 C 4 g/m*3 -1.38 C 0 km/h
1648 26-11-2010 19:00:00 -1.54 C 3.96 g/m*3 -1.54 C 0 km/h
1649 26-11-2010 20:00:00 -1.96 C 3.85 g/m*3 -1.96 C 0 km/h
1650 26-11-2010 21:00:00 -2.34 C 3.75 g/m*3 -2.34 C 0 km/h
Sensor: Nr:Datum:Temp:Abs-Feuchte:Windchill:Wind:
Aussen-T/F 1651 26-11-2010 22:00:00 -3.24 C 3.5 g/m*3 -3.24 C 0 km/h
1652 26-11-2010 23:00:00 -3.76 C 3.35 g/m*3 -3.76 C 0 km/h
1653 27-11-2010 00:00:00 -4.08 C 3.27 g/m*3 -4.08 C 0 km/h
1654 27-11-2010 01:00:00 -3.54 C 3.39 g/m*3 -3.54 C 0 km/h
1655 27-11-2010 02:00:00 -3.94 C 3.25 g/m*3 -3.94 C 0 km/h
1656 27-11-2010 03:00:00 -3.16 C 3.46 g/m*3 -3.16 C 0 km/h
1657 27-11-2010 04:00:00 -4.12 C 3.19 g/m*3 -4.12 C 0 km/h
1658 27-11-2010 05:00:00 -4.28 C 3.15 g/m*3 -4.28 C 0 km/h
1659 27-11-2010 06:00:00 -3.52 C 3.35 g/m*3 -3.52 C 0 km/h
1660 27-11-2010 07:00:00 -3.54 C 3.33 g/m*3 -3.54 C 0 km/h
1661 27-11-2010 08:00:00 -3 C 3.48 g/m*3 -3 C 0 km/h
1662 27-11-2010 09:00:00 -1.8 C 3.8 g/m*3 -1.8 C 0 km/h
1663 27-11-2010 10:00:00 -0.84 C 4.06 g/m*3 -0.84 C 0 km/h
1664 27-11-2010 11:00:00 -0.2 C 4.19 g/m*3 -0.2 C 0 km/h
1665 27-11-2010 12:00:00 0.38 C 4 g/m*3 0.38 C 0 km/h
1666 27-11-2010 13:00:00 0.86 C 3.91 g/m*3 0.86 C 0 km/h
1667 27-11-2010 14:00:00 1.48 C 3.79 g/m*3 1.48 C 0 km/h
1668 27-11-2010 15:00:00 0.76 C 3.8 g/m*3 0.76 C 0 km/h
1669 27-11-2010 16:00:00 -0.72 C 3.59 g/m*3 -0.72 C 0 km/h
1670 27-11-2010 17:00:00 -0.86 C 3.65 g/m*3 -0.86 C 0 km/h
1671 27-11-2010 18:00:00 -1.58 C 3.59 g/m*3 -1.58 C 0 km/h
1672 27-11-2010 19:00:00 -0.92 C 3.75 g/m*3 -0.92 C 0 km/h
1673 27-11-2010 20:00:00 -1.5 C 3.52 g/m*3 -1.5 C 0 km/h
1674 27-11-2010 21:00:00 -3.1 C 3.27 g/m*3 -3.1 C 0 km/h
1675 27-11-2010 22:00:00 -3.36 C 3.3 g/m*3 -3.36 C 0 km/h
Sensor: Nr:Datum:Temp:Abs-Feuchte:Windchill:Wind:
Aussen-T/F 1676 27-11-2010 23:00:00 -3.22 C 3.31 g/m*3 -3.22 C 0 km/h
1677 28-11-2010 00:00:00 -3.76 C 3.2 g/m*3 -3.76 C 0 km/h
1678 28-11-2010 01:00:00 -2.76 C 3.5 g/m*3 -2.76 C 0 km/h
1679 28-11-2010 02:00:00 -2.18 C 3.6 g/m*3 -2.18 C 0 km/h
1680 28-11-2010 03:00:00 -3.4 C 3.22 g/m*3 -3.4 C 0 km/h
1681 28-11-2010 04:00:00 -2.64 C 3.47 g/m*3 -2.64 C 0 km/h
1682 28-11-2010 05:00:00 -2.72 C 3.42 g/m*3 -2.72 C 0 km/h
1683 28-11-2010 06:00:00 -2.18 C 3.56 g/m*3 -2.18 C 0 km/h
1684 28-11-2010 07:00:00 -1.88 C 3.58 g/m*3 -1.88 C 0 km/h
1685 28-11-2010 08:00:00 -1.66 C 3.6 g/m*3 -1.66 C 0 km/h
1686 28-11-2010 09:00:00 -1.18 C 3.62 g/m*3 -1.18 C 0 km/h
1687 28-11-2010 10:00:00 -0.38 C 3.63 g/m*3 -0.38 C 0 km/h
1688 28-11-2010 11:00:00 -0.18 C 3.55 g/m*3 -0.18 C 0 km/h
1689 28-11-2010 12:00:00 0.02 C 3.59 g/m*3 0.02 C 0 km/h
1690 28-11-2010 13:00:00 0.14 C 3.63 g/m*3 0.14 C 0 km/h
1691 28-11-2010 14:00:00 0.5 C 3.69 g/m*3 0.5 C 0 km/h
1692 28-11-2010 15:00:00 0.54 C 3.71 g/m*3 0.54 C 0 km/h
1693 28-11-2010 16:00:00 -0.34 C 3.68 g/m*3 -0.34 C 0 km/h
1694 28-11-2010 17:00:00 -0.64 C 3.67 g/m*3 -0.64 C 0 km/h
1695 28-11-2010 18:00:00 -1.1 C 3.71 g/m*3 -1.1 C 0 km/h
1696 28-11-2010 19:00:00 -0.7 C 3.7 g/m*3 -0.7 C 0 km/h
1697 28-11-2010 20:00:00 -0.8 C 3.55 g/m*3 -0.8 C 0 km/h
1698 28-11-2010 21:00:00 -0.86 C 3.46 g/m*3 -0.86 C 0 km/h
1699 28-11-2010 22:00:00 -1.6 C 3.36 g/m*3 -1.6 C 0 km/h
1700 28-11-2010 23:00:00 -2.04 C 3.42 g/m*3 -2.04 C 0 km/h
Sensor: Nr:Datum:Temp:Abs-Feuchte:Windchill:Wind:
Aussen-T/F 1701 29-11-2010 00:00:00 -1.48 C 3.37 g/m*3 -1.48 C 0 km/h
1702 29-11-2010 01:00:00 -1.8 C 3.31 g/m*3 -1.8 C 0 km/h
1703 29-11-2010 02:00:00 -1.88 C 3.26 g/m*3 -1.88 C 0 km/h
1704 29-11-2010 03:00:00 -2 C 3.21 g/m*3 -2 C 0 km/h
1705 29-11-2010 04:00:00 -2 C 3.22 g/m*3 -2 C 0 km/h
1706 29-11-2010 05:00:00 -1.82 C 3.27 g/m*3 -1.82 C 0 km/h
1707 29-11-2010 06:00:00 -1.68 C 3.31 g/m*3 -1.68 C 0 km/h
1708 29-11-2010 07:00:00 -1.66 C 3.29 g/m*3 -1.66 C 0 km/h
1709 29-11-2010 08:00:00 -1.6 C 3.33 g/m*3 -1.6 C 0 km/h
1710 29-11-2010 09:00:00 -1.38 C 3.3 g/m*3 -1.38 C 0 km/h
1711 29-11-2010 10:00:00 -1.3 C 3.37 g/m*3 -1.3 C 0 km/h
1712 29-11-2010 11:00:00 -1.22 C 3.45 g/m*3 -1.22 C 0 km/h
1713 29-11-2010 12:00:00 -1.14 C 3.52 g/m*3 -1.14 C 0 km/h
1714 29-11-2010 13:00:00 -0.84 C 3.57 g/m*3 -0.84 C 0 km/h
1715 29-11-2010 14:00:00 -1.02 C 3.67 g/m*3 -1.02 C 0 km/h
1716 29-11-2010 15:00:00 -1.3 C 3.72 g/m*3 -1.3 C 0 km/h
1717 29-11-2010 16:00:00 -1.46 C 3.73 g/m*3 -1.46 C 0 km/h
1718 29-11-2010 17:00:00 -1.68 C 3.71 g/m*3 -1.68 C 0 km/h
1719 29-11-2010 18:00:00 -1.68 C 3.75 g/m*3 -1.68 C 0 km/h
1720 29-11-2010 19:00:00 -1.7 C 3.75 g/m*3 -1.7 C 0 km/h
1721 29-11-2010 20:00:00 -1.64 C 3.8 g/m*3 -1.64 C 0 km/h
1722 29-11-2010 21:00:00 -1.66 C 3.8 g/m*3 -1.66 C 0 km/h
1723 29-11-2010 22:00:00 -1.78 C 3.77 g/m*3 -1.78 C 0 km/h
1724 29-11-2010 23:00:00 -1.68 C 3.83 g/m*3 -1.68 C 0 km/h
1725 30-11-2010 00:00:00 -1.78 C 3.81 g/m*3 -1.78 C 0 km/h
Sensor: Nr:Datum:Temp:Abs-Feuchte:Windchill:Wind:
Aussen-T/F 1726 30-11-2010 01:00:00 -1.96 C 3.76 g/m*3 -1.96 C 0 km/h
1727 30-11-2010 02:00:00 -1.68 C 3.84 g/m*3 -1.68 C 0 km/h
1728 30-11-2010 03:00:00 -1.7 C 3.82 g/m*3 -1.7 C 0 km/h
1729 30-11-2010 04:00:00 -2.36 C 3.62 g/m*3 -2.36 C 0 km/h
1730 30-11-2010 05:00:00 -2.4 C 3.62 g/m*3 -2.4 C 0 km/h
1731 30-11-2010 06:00:00 -2.26 C 3.66 g/m*3 -2.26 C 0 km/h
1732 30-11-2010 07:00:00 -2.28 C 3.66 g/m*3 -2.28 C 0 km/h
1733 30-11-2010 08:00:00 -2.08 C 3.66 g/m*3 -2.08 C 0 km/h
1734 30-11-2010 09:00:00 -2 C 3.58 g/m*3 -2 C 0 km/h
1735 30-11-2010 10:00:00 -1.82 C 3.51 g/m*3 -1.82 C 0 km/h
1736 30-11-2010 11:00:00 -1.5 C 3.44 g/m*3 -1.5 C 0 km/h
1737 30-11-2010 12:00:00 -1.3 C 3.28 g/m*3 -1.3 C 0 km/h
1738 30-11-2010 13:00:00 -1.08 C 3.25 g/m*3 -1.08 C 0 km/h
1739 30-11-2010 14:00:00 -1.32 C 3.2 g/m*3 -1.32 C 0 km/h
1740 30-11-2010 15:00:00 -1.48 C 3.23 g/m*3 -1.48 C 0 km/h
1741 30-11-2010 16:00:00 -1.5 C 3.23 g/m*3 -1.5 C 0 km/h
1742 30-11-2010 17:00:00 -1.92 C 3.21 g/m*3 -1.92 C 0 km/h
1743 30-11-2010 18:00:00 -2.1 C 3.18 g/m*3 -2.1 C 0 km/h
1744 30-11-2010 19:00:00 -2.1 C 3.17 g/m*3 -2.1 C 0 km/h
1745 30-11-2010 20:00:00 -2.26 C 3.11 g/m*3 -2.26 C 0 km/h
1746 30-11-2010 21:00:00 -2.4 C 3.05 g/m*3 -2.4 C 0 km/h
1747 30-11-2010 22:00:00 -2.58 C 2.94 g/m*3 -2.58 C 0 km/h
1748 30-11-2010 23:00:00 -2.76 C 2.83 g/m*3 -2.76 C 0 km/h
1749 01-12-2010 00:00:00 -3 C 2.76 g/m*3 -3 C 0 km/h
1750 01-12-2010 01:00:00 -3.3 C 2.67 g/m*3 -3.3 C 0 km/h
Sensor: Nr:Datum:Temp:Abs-Feuchte:Windchill:Wind:
Aussen-T/F 1751 01-12-2010 02:00:00 -3.88 C 2.51 g/m*3 -3.88 C 0 km/h
1752 01-12-2010 03:00:00 -4.34 C 2.36 g/m*3 -4.34 C 0 km/h
1753 01-12-2010 04:00:00 -5 C 2.23 g/m*3 -5 C 0 km/h
1754 01-12-2010 05:00:00 -5.4 C 2.18 g/m*3 -5.4 C 0 km/h
1755 01-12-2010 06:00:00 -5.56 C 2.14 g/m*3 -5.56 C 0 km/h
1756 01-12-2010 07:00:00 -5.9 C 2.05 g/m*3 -5.9 C 0 km/h
1757 01-12-2010 08:00:00 -6.26 C 1.95 g/m*3 -6.26 C 0 km/h
1758 01-12-2010 09:00:00 -5.96 C 1.92 g/m*3 -5.96 C 0 km/h
1759 01-12-2010 10:00:00 -5.54 C 1.95 g/m*3 -5.54 C 0 km/h
1760 01-12-2010 11:00:00 -5.48 C 1.97 g/m*3 -5.48 C 0 km/h
1761 01-12-2010 12:00:00 -5.82 C 1.93 g/m*3 -5.82 C 0 km/h
1762 01-12-2010 13:00:00 -6.1 C 1.85 g/m*3 -6.1 C 0 km/h
1763 01-12-2010 14:00:00 -6.18 C 1.79 g/m*3 -6.18 C 0 km/h
1764 01-12-2010 15:00:00 -6.28 C 1.78 g/m*3 -6.28 C 0 km/h
1765 01-12-2010 16:00:00 -6.58 C 1.75 g/m*3 -6.58 C 0 km/h
1766 01-12-2010 17:00:00 -6.58 C 1.8 g/m*3 -6.58 C 0 km/h
1767 01-12-2010 18:00:00 -6.54 C 1.82 g/m*3 -6.54 C 0 km/h
1768 01-12-2010 19:00:00 -6.58 C 1.81 g/m*3 -6.58 C 0 km/h
1769 01-12-2010 20:00:00 -6.64 C 1.77 g/m*3 -6.64 C 0 km/h
1770 01-12-2010 21:00:00 -6.74 C 1.74 g/m*3 -6.74 C 0 km/h
1771 01-12-2010 22:00:00 -6.86 C 1.73 g/m*3 -6.86 C 0 km/h
1772 01-12-2010 23:00:00 -7.06 C 1.77 g/m*3 -7.06 C 0 km/h
1773 02-12-2010 00:00:00 -7.14 C 1.81 g/m*3 -7.14 C 0 km/h
1774 02-12-2010 01:00:00 -7.12 C 1.79 g/m*3 -7.12 C 0 km/h
1775 02-12-2010 02:00:00 -7.28 C 1.71 g/m*3 -7.28 C 0 km/h
Sensor: Nr:Datum:Temp:Abs-Feuchte:Windchill:Wind:
Aussen-T/F 1776 02-12-2010 03:00:00 -7.32 C 1.74 g/m*3 -7.32 C 0 km/h
1777 02-12-2010 04:00:00 -7.5 C 1.78 g/m*3 -7.5 C 0 km/h
1778 02-12-2010 05:00:00 -7.64 C 1.79 g/m*3 -7.64 C 0 km/h
1779 02-12-2010 06:00:00 -7.76 C 1.84 g/m*3 -7.76 C 0 km/h
1780 02-12-2010 07:00:00 -7.72 C 1.89 g/m*3 -7.72 C 0 km/h
1781 02-12-2010 08:00:00 -7.7 C 1.87 g/m*3 -7.7 C 0 km/h
1782 02-12-2010 09:00:00 -7.1 C 1.96 g/m*3 -7.1 C 0 km/h
1783 02-12-2010 10:00:00 -6.14 C 1.99 g/m*3 -6.14 C 0 km/h
1784 02-12-2010 11:00:00 -5.62 C 2.03 g/m*3 -5.62 C 0 km/h
1785 02-12-2010 12:00:00 -6.08 C 2.05 g/m*3 -6.08 C 0 km/h
1786 02-12-2010 13:00:00 -5.3 C 2.15 g/m*3 -5.3 C 0 km/h
1787 02-12-2010 14:00:00 -5.6 C 2.16 g/m*3 -5.6 C 0 km/h
1788 02-12-2010 15:00:00 -4.74 C 2.28 g/m*3 -4.74 C 0 km/h
1789 02-12-2010 16:00:00 -5.12 C 2.3 g/m*3 -5.12 C 0 km/h
1790 02-12-2010 17:00:00 -7.36 C 2.12 g/m*3 -7.36 C 0 km/h
1791 02-12-2010 18:00:00 -8.02 C 2.2 g/m*3 -8.02 C 0 km/h
1792 02-12-2010 19:00:00 -8.42 C 2.16 g/m*3 -8.42 C 0 km/h
1793 02-12-2010 20:00:00 -8.04 C 2.25 g/m*3 -8.04 C 0 km/h
1794 02-12-2010 21:00:00 -7.54 C 2.33 g/m*3 -7.54 C 0 km/h
1795 02-12-2010 22:00:00 -8.54 C 2.13 g/m*3 -8.54 C 0 km/h
1796 02-12-2010 23:00:00 -7.96 C 2.23 g/m*3 -7.96 C 0 km/h
1797 03-12-2010 00:00:00 -9.88 C 1.86 g/m*3 -9.88 C 0 km/h
1798 03-12-2010 01:00:00 -9.66 C 1.91 g/m*3 -9.66 C 0 km/h
1799 03-12-2010 02:00:00 -9.12 C 2 g/m*3 -9.12 C 0 km/h
1800 03-12-2010 03:00:00 -8.78 C 2.04 g/m*3 -8.78 C 0 km/h
Sensor: Nr:Datum:Temp:Abs-Feuchte:Windchill:Wind:
Aussen-T/F 1801 03-12-2010 04:00:00 -8.06 C 2.15 g/m*3 -8.06 C 0 km/h
1802 03-12-2010 05:00:00 -8.68 C 2.03 g/m*3 -8.68 C 0 km/h
1803 03-12-2010 06:00:00 -9.48 C 1.91 g/m*3 -9.48 C 0 km/h
1804 03-12-2010 07:00:00 -8.92 C 2.03 g/m*3 -8.92 C 0 km/h
1805 03-12-2010 08:00:00 -9.92 C 1.85 g/m*3 -9.92 C 0 km/h
1806 03-12-2010 09:00:00 -9.8 C 1.85 g/m*3 -9.8 C 0 km/h
1807 03-12-2010 10:00:00 -8.1 C 2.05 g/m*3 -8.1 C 0 km/h
1808 03-12-2010 11:00:00 -6.32 C 2.23 g/m*3 -6.32 C 0 km/h
1809 03-12-2010 12:00:00 -5.16 C 2.28 g/m*3 -5.16 C 0 km/h
1810 03-12-2010 13:00:00 -4.74 C 2.32 g/m*3 -4.74 C 0 km/h
1811 03-12-2010 14:00:00 -4.26 C 2.38 g/m*3 -4.26 C 0 km/h
1812 03-12-2010 15:00:00 -4.68 C 2.4 g/m*3 -4.68 C 0 km/h
1813 03-12-2010 16:00:00 -6.18 C 2.37 g/m*3 -6.18 C 0 km/h
1814 03-12-2010 17:00:00 -6.98 C 2.34 g/m*3 -6.98 C 0 km/h
1815 03-12-2010 18:00:00 -7.02 C 2.36 g/m*3 -7.02 C 0 km/h
1816 03-12-2010 19:00:00 -5.74 C 2.63 g/m*3 -5.74 C 0 km/h
1817 03-12-2010 20:00:00 -5.36 C 2.64 g/m*3 -5.36 C 0 km/h
1818 03-12-2010 21:00:00 -5.72 C 2.55 g/m*3 -5.72 C 0 km/h
1819 03-12-2010 22:00:00 -6.78 C 2.39 g/m*3 -6.78 C 0 km/h
1820 03-12-2010 23:00:00 -7.92 C 2.24 g/m*3 -7.92 C 0 km/h
1821 04-12-2010 00:00:00 -8.5 C 2.17 g/m*3 -8.5 C 0 km/h
1822 04-12-2010 01:00:00 -9.1 C 2.06 g/m*3 -9.1 C 0 km/h
1823 04-12-2010 02:00:00 -9.26 C 2.02 g/m*3 -9.26 C 0 km/h
1824 04-12-2010 03:00:00 -9.94 C 1.9 g/m*3 -9.94 C 0 km/h
1825 04-12-2010 04:00:00 -7.96 C 2.24 g/m*3 -7.96 C 0 km/h
Sensor: Nr:Datum:Temp:Abs-Feuchte:Windchill:Wind:
Aussen-T/F 1826 04-12-2010 05:00:00 -5.52 C 2.67 g/m*3 -5.52 C 0 km/h
1827 04-12-2010 06:00:00 -4.94 C 2.59 g/m*3 -4.94 C 0 km/h
1828 04-12-2010 07:00:00 -5.14 C 2.58 g/m*3 -5.14 C 0 km/h
1829 04-12-2010 08:00:00 -3.94 C 2.67 g/m*3 -3.94 C 0 km/h
1830 04-12-2010 09:00:00 -3.1 C 2.58 g/m*3 -3.1 C 0 km/h
1831 04-12-2010 10:00:00 -2.12 C 2.68 g/m*3 -2.12 C 0 km/h
1832 04-12-2010 11:00:00 -1.38 C 2.45 g/m*3 -1.38 C 0 km/h
1833 04-12-2010 12:00:00 -0.86 C 2.46 g/m*3 -0.86 C 0 km/h
1834 04-12-2010 13:00:00 -1.4 C 2.41 g/m*3 -1.4 C 0 km/h
1835 04-12-2010 14:00:00 -1 C 2.47 g/m*3 -1 C 0 km/h
1836 04-12-2010 15:00:00 -0.92 C 2.52 g/m*3 -0.92 C 0 km/h
1837 04-12-2010 16:00:00 -1.22 C 2.64 g/m*3 -1.22 C 0 km/h
1838 04-12-2010 17:00:00 -1.08 C 2.76 g/m*3 -1.08 C 0 km/h
1839 04-12-2010 18:00:00 -0.9 C 2.79 g/m*3 -0.9 C 0 km/h
1840 04-12-2010 19:00:00 -0.92 C 2.79 g/m*3 -0.92 C 0 km/h
1841 04-12-2010 20:00:00 -0.96 C 2.87 g/m*3 -0.96 C 0 km/h
1842 04-12-2010 21:00:00 -1.1 C 3.13 g/m*3 -1.1 C 0 km/h
1843 04-12-2010 22:00:00 -1.18 C 3.46 g/m*3 -1.18 C 0 km/h
1844 04-12-2010 23:00:00 -1.12 C 3.51 g/m*3 -1.12 C 0 km/h
1845 05-12-2010 00:00:00 -0.5 C 3.48 g/m*3 -0.5 C 0 km/h
1846 05-12-2010 01:00:00 0.12 C 3.31 g/m*3 0.12 C 0 km/h
1847 05-12-2010 02:00:00 0.02 C 3.49 g/m*3 0.02 C 0 km/h
1848 05-12-2010 03:00:00 0.12 C 3.53 g/m*3 0.12 C 0 km/h
1849 05-12-2010 04:00:00 0.12 C 3.58 g/m*3 0.12 C 0 km/h
1850 05-12-2010 05:00:00 0.22 C 3.25 g/m*3 0.22 C 0 km/h
Sensor: Nr:Datum:Temp:Abs-Feuchte:Windchill:Wind:
Aussen-T/F 1851 05-12-2010 06:00:00 0.22 C 3.02 g/m*3 0.22 C 0 km/h
1852 05-12-2010 07:00:00 -0.08 C 2.91 g/m*3 -0.08 C 0 km/h
1853 05-12-2010 08:00:00 -0.32 C 2.9 g/m*3 -0.32 C 0 km/h
1854 05-12-2010 09:00:00 0.02 C 2.96 g/m*3 0.02 C 0 km/h
1855 05-12-2010 10:00:00 1.68 C 2.83 g/m*3 1.68 C 0 km/h
1856 05-12-2010 11:00:00 2.54 C 2.77 g/m*3 2.54 C 0 km/h
1857 05-12-2010 12:00:00 3.1 C 2.67 g/m*3 3.1 C 0 km/h
1858 05-12-2010 13:00:00 3.4 C 2.63 g/m*3 3.4 C 0 km/h
1859 05-12-2010 14:00:00 3.24 C 2.6 g/m*3 3.24 C 0 km/h
1860 05-12-2010 15:00:00 2.22 C 3.05 g/m*3 2.22 C 0 km/h
1861 05-12-2010 16:00:00 1.24 C 3.28 g/m*3 1.24 C 0 km/h
1862 05-12-2010 17:00:00 1.38 C 3.4 g/m*3 1.38 C 0 km/h
1863 05-12-2010 18:00:00 0.88 C 3.81 g/m*3 0.88 C 0 km/h
1864 05-12-2010 19:00:00 0.86 C 3.97 g/m*3 0.86 C 0 km/h
1865 05-12-2010 20:00:00 0.62 C 4.08 g/m*3 0.62 C 0 km/h
1866 05-12-2010 21:00:00 0.34 C 4.27 g/m*3 0.34 C 0 km/h
1867 05-12-2010 22:00:00 0.36 C 4.35 g/m*3 0.36 C 0 km/h
1868 05-12-2010 23:00:00 0.2 C 4.33 g/m*3 0.2 C 0 km/h
1869 06-12-2010 00:00:00 0.12 C 4.35 g/m*3 0.12 C 0 km/h
1870 06-12-2010 01:00:00 0.12 C 4.38 g/m*3 0.12 C 0 km/h
1871 06-12-2010 02:00:00 0.1 C 4.39 g/m*3 0.1 C 0 km/h
1872 06-12-2010 03:00:00 0.1 C 4.35 g/m*3 0.1 C 0 km/h
1873 06-12-2010 04:00:00 0.14 C 4.38 g/m*3 0.14 C 0 km/h
1874 06-12-2010 05:00:00 0.04 C 4.33 g/m*3 0.04 C 0 km/h
1875 06-12-2010 06:00:00 0.02 C 4.37 g/m*3 0.02 C 0 km/h
Sensor: Nr:Datum:Temp:Abs-Feuchte:Windchill:Wind:
Aussen-T/F 1876 06-12-2010 07:00:00 0 C 4.34 g/m*3 0 C 0 km/h
1877 06-12-2010 08:00:00 0.06 C 4.31 g/m*3 0.06 C 0 km/h
1878 06-12-2010 09:00:00 0.84 C 4.37 g/m*3 0.84 C 0 km/h
1879 06-12-2010 10:00:00 1.38 C 4.04 g/m*3 1.38 C 0 km/h
1880 06-12-2010 11:00:00 1.88 C 3.94 g/m*3 1.88 C 0 km/h
1881 06-12-2010 12:00:00 2.4 C 3.76 g/m*3 2.4 C 0 km/h
1882 06-12-2010 13:00:00 2.54 C 3.68 g/m*3 2.54 C 0 km/h
1883 06-12-2010 14:00:00 1.9 C 3.59 g/m*3 1.9 C 0 km/h
1884 06-12-2010 15:00:00 0.96 C 3.65 g/m*3 0.96 C 0 km/h
1885 06-12-2010 16:00:00 -0.26 C 3.69 g/m*3 -0.26 C 0 km/h
1886 06-12-2010 17:00:00 -0.68 C 3.73 g/m*3 -0.68 C 0 km/h
1887 06-12-2010 18:00:00 -0.9 C 3.76 g/m*3 -0.9 C 0 km/h
1888 06-12-2010 19:00:00 -0.84 C 3.75 g/m*3 -0.84 C 0 km/h
1889 06-12-2010 20:00:00 -1.14 C 3.67 g/m*3 -1.14 C 0 km/h
1890 06-12-2010 21:00:00 -1.275 C 3.64 g/m*3 -1.27 C 0 km/h
1891 06-12-2010 22:00:00 -1.24 C 3.68 g/m*3 -1.24 C 0 km/h
1892 06-12-2010 23:00:00 -0.68 C 3.74 g/m*3 -0.68 C 0 km/h
1893 07-12-2010 00:00:00 -1.06 C 3.6 g/m*3 -1.06 C 0 km/h
1894 07-12-2010 01:00:00 -1.16 C 3.68 g/m*3 -1.16 C 0 km/h
1895 07-12-2010 02:00:00 -0.56 C 3.77 g/m*3 -0.56 C 0 km/h
1896 07-12-2010 03:00:00 -0.56 C 3.73 g/m*3 -0.56 C 0 km/h
1897 07-12-2010 04:00:00 -0.74 C 3.7 g/m*3 -0.74 C 0 km/h
1898 07-12-2010 05:00:00 -0.94 C 3.68 g/m*3 -0.94 C 0 km/h
1899 07-12-2010 06:00:00 -0.78 C 3.68 g/m*3 -0.78 C 0 km/h
1900 07-12-2010 07:00:00 -1 C 3.57 g/m*3 -1 C 0 km/h
Sensor: Nr:Datum:Temp:Abs-Feuchte:Windchill:Wind:
Aussen-T/F 1901 07-12-2010 08:00:00 -0.84 C 3.6 g/m*3 -0.84 C 0 km/h
1902 07-12-2010 09:00:00 -0.4 C 3.61 g/m*3 -0.4 C 0 km/h
1903 07-12-2010 10:00:00 0.18 C 3.6 g/m*3 0.18 C 0 km/h
1904 07-12-2010 11:00:00 0.56 C 3.61 g/m*3 0.56 C 0 km/h
1905 07-12-2010 12:00:00 1.12 C 3.63 g/m*3 1.12 C 0 km/h
1906 07-12-2010 13:00:00 1.44 C 3.61 g/m*3 1.44 C 0 km/h
1907 07-12-2010 14:00:00 1.06 C 3.67 g/m*3 1.06 C 0 km/h
1908 07-12-2010 15:00:00 0.4 C 3.81 g/m*3 0.4 C 0 km/h
1909 07-12-2010 16:00:00 -0.22 C 4.06 g/m*3 -0.22 C 0 km/h
1910 07-12-2010 17:00:00 -0.3 C 4.2 g/m*3 -0.3 C 0 km/h
1911 07-12-2010 18:00:00 -0.26 C 4.26 g/m*3 -0.26 C 0 km/h
1912 07-12-2010 19:00:00 -0.2 C 4.31 g/m*3 -0.2 C 0 km/h
1913 07-12-2010 20:00:00 -0.16 C 4.36 g/m*3 -0.16 C 0 km/h
1914 07-12-2010 21:00:00 -0.2 C 4.36 g/m*3 -0.2 C 0 km/h
1915 07-12-2010 22:00:00 -0.18 C 4.4 g/m*3 -0.18 C 0 km/h
1916 07-12-2010 23:00:00 -0.2 C 4.4 g/m*3 -0.2 C 0 km/h
1917 08-12-2010 00:00:00 -0.2 C 4.4 g/m*3 -0.2 C 0 km/h
1918 08-12-2010 01:00:00 -0.2 C 4.4 g/m*3 -0.2 C 0 km/h
1919 08-12-2010 02:00:00 -0.16 C 4.41 g/m*3 -0.16 C 0 km/h
1920 08-12-2010 03:00:00 -0.18 C 4.4 g/m*3 -0.18 C 0 km/h
1921 08-12-2010 04:00:00 -0.08 C 4.43 g/m*3 -0.08 C 0 km/h
1922 08-12-2010 05:00:00 -0.08 C 4.46 g/m*3 -0.08 C 0 km/h
1923 08-12-2010 06:00:00 -0.06 C 4.49 g/m*3 -0.06 C 0 km/h
1924 08-12-2010 07:00:00 -0.02 C 4.5 g/m*3 -0.02 C 0 km/h
1925 08-12-2010 08:00:00 0 C 4.51 g/m*3 0 C 0 km/h
Sensor: Nr:Datum:Temp:Abs-Feuchte:Windchill:Wind:
Aussen-T/F 1926 08-12-2010 09:00:00 0.08 C 4.53 g/m*3 0.08 C 0 km/h
1927 08-12-2010 10:00:00 0.18 C 4.56 g/m*3 0.18 C 0 km/h
1928 08-12-2010 11:00:00 0.34 C 4.63 g/m*3 0.34 C 0 km/h
1929 08-12-2010 12:00:00 0.56 C 4.67 g/m*3 0.56 C 0 km/h
1930 08-12-2010 13:00:00 0.62 C 4.58 g/m*3 0.62 C 0 km/h
1931 08-12-2010 14:00:00 0.42 C 4.44 g/m*3 0.42 C 0 km/h
1932 08-12-2010 15:00:00 -0.08 C 4.29 g/m*3 -0.08 C 0 km/h
1933 08-12-2010 16:00:00 -0.3 C 4.26 g/m*3 -0.3 C 0 km/h
1934 08-12-2010 17:00:00 -0.36 C 4.24 g/m*3 -0.36 C 0 km/h
1935 08-12-2010 18:00:00 -0.74 C 4.1 g/m*3 -0.74 C 0 km/h
1936 08-12-2010 19:00:00 -0.92 C 4.05 g/m*3 -0.92 C 0 km/h
1937 08-12-2010 20:00:00 -1.06 C 4.02 g/m*3 -1.06 C 0 km/h
1938 08-12-2010 21:00:00 -1.24 C 3.94 g/m*3 -1.24 C 0 km/h
1939 08-12-2010 22:00:00 -1.44 C 3.82 g/m*3 -1.44 C 0 km/h
1940 08-12-2010 23:00:00 -1.3 C 3.74 g/m*3 -1.3 C 0 km/h
1941 09-12-2010 00:00:00 -1.32 C 3.64 g/m*3 -1.32 C 0 km/h
1942 09-12-2010 01:00:00 -1.52 C 3.56 g/m*3 -1.52 C 0 km/h
1943 09-12-2010 02:00:00 -1.74 C 3.55 g/m*3 -1.74 C 0 km/h
1944 09-12-2010 03:00:00 -1.7 C 3.69 g/m*3 -1.7 C 0 km/h
1945 09-12-2010 04:00:00 -1.62 C 3.72 g/m*3 -1.62 C 0 km/h
1946 09-12-2010 05:00:00 -1.04 C 3.84 g/m*3 -1.04 C 0 km/h
1947 09-12-2010 06:00:00 -0.42 C 3.9 g/m*3 -0.42 C 0 km/h
1948 09-12-2010 07:00:00 -0.28 C 3.95 g/m*3 -0.28 C 0 km/h
1949 09-12-2010 08:00:00 -0.38 C 3.91 g/m*3 -0.38 C 0 km/h
1950 09-12-2010 09:00:00 -0.08 C 3.93 g/m*3 -0.08 C 0 km/h
Sensor: Nr:Datum:Temp:Abs-Feuchte:Windchill:Wind:
Aussen-T/F 1951 09-12-2010 10:00:00 0.32 C 4 g/m*3 0.32 C 0 km/h
1952 09-12-2010 11:00:00 0.8 C 4.06 g/m*3 0.8 C 0 km/h
1953 09-12-2010 12:00:00 2.18 C 4.07 g/m*3 2.18 C 0 km/h
1954 09-12-2010 13:00:00 1.74 C 4.11 g/m*3 1.74 C 0 km/h
1955 09-12-2010 14:00:00 2.12 C 3.92 g/m*3 2.12 C 0 km/h
1956 09-12-2010 15:00:00 1.84 C 3.75 g/m*3 1.84 C 0 km/h
1957 09-12-2010 16:00:00 1.52 C 3.66 g/m*3 1.52 C 0 km/h
1958 09-12-2010 17:00:00 1.5 C 3.89 g/m*3 1.5 C 0 km/h
1959 09-12-2010 18:00:00 1.68 C 4.03 g/m*3 1.68 C 0 km/h
1960 09-12-2010 19:00:00 2.16 C 3.9 g/m*3 2.16 C 0 km/h
1961 09-12-2010 20:00:00 2.44 C 4 g/m*3 2.44 C 0 km/h
1962 09-12-2010 21:00:00 2.58 C 4.06 g/m*3 2.58 C 0 km/h
1963 09-12-2010 22:00:00 2.44 C 4.16 g/m*3 2.44 C 0 km/h
1964 09-12-2010 23:00:00 1.5 C 4.43 g/m*3 1.5 C 0 km/h
1965 10-12-2010 00:00:00 1.9 C 4.42 g/m*3 1.9 C 0 km/h
1966 10-12-2010 01:00:00 2.04 C 4.36 g/m*3 2.04 C 0 km/h
1967 10-12-2010 02:00:00 1.7 C 4.26 g/m*3 1.7 C 0 km/h
1968 10-12-2010 03:00:00 1.24 C 4.52 g/m*3 1.24 C 0 km/h
1969 10-12-2010 04:00:00 1.7 C 4.79 g/m*3 1.7 C 0 km/h
1970 10-12-2010 05:00:00 2.52 C 4.87 g/m*3 2.52 C 0 km/h
1971 10-12-2010 06:00:00 1.84 C 4.73 g/m*3 1.84 C 0 km/h
1972 10-12-2010 07:00:00 0.76 C 4.53 g/m*3 0.76 C 0 km/h
1973 10-12-2010 08:00:00 -0.32 C 4.28 g/m*3 -0.32 C 0 km/h
1974 10-12-2010 09:00:00 -0.4 C 4.3 g/m*3 -0.4 C 0 km/h
1975 10-12-2010 10:00:00 0.06 C 4.45 g/m*3 0.06 C 0 km/h
Sensor: Nr:Datum:Temp:Abs-Feuchte:Windchill:Wind:
Aussen-T/F 1976 10-12-2010 11:00:00 1.38 C 4.82 g/m*3 1.38 C 0 km/h
1977 10-12-2010 12:00:00 2.24 C 4.95 g/m*3 2.24 C 0 km/h
1978 10-12-2010 13:00:00 2.96 C 4.9 g/m*3 2.96 C 0 km/h
1979 10-12-2010 14:00:00 2.82 C 4.65 g/m*3 2.82 C 0 km/h
1980 10-12-2010 15:00:00 1.78 C 4.64 g/m*3 1.78 C 0 km/h
1981 10-12-2010 16:00:00 1.54 C 4.8 g/m*3 1.54 C 0 km/h
1982 10-12-2010 17:00:00 1.84 C 4.95 g/m*3 1.84 C 0 km/h
1983 10-12-2010 18:00:00 1.86 C 4.93 g/m*3 1.86 C 0 km/h
1984 10-12-2010 19:00:00 2.28 C 4.97 g/m*3 2.28 C 0 km/h
1985 10-12-2010 20:00:00 2.6 C 4.93 g/m*3 2.6 C 0 km/h
1986 10-12-2010 21:00:00 2.5 C 4.85 g/m*3 2.5 C 0 km/h
1987 10-12-2010 22:00:00 2.52 C 4.87 g/m*3 2.52 C 0 km/h
1988 10-12-2010 23:00:00 2.24 C 4.86 g/m*3 2.24 C 0 km/h
1989 11-12-2010 00:00:00 2.18 C 4.97 g/m*3 2.18 C 0 km/h
1990 11-12-2010 01:00:00 2.46 C 5.08 g/m*3 2.46 C 0 km/h
1991 11-12-2010 02:00:00 2.72 C 5.13 g/m*3 2.72 C 0 km/h
1992 11-12-2010 03:00:00 2.54 C 5.1 g/m*3 2.54 C 0 km/h
1993 11-12-2010 04:00:00 3.26 C 5.24 g/m*3 3.26 C 0 km/h
1994 11-12-2010 05:00:00 3.86 C 5.19 g/m*3 3.86 C 0 km/h
1995 11-12-2010 06:00:00 3.36 C 5.15 g/m*3 3.36 C 0 km/h
1996 11-12-2010 07:00:00 4.14 C 5.21 g/m*3 4.14 C 0 km/h
1997 11-12-2010 08:00:00 4.86 C 5.01 g/m*3 4.86 C 0 km/h
1998 11-12-2010 09:00:00 4.16 C 5.04 g/m*3 4.16 C 0 km/h
1999 11-12-2010 10:00:00 3.9 C 5.38 g/m*3 3.9 C 0 km/h
2000 11-12-2010 11:00:00 4.3 C 5.37 g/m*3 4.3 C 0 km/h
Sensor: Nr:Datum:Temp:Abs-Feuchte:Windchill:Wind:
Aussen-T/F 2001 11-12-2010 12:00:00 4.54 C 5.56 g/m*3 4.54 C 0 km/h
2002 11-12-2010 13:00:00 4.86 C 5.39 g/m*3 4.86 C 0 km/h
2003 11-12-2010 14:00:00 4.9 C 5.31 g/m*3 4.9 C 0 km/h
2004 11-12-2010 15:00:00 5.06 C 5.18 g/m*3 5.06 C 0 km/h
2005 11-12-2010 16:00:00 4.9 C 5.24 g/m*3 4.9 C 0 km/h
2006 11-12-2010 17:00:00 5.16 C 5.22 g/m*3 5.16 C 0 km/h
2007 11-12-2010 18:00:00 4.22 C 5.21 g/m*3 4.22 C 0 km/h
2008 11-12-2010 19:00:00 4.26 C 5.2 g/m*3 4.26 C 0 km/h
2009 11-12-2010 20:00:00 4.82 C 5.01 g/m*3 4.82 C 0 km/h
2010 11-12-2010 21:00:00 4.4 C 5.04 g/m*3 4.4 C 0 km/h
2011 11-12-2010 22:00:00 4.3 C 5.03 g/m*3 4.3 C 0 km/h
2012 11-12-2010 23:00:00 4.66 C 4.89 g/m*3 4.66 C 0 km/h
2013 12-12-2010 00:00:00 4.26 C 4.97 g/m*3 4.26 C 0 km/h
2014 12-12-2010 01:00:00 4.84 C 4.84 g/m*3 4.84 C 0 km/h
2015 12-12-2010 02:00:00 4.82 C 4.58 g/m*3 4.82 C 0 km/h
2016 12-12-2010 03:00:00 4.2 C 4.66 g/m*3 4.2 C 0 km/h
2017 12-12-2010 04:00:00 3.68 C 5.18 g/m*3 3.68 C 0 km/h
2018 12-12-2010 05:00:00 3.44 C 5.11 g/m*3 3.44 C 0 km/h
2019 12-12-2010 06:00:00 3.04 C 5.07 g/m*3 3.04 C 0 km/h
2020 12-12-2010 07:00:00 3.86 C 4.93 g/m*3 3.86 C 0 km/h
2021 12-12-2010 08:00:00 3.62 C 4.87 g/m*3 3.62 C 0 km/h
2022 12-12-2010 09:00:00 3.7 C 4.96 g/m*3 3.7 C 0 km/h
2023 12-12-2010 10:00:00 3.86 C 5.03 g/m*3 3.86 C 0 km/h
2024 12-12-2010 11:00:00 4.12 C 5.14 g/m*3 4.12 C 0 km/h
2025 12-12-2010 12:00:00 4.5 C 5.34 g/m*3 4.5 C 0 km/h
Sensor: Nr:Datum:Temp:Abs-Feuchte:Windchill:Wind:
Aussen-T/F 2026 12-12-2010 13:00:00 4.82 C 5.17 g/m*3 4.82 C 0 km/h
2027 12-12-2010 14:00:00 3.46 C 4.95 g/m*3 3.46 C 0 km/h
2028 12-12-2010 15:00:00 3.1 C 5.21 g/m*3 3.1 C 0 km/h
2029 12-12-2010 16:00:00 2.7 C 5.12 g/m*3 2.7 C 0 km/h
2030 12-12-2010 17:00:00 2.48 C 4.62 g/m*3 2.48 C 0 km/h
2031 12-12-2010 18:00:00 1.86 C 4.15 g/m*3 1.86 C 0 km/h
2032 12-12-2010 19:00:00 1.38 C 3.91 g/m*3 1.38 C 0 km/h
2033 12-12-2010 20:00:00 1.18 C 3.56 g/m*3 1.18 C 0 km/h
2034 12-12-2010 21:00:00 0.76 C 3.35 g/m*3 0.76 C 0 km/h
2035 12-12-2010 22:00:00 0.4 C 3.18 g/m*3 0.4 C 0 km/h
2036 12-12-2010 23:00:00 -0.04 C 2.73 g/m*3 -0.04 C 0 km/h
2037 13-12-2010 00:00:00 -0.52 C 2.5 g/m*3 -0.52 C 0 km/h
2038 13-12-2010 01:00:00 -0.84 C 2.45 g/m*3 -0.84 C 0 km/h
2039 13-12-2010 02:00:00 -2.28 C 2.3 g/m*3 -2.28 C 0 km/h
2040 13-12-2010 03:00:00 -3.5 C 2.27 g/m*3 -3.5 C 0 km/h
2041 13-12-2010 04:00:00 -4.2 C 2.29 g/m*3 -4.2 C 0 km/h
2042 13-12-2010 05:00:00 -5.8 C 2.22 g/m*3 -5.8 C 0 km/h
2043 13-12-2010 06:00:00 -6.94 C 2.21 g/m*3 -6.94 C 0 km/h
2044 13-12-2010 07:00:00 -7.2 C 2.22 g/m*3 -7.2 C 0 km/h
2045 13-12-2010 08:00:00 -7.18 C 2.27 g/m*3 -7.18 C 0 km/h
2046 13-12-2010 09:00:00 -7.12 C 2.29 g/m*3 -7.12 C 0 km/h
2047 13-12-2010 10:00:00 -6.62 C 2.4 g/m*3 -6.62 C 0 km/h
2048 13-12-2010 11:00:00 -4 C 2.63 g/m*3 -4 C 0 km/h
2049 13-12-2010 12:00:00 -2.78 C 2.52 g/m*3 -2.78 C 0 km/h
2050 13-12-2010 13:00:00 -2.32 C 2.5 g/m*3 -2.32 C 0 km/h
Sensor: Nr:Datum:Temp:Abs-Feuchte:Windchill:Wind:
Aussen-T/F 2051 13-12-2010 14:00:00 -2.2 C 2.39 g/m*3 -2.2 C 0 km/h
2052 13-12-2010 15:00:00 -3.66 C 2.47 g/m*3 -3.66 C 0 km/h
2053 13-12-2010 16:00:00 -4.98 C 2.58 g/m*3 -4.98 C 0 km/h
2054 13-12-2010 17:00:00 -5.88 C 2.5 g/m*3 -5.88 C 0 km/h
2055 13-12-2010 18:00:00 -6.2 C 2.48 g/m*3 -6.2 C 0 km/h
2056 13-12-2010 19:00:00 -5.44 C 2.72 g/m*3 -5.44 C 0 km/h
2057 13-12-2010 20:00:00 -4.86 C 2.8 g/m*3 -4.86 C 0 km/h
2058 13-12-2010 21:00:00 -4.22 C 2.82 g/m*3 -4.22 C 0 km/h
2059 13-12-2010 22:00:00 -3.92 C 2.86 g/m*3 -3.92 C 0 km/h
2060 13-12-2010 23:00:00 -4.1 C 3 g/m*3 -4.1 C 0 km/h
2061 14-12-2010 00:00:00 -4.1 C 3.02 g/m*3 -4.1 C 0 km/h
2062 14-12-2010 01:00:00 -4.06 C 3.03 g/m*3 -4.06 C 0 km/h
2063 14-12-2010 02:00:00 -3.84 C 3.07 g/m*3 -3.84 C 0 km/h
2064 14-12-2010 03:00:00 -3.66 C 3.11 g/m*3 -3.66 C 0 km/h
2065 14-12-2010 04:00:00 -3.62 C 3.09 g/m*3 -3.62 C 0 km/h
2066 14-12-2010 05:00:00 -3.8 C 3.04 g/m*3 -3.8 C 0 km/h
2067 14-12-2010 06:00:00 -4.7 C 2.87 g/m*3 -4.7 C 0 km/h
2068 14-12-2010 07:00:00 -6.22 C 2.59 g/m*3 -6.22 C 0 km/h
2069 14-12-2010 08:00:00 -6.38 C 2.62 g/m*3 -6.38 C 0 km/h
2070 14-12-2010 09:00:00 -6 C 2.69 g/m*3 -6 C 0 km/h
2071 14-12-2010 10:00:00 -4.06 C 3 g/m*3 -4.06 C 0 km/h
2072 14-12-2010 11:00:00 -3.24 C 2.75 g/m*3 -3.24 C 0 km/h
2073 14-12-2010 12:00:00 -2.42 C 2.66 g/m*3 -2.42 C 0 km/h
2074 14-12-2010 13:00:00 -2.2 C 2.64 g/m*3 -2.2 C 0 km/h
2075 14-12-2010 14:00:00 -2.44 C 2.66 g/m*3 -2.44 C 0 km/h
Sensor: Nr:Datum:Temp:Abs-Feuchte:Windchill:Wind:
Aussen-T/F 2076 14-12-2010 15:00:00 -2.76 C 2.7 g/m*3 -2.76 C 0 km/h
2077 14-12-2010 16:00:00 -2.9 C 2.8 g/m*3 -2.9 C 0 km/h
2078 14-12-2010 17:00:00 -2.98 C 2.91 g/m*3 -2.98 C 0 km/h
2079 14-12-2010 18:00:00 -3.06 C 2.78 g/m*3 -3.06 C 0 km/h
2080 14-12-2010 19:00:00 -2.82 C 2.84 g/m*3 -2.82 C 0 km/h
2081 14-12-2010 20:00:00 -3.04 C 2.74 g/m*3 -3.04 C 0 km/h
2082 14-12-2010 21:00:00 -3.12 C 2.64 g/m*3 -3.12 C 0 km/h
2083 14-12-2010 22:00:00 -3.16 C 2.58 g/m*3 -3.16 C 0 km/h
2084 14-12-2010 23:00:00 -3.22 C 2.51 g/m*3 -3.22 C 0 km/h
2085 15-12-2010 00:00:00 -3.3 C 2.5 g/m*3 -3.3 C 0 km/h
2086 15-12-2010 01:00:00 -3.26 C 2.57 g/m*3 -3.26 C 0 km/h
2087 15-12-2010 02:00:00 -4.16 C 2.54 g/m*3 -4.16 C 0 km/h
2088 15-12-2010 03:00:00 -4.9 C 2.5 g/m*3 -4.9 C 0 km/h
2089 15-12-2010 04:00:00 -4.86 C 2.54 g/m*3 -4.86 C 0 km/h
2090 15-12-2010 05:00:00 -4.72 C 2.63 g/m*3 -4.72 C 0 km/h
2091 15-12-2010 06:00:00 -3.78 C 2.71 g/m*3 -3.78 C 0 km/h
2092 15-12-2010 07:00:00 -3.42 C 2.81 g/m*3 -3.42 C 0 km/h
2093 15-12-2010 08:00:00 -3.3 C 2.88 g/m*3 -3.3 C 0 km/h
2094 15-12-2010 09:00:00 -2.56 C 3.02 g/m*3 -2.56 C 0 km/h
2095 15-12-2010 10:00:00 -1.76 C 3.22 g/m*3 -1.76 C 0 km/h
2096 15-12-2010 11:00:00 -0.68 C 3.51 g/m*3 -0.68 C 0 km/h
2097 15-12-2010 12:00:00 -0.48 C 3.47 g/m*3 -0.48 C 0 km/h
2098 15-12-2010 13:00:00 -0.38 C 3.56 g/m*3 -0.38 C 0 km/h
2099 15-12-2010 14:00:00 -0.12 C 3.36 g/m*3 -0.12 C 0 km/h
2100 15-12-2010 15:00:00 -1.44 C 2.8 g/m*3 -1.44 C 0 km/h
Sensor: Nr:Datum:Temp:Abs-Feuchte:Windchill:Wind:
Aussen-T/F 2101 15-12-2010 16:00:00 -3.2 C 2.7 g/m*3 -3.2 C 0 km/h
2102 15-12-2010 17:00:00 -4.34 C 2.74 g/m*3 -4.34 C 0 km/h
2103 15-12-2010 18:00:00 -4.86 C 2.77 g/m*3 -4.86 C 0 km/h
2104 15-12-2010 19:00:00 -4.42 C 2.86 g/m*3 -4.42 C 0 km/h
2105 15-12-2010 20:00:00 -3.62 C 2.83 g/m*3 -3.62 C 0 km/h
2106 15-12-2010 21:00:00 -3.18 C 2.77 g/m*3 -3.18 C 0 km/h
2107 15-12-2010 22:00:00 -3.78 C 2.76 g/m*3 -3.78 C 0 km/h
2108 15-12-2010 23:00:00 -4.54 C 2.76 g/m*3 -4.54 C 0 km/h
2109 16-12-2010 00:00:00 -4.68 C 2.85 g/m*3 -4.68 C 0 km/h
2110 16-12-2010 01:00:00 -4.84 C 2.87 g/m*3 -4.84 C 0 km/h
2111 16-12-2010 02:00:00 -5.3 C 2.73 g/m*3 -5.3 C 0 km/h
2112 16-12-2010 03:00:00 -5.36 C 2.75 g/m*3 -5.36 C 0 km/h
2113 16-12-2010 04:00:00 -5.58 C 2.66 g/m*3 -5.58 C 0 km/h
2114 16-12-2010 05:00:00 -6.4 C 2.41 g/m*3 -6.4 C 0 km/h
2115 16-12-2010 06:00:00 -7.54 C 2.25 g/m*3 -7.54 C 0 km/h
2116 16-12-2010 07:00:00 -8.28 C 2.11 g/m*3 -8.28 C 0 km/h
2117 16-12-2010 08:00:00 -7.86 C 2.18 g/m*3 -7.86 C 0 km/h
2118 16-12-2010 09:00:00 -6.6 C 2.26 g/m*3 -6.6 C 0 km/h
2119 16-12-2010 10:00:00 -4.84 C 2.47 g/m*3 -4.84 C 0 km/h
2120 16-12-2010 11:00:00 -3.42 C 2.65 g/m*3 -3.42 C 0 km/h
2121 16-12-2010 12:00:00 -2.84 C 2.8 g/m*3 -2.84 C 0 km/h
2122 16-12-2010 13:00:00 -2.12 C 2.99 g/m*3 -2.12 C 0 km/h
2123 16-12-2010 14:00:00 -1.72 C 3.2 g/m*3 -1.72 C 0 km/h
2124 16-12-2010 15:00:00 -1.4 C 3.45 g/m*3 -1.4 C 0 km/h
2125 16-12-2010 16:00:00 -1.3 C 3.43 g/m*3 -1.3 C 0 km/h
Sensor: Nr:Datum:Temp:Abs-Feuchte:Windchill:Wind:
Aussen-T/F 2126 16-12-2010 17:00:00 -1.26 C 3.47 g/m*3 -1.26 C 0 km/h
2127 16-12-2010 18:00:00 -0.7 C 3.61 g/m*3 -0.7 C 0 km/h
2128 16-12-2010 19:00:00 -0.28 C 3.67 g/m*3 -0.28 C 0 km/h
2129 16-12-2010 20:00:00 0.02 C 3.69 g/m*3 0.02 C 0 km/h
2130 16-12-2010 21:00:00 -0.12 C 3.79 g/m*3 -0.12 C 0 km/h
2131 16-12-2010 22:00:00 -0.34 C 3.88 g/m*3 -0.34 C 0 km/h
2132 16-12-2010 23:00:00 -0.46 C 3.84 g/m*3 -0.46 C 0 km/h
2133 17-12-2010 00:00:00 -0.28 C 3.85 g/m*3 -0.28 C 0 km/h
2134 17-12-2010 01:00:00 -0.34 C 3.88 g/m*3 -0.34 C 0 km/h
2135 17-12-2010 02:00:00 -0.58 C 3.62 g/m*3 -0.58 C 0 km/h
2136 17-12-2010 03:00:00 -1.2 C 3.36 g/m*3 -1.2 C 0 km/h
2137 17-12-2010 04:00:00 -1.28 C 3.16 g/m*3 -1.28 C 0 km/h
2138 17-12-2010 05:00:00 -1.62 C 3.26 g/m*3 -1.62 C 0 km/h
2139 17-12-2010 06:00:00 -2.24 C 2.97 g/m*3 -2.24 C 0 km/h
2140 17-12-2010 07:00:00 -2.28 C 2.65 g/m*3 -2.28 C 0 km/h
2141 17-12-2010 08:00:00 -2.22 C 3 g/m*3 -2.22 C 0 km/h
2142 17-12-2010 09:00:00 -1.92 C 3.01 g/m*3 -1.92 C 0 km/h
2143 17-12-2010 10:00:00 -1.66 C 2.95 g/m*3 -1.66 C 0 km/h
2144 17-12-2010 11:00:00 -1.2 C 2.74 g/m*3 -1.2 C 0 km/h
2145 17-12-2010 12:00:00 -1.14 C 2.52 g/m*3 -1.14 C 0 km/h
2146 17-12-2010 13:00:00 -1.22 C 2.43 g/m*3 -1.22 C 0 km/h
2147 17-12-2010 14:00:00 -1.4 C 2.66 g/m*3 -1.4 C 0 km/h
2148 17-12-2010 15:00:00 -1.82 C 2.98 g/m*3 -1.82 C 0 km/h
2149 17-12-2010 16:00:00 -2.08 C 3 g/m*3 -2.08 C 0 km/h
2150 17-12-2010 17:00:00 -4.06 C 2.8 g/m*3 -4.06 C 0 km/h
Sensor: Nr:Datum:Temp:Abs-Feuchte:Windchill:Wind:
Aussen-T/F 2151 17-12-2010 18:00:00 -5.22 C 2.69 g/m*3 -5.22 C 0 km/h
2152 17-12-2010 19:00:00 -6.48 C 2.51 g/m*3 -6.48 C 0 km/h
2153 17-12-2010 20:00:00 -6.58 C 2.52 g/m*3 -6.58 C 0 km/h
2154 17-12-2010 21:00:00 -6.94 C 2.44 g/m*3 -6.94 C 0 km/h
2155 17-12-2010 22:00:00 -6.92 C 2.44 g/m*3 -6.92 C 0 km/h
2156 17-12-2010 23:00:00 -5.9 C 2.66 g/m*3 -5.9 C 0 km/h
2157 18-12-2010 00:00:00 -4.74 C 2.93 g/m*3 -4.74 C 0 km/h
2158 18-12-2010 01:00:00 -4.44 C 2.9 g/m*3 -4.44 C 0 km/h
2159 18-12-2010 02:00:00 -5.28 C 2.7 g/m*3 -5.28 C 0 km/h
2160 18-12-2010 03:00:00 -4.36 C 2.87 g/m*3 -4.36 C 0 km/h
2161 18-12-2010 04:00:00 -4.36 C 2.94 g/m*3 -4.36 C 0 km/h
2162 18-12-2010 05:00:00 -4.44 C 2.98 g/m*3 -4.44 C 0 km/h
2163 18-12-2010 06:00:00 -4.34 C 3.01 g/m*3 -4.34 C 0 km/h
2164 18-12-2010 07:00:00 -5.26 C 2.81 g/m*3 -5.26 C 0 km/h
2165 18-12-2010 08:00:00 -5.34 C 2.8 g/m*3 -5.34 C 0 km/h
2166 18-12-2010 09:00:00 -4.84 C 2.73 g/m*3 -4.84 C 0 km/h
2167 18-12-2010 10:00:00 -3.82 C 2.68 g/m*3 -3.82 C 0 km/h
2168 18-12-2010 11:00:00 -3.48 C 2.59 g/m*3 -3.48 C 0 km/h
2169 18-12-2010 12:00:00 -3.28 C 2.46 g/m*3 -3.28 C 0 km/h
2170 18-12-2010 13:00:00 -2.96 C 2.36 g/m*3 -2.96 C 0 km/h
2171 18-12-2010 14:00:00 -3.84 C 2.29 g/m*3 -3.84 C 0 km/h
2172 18-12-2010 15:00:00 -5.48 C 2.31 g/m*3 -5.48 C 0 km/h
2173 18-12-2010 16:00:00 -7.06 C 2.27 g/m*3 -7.06 C 0 km/h
2174 18-12-2010 17:00:00 -7.56 C 2.29 g/m*3 -7.56 C 0 km/h
2175 18-12-2010 18:00:00 -6.74 C 2.48 g/m*3 -6.74 C 0 km/h
Sensor: Nr:Datum:Temp:Abs-Feuchte:Windchill:Wind:
Aussen-T/F 2176 18-12-2010 19:00:00 -5.34 C 2.79 g/m*3 -5.34 C 0 km/h
2177 18-12-2010 20:00:00 -4.36 C 2.97 g/m*3 -4.36 C 0 km/h
2178 18-12-2010 21:00:00 -3.98 C 3.05 g/m*3 -3.98 C 0 km/h
2179 18-12-2010 22:00:00 -3.42 C 3.2 g/m*3 -3.42 C 0 km/h
2180 18-12-2010 23:00:00 -3.08 C 3.28 g/m*3 -3.08 C 0 km/h
2181 19-12-2010 00:00:00 -2.56 C 3.41 g/m*3 -2.56 C 0 km/h
2182 19-12-2010 01:00:00 -2.44 C 3.53 g/m*3 -2.44 C 0 km/h
2183 19-12-2010 02:00:00 -2.5 C 3.54 g/m*3 -2.5 C 0 km/h
2184 19-12-2010 03:00:00 -2.7 C 3.49 g/m*3 -2.7 C 0 km/h
2185 19-12-2010 04:00:00 -2.46 C 3.55 g/m*3 -2.46 C 0 km/h
2186 19-12-2010 05:00:00 -1.02 C 3.67 g/m*3 -1.02 C 0 km/h
2187 19-12-2010 06:00:00 -1.64 C 3.24 g/m*3 -1.64 C 0 km/h
2188 19-12-2010 07:00:00 -2.58 C 3.19 g/m*3 -2.58 C 0 km/h
2189 19-12-2010 08:00:00 -2.5 C 3.2 g/m*3 -2.5 C 0 km/h
2190 19-12-2010 09:00:00 -2.04 C 3.37 g/m*3 -2.04 C 0 km/h
2191 19-12-2010 10:00:00 -0.94 C 3.41 g/m*3 -0.94 C 0 km/h
2192 19-12-2010 11:00:00 -0.38 C 3.56 g/m*3 -0.38 C 0 km/h
2193 19-12-2010 12:00:00 0.3 C 3.6 g/m*3 0.3 C 0 km/h
2194 19-12-2010 13:00:00 0.14 C 3.71 g/m*3 0.14 C 0 km/h
2195 19-12-2010 14:00:00 -0.18 C 3.94 g/m*3 -0.18 C 0 km/h
2196 19-12-2010 15:00:00 -0.4 C 4.08 g/m*3 -0.4 C 0 km/h
2197 19-12-2010 16:00:00 -0.3 C 4.23 g/m*3 -0.3 C 0 km/h
2198 19-12-2010 17:00:00 -0.2 C 4.33 g/m*3 -0.2 C 0 km/h
2199 19-12-2010 18:00:00 -0.18 C 4.36 g/m*3 -0.18 C 0 km/h
2200 19-12-2010 19:00:00 -0.04 C 4.45 g/m*3 -0.04 C 0 km/h
Sensor: Nr:Datum:Temp:Abs-Feuchte:Windchill:Wind:
Aussen-T/F 2201 19-12-2010 20:00:00 0.08 C 4.49 g/m*3 0.08 C 0 km/h
2202 19-12-2010 21:00:00 1.1 C 4.84 g/m*3 1.1 C 0 km/h
2203 19-12-2010 22:00:00 1.92 C 5.06 g/m*3 1.92 C 0 km/h
2204 19-12-2010 23:00:00 4.42 C 5.05 g/m*3 4.42 C 0 km/h
2205 20-12-2010 00:00:00 4.02 C 4.62 g/m*3 4.02 C 0 km/h
2206 20-12-2010 01:00:00 1.68 C 4.43 g/m*3 1.68 C 0 km/h
2207 20-12-2010 02:00:00 0.42 C 3.7 g/m*3 0.42 C 0 km/h
2208 20-12-2010 03:00:00 -0.08 C 3.63 g/m*3 -0.08 C 0 km/h
2209 20-12-2010 04:00:00 -0.44 C 3.67 g/m*3 -0.44 C 0 km/h
2210 20-12-2010 05:00:00 -1.02 C 3.56 g/m*3 -1.02 C 0 km/h
2211 20-12-2010 06:00:00 -1.66 C 3.46 g/m*3 -1.66 C 0 km/h
2212 20-12-2010 07:00:00 -2.6 C 3.38 g/m*3 -2.6 C 0 km/h
2213 20-12-2010 08:00:00 -2.42 C 3.54 g/m*3 -2.42 C 0 km/h
2214 20-12-2010 09:00:00 -1.8 C 3.59 g/m*3 -1.8 C 0 km/h
2215 20-12-2010 10:00:00 -1.22 C 3.33 g/m*3 -1.22 C 0 km/h
2216 20-12-2010 11:00:00 -0.8 C 3.28 g/m*3 -0.8 C 0 km/h
2217 20-12-2010 12:00:00 -1.06 C 3.27 g/m*3 -1.06 C 0 km/h
2218 20-12-2010 13:00:00 -0.92 C 3.28 g/m*3 -0.92 C 0 km/h
2219 20-12-2010 14:00:00 -0.98 C 3.26 g/m*3 -0.98 C 0 km/h
2220 20-12-2010 15:00:00 -1.08 C 3.26 g/m*3 -1.08 C 0 km/h
2221 20-12-2010 16:00:00 -3.04 C 3.05 g/m*3 -3.04 C 0 km/h
2222 20-12-2010 17:00:00 -3.52 C 3.23 g/m*3 -3.52 C 0 km/h
2223 20-12-2010 18:00:00 -3.04 C 3.42 g/m*3 -3.04 C 0 km/h
2224 20-12-2010 19:00:00 -3 C 3.45 g/m*3 -3 C 0 km/h
2225 20-12-2010 20:00:00 -2.92 C 3.48 g/m*3 -2.92 C 0 km/h
Sensor: Nr:Datum:Temp:Abs-Feuchte:Windchill:Wind:
Aussen-T/F 2226 20-12-2010 21:00:00 -3.64 C 3.26 g/m*3 -3.64 C 0 km/h
2227 20-12-2010 22:00:00 -4.3 C 3.11 g/m*3 -4.3 C 0 km/h
2228 20-12-2010 23:00:00 -3.46 C 3.37 g/m*3 -3.46 C 0 km/h
2229 21-12-2010 00:00:00 -3.62 C 3.33 g/m*3 -3.62 C 0 km/h
2230 21-12-2010 01:00:00 -2.88 C 3.53 g/m*3 -2.88 C 0 km/h
2231 21-12-2010 02:00:00 -2.6 C 3.6 g/m*3 -2.6 C 0 km/h
2232 21-12-2010 03:00:00 -2.54 C 3.57 g/m*3 -2.54 C 0 km/h
2233 21-12-2010 04:00:00 -2.14 C 3.67 g/m*3 -2.14 C 0 km/h
2234 21-12-2010 05:00:00 -1.88 C 3.76 g/m*3 -1.88 C 0 km/h
2235 21-12-2010 06:00:00 -1.78 C 3.81 g/m*3 -1.78 C 0 km/h
2236 21-12-2010 07:00:00 -1.7 C 3.83 g/m*3 -1.7 C 0 km/h
2237 21-12-2010 08:00:00 -1.64 C 3.85 g/m*3 -1.64 C 0 km/h
2238 21-12-2010 09:00:00 -1.24 C 3.91 g/m*3 -1.24 C 0 km/h
2239 21-12-2010 10:00:00 -0.6 C 3.91 g/m*3 -0.6 C 0 km/h
2240 21-12-2010 11:00:00 0.5 C 3.98 g/m*3 0.5 C 0 km/h
2241 21-12-2010 12:00:00 1.14 C 3.97 g/m*3 1.14 C 0 km/h
2242 21-12-2010 13:00:00 1.44 C 4.12 g/m*3 1.44 C 0 km/h
2243 21-12-2010 14:00:00 1.24 C 4.06 g/m*3 1.24 C 0 km/h
2244 21-12-2010 15:00:00 1.18 C 4.18 g/m*3 1.18 C 0 km/h
2245 21-12-2010 16:00:00 0.58 C 4.2 g/m*3 0.58 C 0 km/h
2246 21-12-2010 17:00:00 0.16 C 4.28 g/m*3 0.16 C 0 km/h
2247 21-12-2010 18:00:00 0.18 C 4.38 g/m*3 0.18 C 0 km/h
2248 21-12-2010 19:00:00 0.12 C 4.4 g/m*3 0.12 C 0 km/h
2249 21-12-2010 20:00:00 0.12 C 4.4 g/m*3 0.12 C 0 km/h
2250 21-12-2010 21:00:00 0.12 C 4.45 g/m*3 0.12 C 0 km/h
Sensor: Nr:Datum:Temp:Abs-Feuchte:Windchill:Wind:
Aussen-T/F 2251 21-12-2010 22:00:00 0.15 C 4.45 g/m*3 0.15 C 0 km/h
2252 21-12-2010 23:00:00 0.12 C 4.45 g/m*3 0.12 C 0 km/h
2253 22-12-2010 00:00:00 0.1 C 4.48 g/m*3 0.1 C 0 km/h
2254 22-12-2010 01:00:00 0.16 C 4.51 g/m*3 0.16 C 0 km/h
2255 22-12-2010 02:00:00 0.2 C 4.52 g/m*3 0.2 C 0 km/h
2256 22-12-2010 03:00:00 0.16 C 4.51 g/m*3 0.16 C 0 km/h
2257 22-12-2010 04:00:00 0.28 C 4.54 g/m*3 0.28 C 0 km/h
2258 22-12-2010 05:00:00 0.3 C 4.55 g/m*3 0.3 C 0 km/h
2259 22-12-2010 06:00:00 0.3 C 4.55 g/m*3 0.3 C 0 km/h
2260 22-12-2010 07:00:00 0.3 C 4.57 g/m*3 0.3 C 0 km/h
2261 22-12-2010 08:00:00 0.34 C 4.61 g/m*3 0.34 C 0 km/h
2262 22-12-2010 09:00:00 0.7 C 4.73 g/m*3 0.7 C 0 km/h
2263 22-12-2010 10:00:00 1.38 C 4.9 g/m*3 1.38 C 0 km/h
2264 22-12-2010 11:00:00 2.3 C 5.02 g/m*3 2.3 C 0 km/h
2265 22-12-2010 12:00:00 2.76 C 4.89 g/m*3 2.76 C 0 km/h
2266 22-12-2010 13:00:00 2.38 C 4.73 g/m*3 2.38 C 0 km/h
2267 22-12-2010 14:00:00 2.4 C 4.76 g/m*3 2.4 C 0 km/h
2268 22-12-2010 15:00:00 1.66 C 4.59 g/m*3 1.66 C 0 km/h
2269 22-12-2010 16:00:00 1.16 C 4.6 g/m*3 1.16 C 0 km/h
2270 22-12-2010 17:00:00 0.8 C 4.6 g/m*3 0.8 C 0 km/h
2271 22-12-2010 18:00:00 0.7 C 4.63 g/m*3 0.7 C 0 km/h
2272 22-12-2010 19:00:00 0.78 C 4.7 g/m*3 0.78 C 0 km/h
2273 22-12-2010 20:00:00 0.78 C 4.7 g/m*3 0.78 C 0 km/h
2274 22-12-2010 21:00:00 0.8 C 4.71 g/m*3 0.8 C 0 km/h
2275 22-12-2010 22:00:00 0.7 C 4.68 g/m*3 0.7 C 0 km/h
Sensor: Nr:Datum:Temp:Abs-Feuchte:Windchill:Wind:
Aussen-T/F 2276 22-12-2010 23:00:00 0.7 C 4.68 g/m*3 0.7 C 0 km/h
2277 23-12-2010 00:00:00 0.76 C 4.74 g/m*3 0.76 C 0 km/h
2278 23-12-2010 01:00:00 0.7 C 4.73 g/m*3 0.7 C 0 km/h
2279 23-12-2010 02:00:00 0.7 C 4.73 g/m*3 0.7 C 0 km/h
2280 23-12-2010 03:00:00 0.7 C 4.73 g/m*3 0.7 C 0 km/h
2281 23-12-2010 04:00:00 0.66 C 4.72 g/m*3 0.66 C 0 km/h
2282 23-12-2010 05:00:00 0.48 C 4.66 g/m*3 0.48 C 0 km/h
2283 23-12-2010 06:00:00 0.34 C 4.61 g/m*3 0.34 C 0 km/h
2284 23-12-2010 07:00:00 0 C 4.51 g/m*3 0 C 0 km/h
2285 23-12-2010 08:00:00 -0.32 C 4.39 g/m*3 -0.32 C 0 km/h
2286 23-12-2010 09:00:00 -0.5 C 4.31 g/m*3 -0.5 C 0 km/h
2287 23-12-2010 10:00:00 -0.54 C 4.27 g/m*3 -0.54 C 0 km/h
2288 23-12-2010 11:00:00 -0.58 C 4.19 g/m*3 -0.58 C 0 km/h
2289 23-12-2010 12:00:00 -0.68 C 4.06 g/m*3 -0.68 C 0 km/h
2290 23-12-2010 13:00:00 -0.66 C 4 g/m*3 -0.66 C 0 km/h
2291 23-12-2010 14:00:00 -0.62 C 3.99 g/m*3 -0.62 C 0 km/h
2292 23-12-2010 15:00:00 -0.86 C 3.93 g/m*3 -0.86 C 0 km/h
2293 23-12-2010 16:00:00 -0.9 C 3.96 g/m*3 -0.9 C 0 km/h
2294 23-12-2010 17:00:00 -1.02 C 3.93 g/m*3 -1.02 C 0 km/h
2295 23-12-2010 18:00:00 -1.14 C 3.89 g/m*3 -1.14 C 0 km/h
2296 23-12-2010 19:00:00 -1.26 C 3.84 g/m*3 -1.26 C 0 km/h
2297 23-12-2010 20:00:00 -1.26 C 3.84 g/m*3 -1.26 C 0 km/h
2298 23-12-2010 21:00:00 -1.1 C 3.86 g/m*3 -1.1 C 0 km/h
2299 23-12-2010 22:00:00 -0.94 C 3.92 g/m*3 -0.94 C 0 km/h
2300 23-12-2010 23:00:00 -0.8 C 3.98 g/m*3 -0.8 C 0 km/h
Sensor: Nr:Datum:Temp:Abs-Feuchte:Windchill:Wind:
Aussen-T/F 2301 24-12-2010 00:00:00 -0.9 C 3.91 g/m*3 -0.9 C 0 km/h
2302 24-12-2010 01:00:00 -0.74 C 3.98 g/m*3 -0.74 C 0 km/h
2303 24-12-2010 02:00:00 -0.5 C 4.03 g/m*3 -0.5 C 0 km/h
2304 24-12-2010 03:00:00 -0.48 C 4.03 g/m*3 -0.48 C 0 km/h
2305 24-12-2010 04:00:00 -0.5 C 4.03 g/m*3 -0.5 C 0 km/h
2306 24-12-2010 05:00:00 -0.74 C 3.91 g/m*3 -0.74 C 0 km/h
2307 24-12-2010 06:00:00 -0.96 C 3.79 g/m*3 -0.96 C 0 km/h
2308 24-12-2010 07:00:00 -1.2 C 3.64 g/m*3 -1.2 C 0 km/h
2309 24-12-2010 08:00:00 -1.48 C 3.64 g/m*3 -1.48 C 0 km/h
2310 24-12-2010 09:00:00 -1.7 C 3.66 g/m*3 -1.7 C 0 km/h
2311 24-12-2010 10:00:00 -1.54 C 3.68 g/m*3 -1.54 C 0 km/h
2312 24-12-2010 11:00:00 -1.32 C 3.67 g/m*3 -1.32 C 0 km/h
2313 24-12-2010 12:00:00 -1.34 C 3.58 g/m*3 -1.34 C 0 km/h
2314 24-12-2010 13:00:00 -1.38 C 3.52 g/m*3 -1.38 C 0 km/h
2315 24-12-2010 14:00:00 -1.4 C 3.52 g/m*3 -1.4 C 0 km/h
2316 24-12-2010 15:00:00 -1.84 C 3.46 g/m*3 -1.84 C 0 km/h
2317 24-12-2010 16:00:00 -2.42 C 3.35 g/m*3 -2.42 C 0 km/h
2318 24-12-2010 17:00:00 -2.56 C 3.22 g/m*3 -2.56 C 0 km/h
2319 24-12-2010 18:00:00 -2.8 C 3.23 g/m*3 -2.8 C 0 km/h
2320 24-12-2010 19:00:00 -2.94 C 3.13 g/m*3 -2.94 C 0 km/h
2321 24-12-2010 20:00:00 -3.02 C 3.11 g/m*3 -3.02 C 0 km/h
2322 24-12-2010 21:00:00 -3.23333 C 3.06 g/m*3 -3.23 C 0 km/h
2323 24-12-2010 22:00:00 -3.56 C 3.02 g/m*3 -3.56 C 0 km/h
2324 24-12-2010 23:00:00 -3.74 C 2.98 g/m*3 -3.74 C 0 km/h
2325 25-12-2010 00:00:00 -3.82 C 2.94 g/m*3 -3.82 C 0 km/h
Sensor: Nr:Datum:Temp:Abs-Feuchte:Windchill:Wind:
Aussen-T/F 2326 25-12-2010 01:00:00 -3.92 C 2.88 g/m*3 -3.92 C 0 km/h
2327 25-12-2010 02:00:00 -4.08 C 2.87 g/m*3 -4.08 C 0 km/h
2328 25-12-2010 03:00:00 -4.16 C 2.81 g/m*3 -4.16 C 0 km/h
2329 25-12-2010 04:00:00 -4.26 C 2.68 g/m*3 -4.26 C 0 km/h
2330 25-12-2010 05:00:00 -4.46 C 2.58 g/m*3 -4.46 C 0 km/h
2331 25-12-2010 06:00:00 -4.62 C 2.51 g/m*3 -4.62 C 0 km/h
2332 25-12-2010 07:00:00 -4.72 C 2.45 g/m*3 -4.72 C 0 km/h
2333 25-12-2010 08:00:00 -4.8 C 2.47 g/m*3 -4.8 C 0 km/h
2334 25-12-2010 09:00:00 -4.82 C 2.44 g/m*3 -4.82 C 0 km/h
2335 25-12-2010 10:00:00 -4.58 C 2.36 g/m*3 -4.58 C 0 km/h
2336 25-12-2010 11:00:00 -4.5 C 2.18 g/m*3 -4.5 C 0 km/h
2337 25-12-2010 12:00:00 -4.98 C 2.07 g/m*3 -4.98 C 0 km/h
2338 25-12-2010 13:00:00 -4.72 C 2.18 g/m*3 -4.72 C 0 km/h
2339 25-12-2010 14:00:00 -4.92 C 2.1 g/m*3 -4.92 C 0 km/h
2340 25-12-2010 15:00:00 -5.54 C 2.09 g/m*3 -5.54 C 0 km/h
2341 25-12-2010 16:00:00 -6.82 C 2.12 g/m*3 -6.82 C 0 km/h
2342 25-12-2010 17:00:00 -7.52 C 2.13 g/m*3 -7.52 C 0 km/h
2343 25-12-2010 18:00:00 -7.46 C 2.17 g/m*3 -7.46 C 0 km/h
2344 25-12-2010 19:00:00 -7.4 C 2.17 g/m*3 -7.4 C 0 km/h
2345 25-12-2010 20:00:00 -8.34 C 2.11 g/m*3 -8.34 C 0 km/h
2346 25-12-2010 21:00:00 -7.4 C 2.32 g/m*3 -7.4 C 0 km/h
2347 25-12-2010 22:00:00 -6.8 C 2.31 g/m*3 -6.8 C 0 km/h
2348 25-12-2010 23:00:00 -6.82 C 2.18 g/m*3 -6.82 C 0 km/h
2349 26-12-2010 00:00:00 -7.08 C 2.12 g/m*3 -7.08 C 0 km/h
2350 26-12-2010 01:00:00 -8 C 1.99 g/m*3 -8 C 0 km/h
Sensor: Nr:Datum:Temp:Abs-Feuchte:Windchill:Wind:
Aussen-T/F 2351 26-12-2010 02:00:00 -8.78 C 1.88 g/m*3 -8.78 C 0 km/h
2352 26-12-2010 03:00:00 -9.04 C 1.82 g/m*3 -9.04 C 0 km/h
2353 26-12-2010 04:00:00 -9.04 C 1.85 g/m*3 -9.04 C 0 km/h
2354 26-12-2010 05:00:00 -8.44 C 1.94 g/m*3 -8.44 C 0 km/h
2355 26-12-2010 06:00:00 -7.24 C 2.11 g/m*3 -7.24 C 0 km/h
2356 26-12-2010 07:00:00 -6.34 C 2.24 g/m*3 -6.34 C 0 km/h
2357 26-12-2010 08:00:00 -5.84 C 2.36 g/m*3 -5.84 C 0 km/h
2358 26-12-2010 09:00:00 -4.88 C 2.6 g/m*3 -4.88 C 0 km/h
2359 26-12-2010 10:00:00 -4.24 C 2.68 g/m*3 -4.24 C 0 km/h
2360 26-12-2010 11:00:00 -3.52 C 2.69 g/m*3 -3.52 C 0 km/h
2361 26-12-2010 12:00:00 -3.14 C 2.78 g/m*3 -3.14 C 0 km/h
2362 26-12-2010 13:00:00 -2.72 C 2.85 g/m*3 -2.72 C 0 km/h
2363 26-12-2010 14:00:00 -2.66 C 3 g/m*3 -2.66 C 0 km/h
2364 26-12-2010 15:00:00 -2.72 C 3.13 g/m*3 -2.72 C 0 km/h
2365 26-12-2010 16:00:00 -2.86 C 3.16 g/m*3 -2.86 C 0 km/h
2366 26-12-2010 17:00:00 -2.82 C 3.17 g/m*3 -2.82 C 0 km/h
2367 26-12-2010 18:00:00 -2.9 C 3.17 g/m*3 -2.9 C 0 km/h
2368 26-12-2010 19:00:00 -2.72 C 3.18 g/m*3 -2.72 C 0 km/h
2369 26-12-2010 20:00:00 -3.04 C 3.16 g/m*3 -3.04 C 0 km/h
2370 26-12-2010 21:00:00 -3.3 C 3.08 g/m*3 -3.3 C 0 km/h
2371 26-12-2010 22:00:00 -3.04 C 3.13 g/m*3 -3.04 C 0 km/h
2372 26-12-2010 23:00:00 -2.72 C 3.18 g/m*3 -2.72 C 0 km/h
2373 27-12-2010 00:00:00 -2.64 C 3.22 g/m*3 -2.64 C 0 km/h
2374 27-12-2010 01:00:00 -1.92 C 3.31 g/m*3 -1.92 C 0 km/h
2375 27-12-2010 02:00:00 -1.6 C 3.35 g/m*3 -1.6 C 0 km/h
Sensor: Nr:Datum:Temp:Abs-Feuchte:Windchill:Wind:
Aussen-T/F 2376 27-12-2010 03:00:00 -1.38 C 3.41 g/m*3 -1.38 C 0 km/h
2377 27-12-2010 04:00:00 -1.3 C 3.36 g/m*3 -1.3 C 0 km/h
2378 27-12-2010 05:00:00 -1.32 C 3.37 g/m*3 -1.32 C 0 km/h
2379 27-12-2010 06:00:00 -1.44 C 3.38 g/m*3 -1.44 C 0 km/h
2380 27-12-2010 07:00:00 -1.62 C 3.33 g/m*3 -1.62 C 0 km/h
2381 27-12-2010 08:00:00 -1.86 C 3.29 g/m*3 -1.86 C 0 km/h
2382 27-12-2010 09:00:00 -1.78 C 3.24 g/m*3 -1.78 C 0 km/h
2383 27-12-2010 10:00:00 -1.42 C 3.27 g/m*3 -1.42 C 0 km/h
2384 27-12-2010 11:00:00 -1.16 C 3.26 g/m*3 -1.16 C 0 km/h
2385 27-12-2010 12:00:00 -1.02 C 3.22 g/m*3 -1.02 C 0 km/h
2386 27-12-2010 13:00:00 -0.88 C 3.29 g/m*3 -0.88 C 0 km/h
2387 27-12-2010 14:00:00 -1.04 C 3.27 g/m*3 -1.04 C 0 km/h
2388 27-12-2010 15:00:00 -1.3 C 3.33 g/m*3 -1.3 C 0 km/h
2389 27-12-2010 16:00:00 -2.3 C 3.25 g/m*3 -2.3 C 0 km/h
2390 27-12-2010 17:00:00 -3.16 C 3.25 g/m*3 -3.16 C 0 km/h
2391 27-12-2010 18:00:00 -3.18 C 3.34 g/m*3 -3.18 C 0 km/h
2392 27-12-2010 19:00:00 -3.74 C 3.21 g/m*3 -3.74 C 0 km/h
2393 27-12-2010 20:00:00 -4.3 C 3.12 g/m*3 -4.3 C 0 km/h
2394 27-12-2010 21:00:00 -4.4 C 3.1 g/m*3 -4.4 C 0 km/h
2395 27-12-2010 22:00:00 -4.14 C 3.16 g/m*3 -4.14 C 0 km/h
2396 27-12-2010 23:00:00 -4.34 C 3.11 g/m*3 -4.34 C 0 km/h
2397 28-12-2010 00:00:00 -4.46 C 3.08 g/m*3 -4.46 C 0 km/h
2398 28-12-2010 01:00:00 -4.3 C 3.12 g/m*3 -4.3 C 0 km/h
2399 28-12-2010 02:00:00 -4.16 C 3.15 g/m*3 -4.16 C 0 km/h
2400 28-12-2010 03:00:00 -4.36 C 3.08 g/m*3 -4.36 C 0 km/h
Sensor: Nr:Datum:Temp:Abs-Feuchte:Windchill:Wind:
Aussen-T/F 2401 28-12-2010 04:00:00 -4.16 C 3.15 g/m*3 -4.16 C 0 km/h
2402 28-12-2010 05:00:00 -3.78 C 3.23 g/m*3 -3.78 C 0 km/h
2403 28-12-2010 06:00:00 -3.74 C 3.24 g/m*3 -3.74 C 0 km/h
2404 28-12-2010 07:00:00 -3.72 C 3.22 g/m*3 -3.72 C 0 km/h
2405 28-12-2010 08:00:00 -3.56 C 3.25 g/m*3 -3.56 C 0 km/h
2406 28-12-2010 09:00:00 -2.68 C 3.44 g/m*3 -2.68 C 0 km/h
2407 28-12-2010 10:00:00 -1.12 C 3.61 g/m*3 -1.12 C 0 km/h
2408 28-12-2010 11:00:00 -0.54 C 3.46 g/m*3 -0.54 C 0 km/h
2409 28-12-2010 12:00:00 0.3 C 3.31 g/m*3 0.3 C 0 km/h
2410 28-12-2010 13:00:00 0.36 C 3.32 g/m*3 0.36 C 0 km/h
2411 28-12-2010 14:00:00 0 C 3.33 g/m*3 0 C 0 km/h
2412 28-12-2010 15:00:00 -0.54 C 3.42 g/m*3 -0.54 C 0 km/h
2413 28-12-2010 16:00:00 -0.68 C 3.39 g/m*3 -0.68 C 0 km/h
2414 28-12-2010 17:00:00 -0.7 C 3.42 g/m*3 -0.7 C 0 km/h
2415 28-12-2010 18:00:00 -0.88 C 3.38 g/m*3 -0.88 C 0 km/h
2416 28-12-2010 19:00:00 -1.2 C 3.45 g/m*3 -1.2 C 0 km/h
2417 28-12-2010 20:00:00 -1.4 C 3.43 g/m*3 -1.4 C 0 km/h
2418 28-12-2010 21:00:00 -1.86 C 3.4 g/m*3 -1.86 C 0 km/h
2419 28-12-2010 22:00:00 -1.275 C 3.59 g/m*3 -1.27 C 0 km/h
2420 28-12-2010 23:00:00 -1.28 C 3.58 g/m*3 -1.28 C 0 km/h
2421 29-12-2010 00:00:00 -1.32 C 3.56 g/m*3 -1.32 C 0 km/h
2422 29-12-2010 01:00:00 -1.3 C 3.62 g/m*3 -1.3 C 0 km/h
2423 29-12-2010 02:00:00 -1.3 C 3.64 g/m*3 -1.3 C 0 km/h
2424 29-12-2010 03:00:00 -1.22 C 3.68 g/m*3 -1.22 C 0 km/h
2425 29-12-2010 04:00:00 -1.28 C 3.66 g/m*3 -1.28 C 0 km/h
Sensor: Nr:Datum:Temp:Abs-Feuchte:Windchill:Wind:
Aussen-T/F 2426 29-12-2010 05:00:00 -1.3 C 3.67 g/m*3 -1.3 C 0 km/h
2427 29-12-2010 06:00:00 -1.2 C 3.73 g/m*3 -1.2 C 0 km/h
2428 29-12-2010 07:00:00 -1.1 C 3.79 g/m*3 -1.1 C 0 km/h
2429 29-12-2010 08:00:00 -1.1 C 3.83 g/m*3 -1.1 C 0 km/h
2430 29-12-2010 09:00:00 -0.74 C 3.88 g/m*3 -0.74 C 0 km/h
2431 29-12-2010 10:00:00 0.14 C 3.75 g/m*3 0.14 C 0 km/h
2432 29-12-2010 11:00:00 0.58 C 3.6 g/m*3 0.58 C 0 km/h
2433 29-12-2010 12:00:00 0.88 C 3.58 g/m*3 0.88 C 0 km/h
2434 29-12-2010 13:00:00 1.34 C 3.61 g/m*3 1.34 C 0 km/h
2435 29-12-2010 14:00:00 1.76 C 3.66 g/m*3 1.76 C 0 km/h
2436 29-12-2010 15:00:00 1.18 C 3.73 g/m*3 1.18 C 0 km/h
2437 29-12-2010 16:00:00 0.62 C 3.85 g/m*3 0.62 C 0 km/h
2438 29-12-2010 17:00:00 0.28 C 3.85 g/m*3 0.28 C 0 km/h
2439 29-12-2010 18:00:00 0.14 C 3.89 g/m*3 0.14 C 0 km/h
2440 29-12-2010 19:00:00 0.06 C 3.97 g/m*3 0.06 C 0 km/h
2441 29-12-2010 20:00:00 -0.04 C 3.96 g/m*3 -0.04 C 0 km/h
2442 29-12-2010 21:00:00 -0.18 C 3.92 g/m*3 -0.18 C 0 km/h
2443 29-12-2010 22:00:00 -0.32 C 3.84 g/m*3 -0.32 C 0 km/h
2444 29-12-2010 23:00:00 -0.7 C 3.79 g/m*3 -0.7 C 0 km/h
2445 30-12-2010 00:00:00 -0.925 C 3.79 g/m*3 -0.93 C 0 km/h
2446 30-12-2010 01:00:00 -1.32 C 3.7 g/m*3 -1.32 C 0 km/h
2447 30-12-2010 02:00:00 -1.46 C 3.75 g/m*3 -1.46 C 0 km/h
2448 30-12-2010 03:00:00 -1.14 C 3.85 g/m*3 -1.14 C 0 km/h
2449 30-12-2010 04:00:00 -1.14 C 3.76 g/m*3 -1.14 C 0 km/h
2450 30-12-2010 05:00:00 -2.82 C 3.25 g/m*3 -2.82 C 0 km/h
Sensor: Nr:Datum:Temp:Abs-Feuchte:Windchill:Wind:
Aussen-T/F 2451 30-12-2010 06:00:00 -1.24 C 3.53 g/m*3 -1.24 C 0 km/h
2452 30-12-2010 07:00:00 -1.34 C 3.44 g/m*3 -1.34 C 0 km/h
2453 30-12-2010 08:00:00 -1.4 C 3.45 g/m*3 -1.4 C 0 km/h
2454 30-12-2010 09:00:00 -1.1 C 3.47 g/m*3 -1.1 C 0 km/h
2455 30-12-2010 10:00:00 -0.45 C 3.46 g/m*3 -0.45 C 0 km/h
2456 30-12-2010 11:00:00 0.08 C 3.53 g/m*3 0.08 C 0 km/h
2457 30-12-2010 12:00:00 0.6 C 3.59 g/m*3 0.6 C 0 km/h
2458 30-12-2010 13:00:00 1.2 C 3.59 g/m*3 1.2 C 0 km/h
2459 30-12-2010 14:00:00 1.32 C 3.61 g/m*3 1.32 C 0 km/h
2460 30-12-2010 15:00:00 0.98 C 3.67 g/m*3 0.98 C 0 km/h
2461 30-12-2010 16:00:00 0.3 C 3.73 g/m*3 0.3 C 0 km/h
2462 30-12-2010 17:00:00 0.04 C 3.74 g/m*3 0.04 C 0 km/h
2463 30-12-2010 18:00:00 -0.3 C 3.68 g/m*3 -0.3 C 0 km/h
2464 30-12-2010 19:00:00 -0.44 C 3.75 g/m*3 -0.44 C 0 km/h
2465 30-12-2010 20:00:00 -0.48 C 3.71 g/m*3 -0.48 C 0 km/h
2466 30-12-2010 21:00:00 -0.6 C 3.63 g/m*3 -0.6 C 0 km/h
2467 30-12-2010 22:00:00 -0.78 C 3.59 g/m*3 -0.78 C 0 km/h
2468 30-12-2010 23:00:00 -0.96 C 3.51 g/m*3 -0.96 C 0 km/h
2469 31-12-2010 00:00:00 -1.1 C 3.49 g/m*3 -1.1 C 0 km/h
2470 31-12-2010 01:00:00 -1.14 C 3.54 g/m*3 -1.14 C 0 km/h
2471 31-12-2010 02:00:00 -1.34 C 3.49 g/m*3 -1.34 C 0 km/h
2472 31-12-2010 03:00:00 -1.76 C 3.4 g/m*3 -1.76 C 0 km/h
2473 31-12-2010 04:00:00 -1.98 C 3.38 g/m*3 -1.98 C 0 km/h
2474 31-12-2010 05:00:00 -2.12 C 3.34 g/m*3 -2.12 C 0 km/h
2475 31-12-2010 06:00:00 -2.26 C 3.29 g/m*3 -2.26 C 0 km/h
Sensor: Nr:Datum:Temp:Abs-Feuchte:Windchill:Wind:
Aussen-T/F 2476 31-12-2010 07:00:00 -2.12 C 3.36 g/m*3 -2.12 C 0 km/h
2477 31-12-2010 08:00:00 -2.12 C 3.39 g/m*3 -2.12 C 0 km/h
2478 31-12-2010 09:00:00 -2.18 C 3.35 g/m*3 -2.18 C 0 km/h
2479 31-12-2010 10:00:00 -1.9 C 3.35 g/m*3 -1.9 C 0 km/h
2480 31-12-2010 11:00:00 -1.22 C 3.38 g/m*3 -1.22 C 0 km/h
2481 31-12-2010 12:00:00 -0.92 C 3.41 g/m*3 -0.92 C 0 km/h
2482 31-12-2010 13:00:00 -0.18 C 3.46 g/m*3 -0.18 C 0 km/h
2483 31-12-2010 14:00:00 0.24 C 3.37 g/m*3 0.24 C 0 km/h
2484 31-12-2010 15:00:00 -0.34 C 3.43 g/m*3 -0.34 C 0 km/h
2485 31-12-2010 16:00:00 -0.56 C 3.52 g/m*3 -0.56 C 0 km/h
2486 31-12-2010 17:00:00 -0.6 C 3.63 g/m*3 -0.6 C 0 km/h
2487 31-12-2010 18:00:00 -0.54 C 3.76 g/m*3 -0.54 C 0 km/h
2488 31-12-2010 19:00:00 -0.6 C 3.82 g/m*3 -0.6 C 0 km/h
2489 31-12-2010 20:00:00 -0.64 C 3.94 g/m*3 -0.64 C 0 km/h
2490 31-12-2010 21:00:00 -0.58 C 4.02 g/m*3 -0.58 C 0 km/h
2491 31-12-2010 22:00:00 -0.38 C 4.11 g/m*3 -0.38 C 0 km/h
2492 31-12-2010 23:00:00 -0.325 C 4.12 g/m*3 -0.33 C 0 km/h
2493 01-01-2011 00:00:00 -0.32 C 4.12 g/m*3 -0.32 C 0 km/h
2494 01-01-2011 01:00:00 -0.28 C 4.18 g/m*3 -0.28 C 0 km/h
2495 01-01-2011 02:00:00 -0.14 C 4.22 g/m*3 -0.14 C 0 km/h
2496 01-01-2011 03:00:00 -0.13333 C 4.22 g/m*3 -0.13 C 0 km/h
2497 01-01-2011 04:00:00 -0.2 C 4.21 g/m*3 -0.2 C 0 km/h
2498 01-01-2011 05:00:00 -0.02 C 4.3 g/m*3 -0.02 C 0 km/h
2499 01-01-2011 06:00:00 0.36 C 4.29 g/m*3 0.36 C 0 km/h
2500 01-01-2011 07:00:00 0.5 C 4.25 g/m*3 0.5 C 0 km/h
Sensor: Nr:Datum:Temp:Abs-Feuchte:Windchill:Wind:
Aussen-T/F 2501 01-01-2011 08:00:00 0.82 C 4.3 g/m*3 0.82 C 0 km/h
2502 01-01-2011 09:00:00 1.08 C 4.38 g/m*3 1.08 C 0 km/h
2503 01-01-2011 10:00:00 1.36 C 4.59 g/m*3 1.36 C 0 km/h
2504 01-01-2011 11:00:00 1.94 C 4.68 g/m*3 1.94 C 0 km/h
2505 01-01-2011 12:00:00 2.44 C 4.63 g/m*3 2.44 C 0 km/h
2506 01-01-2011 13:00:00 2.92 C 4.62 g/m*3 2.92 C 0 km/h
2507 01-01-2011 14:00:00 2.54 C 4.63 g/m*3 2.54 C 0 km/h
2508 01-01-2011 15:00:00 2.02 C 4.64 g/m*3 2.02 C 0 km/h
2509 01-01-2011 16:00:00 1.58 C 4.73 g/m*3 1.58 C 0 km/h
2510 01-01-2011 17:00:00 1.34 C 4.75 g/m*3 1.34 C 0 km/h
2511 01-01-2011 18:00:00 1.46 C 4.87 g/m*3 1.46 C 0 km/h
2512 01-01-2011 19:00:00 1.96 C 5.05 g/m*3 1.96 C 0 km/h
2513 01-01-2011 20:00:00 1.72 C 4.93 g/m*3 1.72 C 0 km/h
2514 01-01-2011 21:00:00 1.18 C 4.73 g/m*3 1.18 C 0 km/h
2515 01-01-2011 22:00:00 1.06 C 4.73 g/m*3 1.06 C 0 km/h
2516 01-01-2011 23:00:00 0.3 C 4.5 g/m*3 0.3 C 0 km/h
2517 02-01-2011 00:00:00 0.18 C 4.5 g/m*3 0.18 C 0 km/h
2518 02-01-2011 01:00:00 0.32 C 4.57 g/m*3 0.32 C 0 km/h
2519 02-01-2011 02:00:00 0.36 C 4.61 g/m*3 0.36 C 0 km/h
2520 02-01-2011 03:00:00 0.44 C 4.64 g/m*3 0.44 C 0 km/h
2521 02-01-2011 04:00:00 0.5 C 4.65 g/m*3 0.5 C 0 km/h
2522 02-01-2011 05:00:00 0.28 C 4.54 g/m*3 0.28 C 0 km/h
2523 02-01-2011 06:00:00 0.3 C 4.54 g/m*3 0.3 C 0 km/h
2524 02-01-2011 07:00:00 0.3 C 4.47 g/m*3 0.3 C 0 km/h
2525 02-01-2011 08:00:00 0.12 C 4.34 g/m*3 0.12 C 0 km/h
Sensor: Nr:Datum:Temp:Abs-Feuchte:Windchill:Wind:
Aussen-T/F 2526 02-01-2011 09:00:00 0.54 C 4.48 g/m*3 0.54 C 0 km/h
2527 02-01-2011 10:00:00 1.42 C 4.47 g/m*3 1.42 C 0 km/h
2528 02-01-2011 11:00:00 1.8 C 4.16 g/m*3 1.8 C 0 km/h
2529 02-01-2011 12:00:00 2.06 C 4.16 g/m*3 2.06 C 0 km/h
2530 02-01-2011 13:00:00 2.5 C 4.14 g/m*3 2.5 C 0 km/h
2531 02-01-2011 14:00:00 2.22 C 4.07 g/m*3 2.22 C 0 km/h
2532 02-01-2011 15:00:00 1.7 C 4.03 g/m*3 1.7 C 0 km/h
2533 02-01-2011 16:00:00 1.44 C 4.19 g/m*3 1.44 C 0 km/h
2534 02-01-2011 17:00:00 0.66 C 4.36 g/m*3 0.66 C 0 km/h
2535 02-01-2011 18:00:00 0.62 C 4.45 g/m*3 0.62 C 0 km/h
2536 02-01-2011 19:00:00 0.58 C 4.44 g/m*3 0.58 C 0 km/h
2537 02-01-2011 20:00:00 0.42 C 4.36 g/m*3 0.42 C 0 km/h
2538 02-01-2011 21:00:00 0.18 C 4.32 g/m*3 0.18 C 0 km/h
2539 02-01-2011 22:00:00 0.2 C 4.29 g/m*3 0.2 C 0 km/h
2540 02-01-2011 23:00:00 0.12 C 4.3 g/m*3 0.12 C 0 km/h
2541 03-01-2011 00:00:00 0.12 C 4.34 g/m*3 0.12 C 0 km/h
2542 03-01-2011 01:00:00 0.06 C 4.28 g/m*3 0.06 C 0 km/h
2543 03-01-2011 02:00:00 -0.16 C 4.22 g/m*3 -0.16 C 0 km/h
2544 03-01-2011 03:00:00 -0.3 C 4.12 g/m*3 -0.3 C 0 km/h
2545 03-01-2011 04:00:00 -0.88 C 3.85 g/m*3 -0.88 C 0 km/h
2546 03-01-2011 05:00:00 -1.04 C 3.84 g/m*3 -1.04 C 0 km/h
2547 03-01-2011 06:00:00 -1.12 C 3.88 g/m*3 -1.12 C 0 km/h
2548 03-01-2011 07:00:00 -1.08 C 3.99 g/m*3 -1.08 C 0 km/h
2549 03-01-2011 08:00:00 -1.3 C 3.9 g/m*3 -1.3 C 0 km/h
2550 03-01-2011 09:00:00 -1.22 C 3.93 g/m*3 -1.22 C 0 km/h
Sensor: Nr:Datum:Temp:Abs-Feuchte:Windchill:Wind:
Aussen-T/F 2551 03-01-2011 10:00:00 -1.02 C 3.86 g/m*3 -1.02 C 0 km/h
2552 03-01-2011 11:00:00 -0.3 C 3.73 g/m*3 -0.3 C 0 km/h
2553 03-01-2011 12:00:00 0.26 C 3.73 g/m*3 0.26 C 0 km/h
2554 03-01-2011 13:00:00 0.92 C 3.81 g/m*3 0.92 C 0 km/h
2555 03-01-2011 14:00:00 0.86 C 3.86 g/m*3 0.86 C 0 km/h
2556 03-01-2011 15:00:00 -0.08 C 3.74 g/m*3 -0.08 C 0 km/h
2557 03-01-2011 16:00:00 -1.54 C 3.65 g/m*3 -1.54 C 0 km/h
2558 03-01-2011 17:00:00 -2.46 C 3.53 g/m*3 -2.46 C 0 km/h
2559 03-01-2011 18:00:00 -1.3 C 3.93 g/m*3 -1.3 C 0 km/h
2560 03-01-2011 19:00:00 -1.22 C 3.98 g/m*3 -1.22 C 0 km/h
2561 03-01-2011 20:00:00 -2 C 3.76 g/m*3 -2 C 0 km/h
2562 03-01-2011 21:00:00 -2.5 C 3.63 g/m*3 -2.5 C 0 km/h
2563 03-01-2011 22:00:00 -1.6 C 3.9 g/m*3 -1.6 C 0 km/h
2564 03-01-2011 23:00:00 -3 C 3.53 g/m*3 -3 C 0 km/h
2565 04-01-2011 00:00:00 -3.64 C 3.38 g/m*3 -3.64 C 0 km/h
2566 04-01-2011 01:00:00 -3.94 C 3.29 g/m*3 -3.94 C 0 km/h
2567 04-01-2011 02:00:00 -3.3 C 3.46 g/m*3 -3.3 C 0 km/h
2568 04-01-2011 03:00:00 -3.18 C 3.47 g/m*3 -3.18 C 0 km/h
2569 04-01-2011 04:00:00 -3.44 C 3.4 g/m*3 -3.44 C 0 km/h
2570 04-01-2011 05:00:00 -3.74 C 3.3 g/m*3 -3.74 C 0 km/h
2571 04-01-2011 06:00:00 -3.84 C 3.27 g/m*3 -3.84 C 0 km/h
2572 04-01-2011 07:00:00 -2.72 C 3.57 g/m*3 -2.72 C 0 km/h
2573 04-01-2011 08:00:00 -2.14 C 3.76 g/m*3 -2.14 C 0 km/h
2574 04-01-2011 09:00:00 -1.88 C 3.83 g/m*3 -1.88 C 0 km/h
2575 04-01-2011 10:00:00 -1.02 C 4.06 g/m*3 -1.02 C 0 km/h
Sensor: Nr:Datum:Temp:Abs-Feuchte:Windchill:Wind:
Aussen-T/F 2576 04-01-2011 11:00:00 -0.42 C 4.05 g/m*3 -0.42 C 0 km/h
2577 04-01-2011 12:00:00 -0.26 C 3.46 g/m*3 -0.26 C 0 km/h
2578 04-01-2011 13:00:00 0.1 C 3.4 g/m*3 0.1 C 0 km/h
2579 04-01-2011 14:00:00 0.06 C 3.33 g/m*3 0.06 C 0 km/h
2580 04-01-2011 15:00:00 -0.92 C 3.25 g/m*3 -0.92 C 0 km/h
2581 04-01-2011 16:00:00 -1.18 C 3.26 g/m*3 -1.18 C 0 km/h
2582 04-01-2011 17:00:00 -2 C 3.21 g/m*3 -2 C 0 km/h
2583 04-01-2011 18:00:00 -2.22 C 3.18 g/m*3 -2.22 C 0 km/h
2584 04-01-2011 19:00:00 -3.56 C 2.94 g/m*3 -3.56 C 0 km/h
2585 04-01-2011 20:00:00 -4.2 C 2.89 g/m*3 -4.2 C 0 km/h
2586 04-01-2011 21:00:00 -3.72 C 2.98 g/m*3 -3.72 C 0 km/h
2587 04-01-2011 22:00:00 -2.82 C 2.86 g/m*3 -2.82 C 0 km/h
2588 04-01-2011 23:00:00 -2.82 C 2.83 g/m*3 -2.82 C 0 km/h
2589 05-01-2011 00:00:00 -2.88 C 2.88 g/m*3 -2.88 C 0 km/h
2590 05-01-2011 01:00:00 -2.98 C 2.74 g/m*3 -2.98 C 0 km/h
2591 05-01-2011 02:00:00 -2.92 C 2.75 g/m*3 -2.92 C 0 km/h
2592 05-01-2011 03:00:00 -2.96 C 2.76 g/m*3 -2.96 C 0 km/h
2593 05-01-2011 04:00:00 -3.56 C 2.54 g/m*3 -3.56 C 0 km/h
2594 05-01-2011 05:00:00 -4.06 C 2.5 g/m*3 -4.06 C 0 km/h
2595 05-01-2011 06:00:00 -4.88 C 2.36 g/m*3 -4.88 C 0 km/h
2596 05-01-2011 07:00:00 -6.04 C 2.24 g/m*3 -6.04 C 0 km/h
2597 05-01-2011 08:00:00 -7.46 C 2.16 g/m*3 -7.46 C 0 km/h
2598 05-01-2011 09:00:00 -6.64 C 2.35 g/m*3 -6.64 C 0 km/h
2599 05-01-2011 10:00:00 -4.26 C 2.44 g/m*3 -4.26 C 0 km/h
2600 05-01-2011 11:00:00 -3.2 C 2.38 g/m*3 -3.2 C 0 km/h
Sensor: Nr:Datum:Temp:Abs-Feuchte:Windchill:Wind:
Aussen-T/F 2601 05-01-2011 12:00:00 -3.68 C 2.34 g/m*3 -3.68 C 0 km/h
2602 05-01-2011 13:00:00 -3.76 C 2.43 g/m*3 -3.76 C 0 km/h
2603 05-01-2011 14:00:00 -3.38 C 2.52 g/m*3 -3.38 C 0 km/h
2604 05-01-2011 15:00:00 -3.74 C 2.56 g/m*3 -3.74 C 0 km/h
2605 05-01-2011 16:00:00 -4.44 C 2.56 g/m*3 -4.44 C 0 km/h
2606 05-01-2011 17:00:00 -5.7 C 2.52 g/m*3 -5.7 C 0 km/h
2607 05-01-2011 18:00:00 -5.7 C 2.6 g/m*3 -5.7 C 0 km/h
2608 05-01-2011 19:00:00 -3.86 C 2.93 g/m*3 -3.86 C 0 km/h
2609 05-01-2011 20:00:00 -2.66 C 3.07 g/m*3 -2.66 C 0 km/h
2610 05-01-2011 21:00:00 -1.68 C 3.21 g/m*3 -1.68 C 0 km/h
2611 05-01-2011 22:00:00 -1.06 C 3.5 g/m*3 -1.06 C 0 km/h
2612 05-01-2011 23:00:00 -0.56 C 3.76 g/m*3 -0.56 C 0 km/h
2613 06-01-2011 00:00:00 -0.58 C 3.83 g/m*3 -0.58 C 0 km/h
2614 06-01-2011 01:00:00 -0.22 C 3.97 g/m*3 -0.22 C 0 km/h
2615 06-01-2011 02:00:00 0.3 C 4.29 g/m*3 0.3 C 0 km/h
2616 06-01-2011 03:00:00 0.64 C 4.54 g/m*3 0.64 C 0 km/h
2617 06-01-2011 04:00:00 0.88 C 4.68 g/m*3 0.88 C 0 km/h
2618 06-01-2011 05:00:00 1.04 C 4.74 g/m*3 1.04 C 0 km/h
2619 06-01-2011 06:00:00 1.26 C 4.86 g/m*3 1.26 C 0 km/h
2620 06-01-2011 07:00:00 1.38 C 4.9 g/m*3 1.38 C 0 km/h
2621 06-01-2011 08:00:00 1.54 C 4.97 g/m*3 1.54 C 0 km/h
2622 06-01-2011 09:00:00 2.54 C 5.3 g/m*3 2.54 C 0 km/h
2623 06-01-2011 10:00:00 4.5 C 6.03 g/m*3 4.5 C 0 km/h
2624 06-01-2011 11:00:00 6.08 C 6.27 g/m*3 6.08 C 0 km/h
2625 06-01-2011 12:00:00 5.34 C 5.8 g/m*3 5.34 C 0 km/h
Sensor: Nr:Datum:Temp:Abs-Feuchte:Windchill:Wind:
Aussen-T/F 2626 06-01-2011 13:00:00 4.5 C 5.69 g/m*3 4.5 C 0 km/h
2627 06-01-2011 14:00:00 4.12 C 5.59 g/m*3 4.12 C 0 km/h
2628 06-01-2011 15:00:00 3.94 C 5.62 g/m*3 3.94 C 0 km/h
2629 06-01-2011 16:00:00 3.92 C 5.65 g/m*3 3.92 C 0 km/h
2630 06-01-2011 17:00:00 4.14 C 5.79 g/m*3 4.14 C 0 km/h
2631 06-01-2011 18:00:00 4.6 C 6.02 g/m*3 4.6 C 0 km/h
2632 06-01-2011 19:00:00 5.02 C 6.23 g/m*3 5.02 C 0 km/h
2633 06-01-2011 20:00:00 7.36 C 7.14 g/m*3 7.36 C 0 km/h
2634 06-01-2011 21:00:00 8.56 C 7.35 g/m*3 8.56 C 0 km/h
2635 06-01-2011 22:00:00 9.5 C 7.14 g/m*3 9.5 C 0 km/h
2636 06-01-2011 23:00:00 9.08 C 7 g/m*3 9.08 C 0 km/h
2637 07-01-2011 00:00:00 7.38 C 6.64 g/m*3 7.38 C 0 km/h
2638 07-01-2011 01:00:00 6.64 C 6.66 g/m*3 6.64 C 0 km/h
2639 07-01-2011 02:00:00 5.82 C 6.46 g/m*3 5.82 C 0 km/h
2640 07-01-2011 03:00:00 5.62 C 6.44 g/m*3 5.62 C 0 km/h
2641 07-01-2011 04:00:00 5.36 C 6.33 g/m*3 5.36 C 0 km/h
2642 07-01-2011 05:00:00 5.28 C 6.34 g/m*3 5.28 C 0 km/h
2643 07-01-2011 06:00:00 4.9 C 6.18 g/m*3 4.9 C 0 km/h
2644 07-01-2011 07:00:00 5.04 C 6.27 g/m*3 5.04 C 0 km/h
2645 07-01-2011 08:00:00 4.88 C 6.2 g/m*3 4.88 C 0 km/h
2646 07-01-2011 09:00:00 4.9 C 6.21 g/m*3 4.9 C 0 km/h
2647 07-01-2011 10:00:00 5.5 C 6.43 g/m*3 5.5 C 0 km/h
2648 07-01-2011 11:00:00 6.76 C 6.94 g/m*3 6.76 C 0 km/h
2649 07-01-2011 12:00:00 7.28 C 7.12 g/m*3 7.28 C 0 km/h
2650 07-01-2011 13:00:00 7.38 C 7.12 g/m*3 7.38 C 0 km/h
Sensor: Nr:Datum:Temp:Abs-Feuchte:Windchill:Wind:
Aussen-T/F 2651 07-01-2011 14:00:00 7.42 C 7.13 g/m*3 7.42 C 0 km/h
2652 07-01-2011 15:00:00 7.18 C 7.06 g/m*3 7.18 C 0 km/h
2653 07-01-2011 16:00:00 7.06 C 7.02 g/m*3 7.06 C 0 km/h
2654 07-01-2011 17:00:00 7.52 C 7.29 g/m*3 7.52 C 0 km/h
2655 07-01-2011 18:00:00 9.32 C 8.08 g/m*3 9.32 C 0 km/h
2656 07-01-2011 19:00:00 9.44 C 7.83 g/m*3 9.44 C 0 km/h
2657 07-01-2011 20:00:00 8.9 C 7.78 g/m*3 8.9 C 0 km/h
2658 07-01-2011 21:00:00 9 C 7.86 g/m*3 9 C 0 km/h
2659 07-01-2011 22:00:00 8.7 C 7.66 g/m*3 8.7 C 0 km/h
2660 07-01-2011 23:00:00 8.76 C 7.71 g/m*3 8.76 C 0 km/h
2661 08-01-2011 00:00:00 8.64 C 7.5 g/m*3 8.64 C 0 km/h
2662 08-01-2011 01:00:00 7.46 C 7.09 g/m*3 7.46 C 0 km/h
2663 08-01-2011 02:00:00 6.72 C 6.89 g/m*3 6.72 C 0 km/h
2664 08-01-2011 03:00:00 7.92 C 7.5 g/m*3 7.92 C 0 km/h
2665 08-01-2011 04:00:00 7.88 C 7.51 g/m*3 7.88 C 0 km/h
2666 08-01-2011 05:00:00 7.94 C 7.56 g/m*3 7.94 C 0 km/h
2667 08-01-2011 06:00:00 7.98 C 7.63 g/m*3 7.98 C 0 km/h
2668 08-01-2011 07:00:00 8.16 C 7.7 g/m*3 8.16 C 0 km/h
2669 08-01-2011 08:00:00 8.34 C 7.81 g/m*3 8.34 C 0 km/h
2670 08-01-2011 09:00:00 8.7 C 7.94 g/m*3 8.7 C 0 km/h
2671 08-01-2011 10:00:00 7.78 C 7.48 g/m*3 7.78 C 0 km/h
2672 08-01-2011 11:00:00 10.2 C 7.88 g/m*3 10.2 C 0 km/h
2673 08-01-2011 12:00:00 13.1 C 6.6 g/m*3 13.1 C 0 km/h
2674 08-01-2011 13:00:00 14.18 C 6.07 g/m*3 14.18 C 0 km/h
2675 08-01-2011 14:00:00 14.4 C 5.86 g/m*3 14.4 C 0 km/h
Sensor: Nr:Datum:Temp:Abs-Feuchte:Windchill:Wind:
Aussen-T/F 2676 08-01-2011 15:00:00 14.12 C 5.86 g/m*3 14.12 C 0 km/h
2677 08-01-2011 16:00:00 13.6 C 5.86 g/m*3 13.6 C 0 km/h
2678 08-01-2011 17:00:00 13.28 C 5.91 g/m*3 13.28 C 0 km/h
2679 08-01-2011 18:00:00 13.44 C 5.87 g/m*3 13.44 C 0 km/h
2680 08-01-2011 19:00:00 13.16 C 5.93 g/m*3 13.16 C 0 km/h
2681 08-01-2011 20:00:00 12.32 C 6.35 g/m*3 12.32 C 0 km/h
2682 08-01-2011 21:00:00 12.04 C 6.6 g/m*3 12.04 C 0 km/h
2683 08-01-2011 22:00:00 11.94 C 6.56 g/m*3 11.94 C 0 km/h
2684 08-01-2011 23:00:00 10.32 C 7.13 g/m*3 10.32 C 0 km/h
2685 09-01-2011 00:00:00 9.64 C 7.66 g/m*3 9.64 C 0 km/h
2686 09-01-2011 01:00:00 9.62 C 7.98 g/m*3 9.62 C 0 km/h
2687 09-01-2011 02:00:00 9.78 C 7.93 g/m*3 9.78 C 0 km/h
2688 09-01-2011 03:00:00 9.32 C 7.77 g/m*3 9.32 C 0 km/h
2689 09-01-2011 04:00:00 10.92 C 7.59 g/m*3 10.92 C 0 km/h
2690 09-01-2011 05:00:00 11.08 C 7.1 g/m*3 11.08 C 0 km/h
2691 09-01-2011 06:00:00 7.3 C 6.54 g/m*3 7.3 C 0 km/h
2692 09-01-2011 07:00:00 6.12 C 6.39 g/m*3 6.12 C 0 km/h
2693 09-01-2011 08:00:00 5.16 C 6.04 g/m*3 5.16 C 0 km/h
2694 09-01-2011 09:00:00 3.98 C 5.5 g/m*3 3.98 C 0 km/h
2695 09-01-2011 10:00:00 3.02 C 5.18 g/m*3 3.02 C 0 km/h
2696 09-01-2011 11:00:00 4.1 C 5.47 g/m*3 4.1 C 0 km/h
2697 09-01-2011 12:00:00 4.56 C 5.39 g/m*3 4.56 C 0 km/h
2698 09-01-2011 13:00:00 5.08 C 5.33 g/m*3 5.08 C 0 km/h
2699 09-01-2011 14:00:00 5.24 C 5.26 g/m*3 5.24 C 0 km/h
2700 09-01-2011 15:00:00 4.58 C 5.43 g/m*3 4.58 C 0 km/h
Sensor: Nr:Datum:Temp:Abs-Feuchte:Windchill:Wind:
Aussen-T/F 2701 09-01-2011 16:00:00 3.26 C 5.29 g/m*3 3.26 C 0 km/h
2702 09-01-2011 17:00:00 2.78 C 5.24 g/m*3 2.78 C 0 km/h
2703 09-01-2011 18:00:00 1.76 C 4.96 g/m*3 1.76 C 0 km/h
2704 09-01-2011 19:00:00 1.8 C 5.04 g/m*3 1.8 C 0 km/h
2705 09-01-2011 20:00:00 1.24 C 4.84 g/m*3 1.24 C 0 km/h
2706 09-01-2011 21:00:00 0.64 C 4.68 g/m*3 0.64 C 0 km/h
2707 09-01-2011 22:00:00 0.075 C 4.49 g/m*3 0.08 C 0 km/h
2708 09-01-2011 23:00:00 0.02 C 4.51 g/m*3 0.02 C 0 km/h
2709 10-01-2011 00:00:00 0.16 C 4.56 g/m*3 0.16 C 0 km/h
2710 10-01-2011 01:00:00 0.28 C 4.61 g/m*3 0.28 C 0 km/h
2711 10-01-2011 02:00:00 0.02 C 4.55 g/m*3 0.02 C 0 km/h
2712 10-01-2011 03:00:00 0.2 C 4.62 g/m*3 0.2 C 0 km/h
2713 10-01-2011 04:00:00 0.38 C 4.68 g/m*3 0.38 C 0 km/h
2714 10-01-2011 05:00:00 0.26 C 4.63 g/m*3 0.26 C 0 km/h
2715 10-01-2011 06:00:00 0.2 C 4.57 g/m*3 0.2 C 0 km/h
2716 10-01-2011 07:00:00 0.1 C 4.54 g/m*3 0.1 C 0 km/h
2717 10-01-2011 08:00:00 0.18 C 4.5 g/m*3 0.18 C 0 km/h
2718 10-01-2011 09:00:00 0.32 C 4.45 g/m*3 0.32 C 0 km/h
2719 10-01-2011 10:00:00 0.54 C 4.37 g/m*3 0.54 C 0 km/h
2720 10-01-2011 11:00:00 0.88 C 4.22 g/m*3 0.88 C 0 km/h
2721 10-01-2011 12:00:00 1.78 C 4.3 g/m*3 1.78 C 0 km/h
2722 10-01-2011 13:00:00 2.1 C 4.39 g/m*3 2.1 C 0 km/h
2723 10-01-2011 14:00:00 2.26 C 4.42 g/m*3 2.26 C 0 km/h
2724 10-01-2011 15:00:00 2.1 C 4.36 g/m*3 2.1 C 0 km/h
2725 10-01-2011 16:00:00 1.86 C 4.33 g/m*3 1.86 C 0 km/h
Sensor: Nr:Datum:Temp:Abs-Feuchte:Windchill:Wind:
Aussen-T/F 2726 10-01-2011 17:00:00 0.84 C 4.24 g/m*3 0.84 C 0 km/h
2727 10-01-2011 18:00:00 0.22 C 4.16 g/m*3 0.22 C 0 km/h
2728 10-01-2011 19:00:00 0.26 C 4.32 g/m*3 0.26 C 0 km/h
2729 10-01-2011 20:00:00 0.68 C 4.35 g/m*3 0.68 C 0 km/h
2730 10-01-2011 21:00:00 0.56 C 4.04 g/m*3 0.56 C 0 km/h
2731 10-01-2011 22:00:00 0.5 C 4.05 g/m*3 0.5 C 0 km/h
2732 10-01-2011 23:00:00 0.54 C 4.04 g/m*3 0.54 C 0 km/h
2733 11-01-2011 00:00:00 0.16 C 3.93 g/m*3 0.16 C 0 km/h
2734 11-01-2011 01:00:00 -0.12 C 4.08 g/m*3 -0.12 C 0 km/h
2735 11-01-2011 02:00:00 0.78 C 4.17 g/m*3 0.78 C 0 km/h
2736 11-01-2011 03:00:00 0.72 C 4.05 g/m*3 0.72 C 0 km/h
2737 11-01-2011 04:00:00 0.42 C 4.05 g/m*3 0.42 C 0 km/h
2738 11-01-2011 05:00:00 1.1 C 4.13 g/m*3 1.1 C 0 km/h
2739 11-01-2011 06:00:00 1.26 C 4.2 g/m*3 1.26 C 0 km/h
2740 11-01-2011 07:00:00 1.42 C 4.33 g/m*3 1.42 C 0 km/h
2741 11-01-2011 08:00:00 1.5 C 4.45 g/m*3 1.5 C 0 km/h
2742 11-01-2011 09:00:00 2.06 C 4.66 g/m*3 2.06 C 0 km/h
2743 11-01-2011 10:00:00 3.04 C 4.63 g/m*3 3.04 C 0 km/h
2744 11-01-2011 11:00:00 3.28 C 4.9 g/m*3 3.28 C 0 km/h
2745 11-01-2011 12:00:00 5.5 C 4.62 g/m*3 5.5 C 0 km/h
2746 11-01-2011 13:00:00 5.3 C 4.75 g/m*3 5.3 C 0 km/h
2747 11-01-2011 14:00:00 5.3 C 4.89 g/m*3 5.3 C 0 km/h
2748 11-01-2011 15:00:00 5.36 C 5.07 g/m*3 5.36 C 0 km/h
2749 11-01-2011 16:00:00 4.58 C 5.42 g/m*3 4.58 C 0 km/h
2750 11-01-2011 17:00:00 5.1 C 5.46 g/m*3 5.1 C 0 km/h
Sensor: Nr:Datum:Temp:Abs-Feuchte:Windchill:Wind:
Aussen-T/F 2751 11-01-2011 18:00:00 5.48 C 5.51 g/m*3 5.48 C 0 km/h
2752 11-01-2011 19:00:00 5.98 C 5.57 g/m*3 5.98 C 0 km/h
2753 11-01-2011 20:00:00 6.14 C 5.6 g/m*3 6.14 C 0 km/h
2754 11-01-2011 21:00:00 6.16 C 5.66 g/m*3 6.16 C 0 km/h
2755 11-01-2011 22:00:00 5.96 C 5.91 g/m*3 5.96 C 0 km/h
2756 11-01-2011 23:00:00 6 C 6.01 g/m*3 6 C 0 km/h
2757 12-01-2011 00:00:00 6.14 C 5.46 g/m*3 6.14 C 0 km/h
2758 12-01-2011 01:00:00 5.96 C 5.23 g/m*3 5.96 C 0 km/h
2759 12-01-2011 02:00:00 5.9 C 5.06 g/m*3 5.9 C 0 km/h
2760 12-01-2011 03:00:00 4.92 C 5.18 g/m*3 4.92 C 0 km/h
2761 12-01-2011 04:00:00 4.08 C 5.34 g/m*3 4.08 C 0 km/h
2762 12-01-2011 05:00:00 3.76 C 5.24 g/m*3 3.76 C 0 km/h
2763 12-01-2011 06:00:00 3.56 C 5.12 g/m*3 3.56 C 0 km/h
2764 12-01-2011 07:00:00 3.32 C 5.02 g/m*3 3.32 C 0 km/h
2765 12-01-2011 08:00:00 2.98 C 4.99 g/m*3 2.98 C 0 km/h
2766 12-01-2011 09:00:00 3.84 C 5.04 g/m*3 3.84 C 0 km/h
2767 12-01-2011 10:00:00 4.82 C 4.87 g/m*3 4.82 C 0 km/h
2768 12-01-2011 11:00:00 5.26 C 4.85 g/m*3 5.26 C 0 km/h
2769 12-01-2011 12:00:00 4.88 C 5.08 g/m*3 4.88 C 0 km/h
2770 12-01-2011 13:00:00 4.9 C 5.37 g/m*3 4.9 C 0 km/h
2771 12-01-2011 14:00:00 5.12 C 5.52 g/m*3 5.12 C 0 km/h
2772 12-01-2011 15:00:00 5.42 C 5.51 g/m*3 5.42 C 0 km/h
2773 12-01-2011 16:00:00 6.04 C 5.47 g/m*3 6.04 C 0 km/h
2774 12-01-2011 17:00:00 6.2 C 5.6 g/m*3 6.2 C 0 km/h
2775 12-01-2011 18:00:00 6.12 C 5.91 g/m*3 6.12 C 0 km/h
Sensor: Nr:Datum:Temp:Abs-Feuchte:Windchill:Wind:
Aussen-T/F 2776 12-01-2011 19:00:00 6.3 C 6.17 g/m*3 6.3 C 0 km/h
2777 12-01-2011 20:00:00 6.98 C 6.28 g/m*3 6.98 C 0 km/h
2778 12-01-2011 21:00:00 7.34 C 6.51 g/m*3 7.34 C 0 km/h
2779 12-01-2011 22:00:00 7.96 C 6.71 g/m*3 7.96 C 0 km/h
2780 12-01-2011 23:00:00 8.76 C 6.82 g/m*3 8.76 C 0 km/h
2781 13-01-2011 00:00:00 9.3 C 6.99 g/m*3 9.3 C 0 km/h
2782 13-01-2011 01:00:00 9.98 C 7.26 g/m*3 9.98 C 0 km/h
2783 13-01-2011 02:00:00 10.6 C 7.55 g/m*3 10.6 C 0 km/h
2784 13-01-2011 03:00:00 10.32 C 7.84 g/m*3 10.32 C 0 km/h
2785 13-01-2011 04:00:00 10.7 C 8.05 g/m*3 10.7 C 0 km/h
2786 13-01-2011 05:00:00 10.84 C 8.13 g/m*3 10.84 C 0 km/h
2787 13-01-2011 06:00:00 10.58 C 8.31 g/m*3 10.58 C 0 km/h
2788 13-01-2011 07:00:00 10.66 C 8.46 g/m*3 10.66 C 0 km/h
2789 13-01-2011 08:00:00 10.84 C 8.46 g/m*3 10.84 C 0 km/h
2790 13-01-2011 09:00:00 11.26 C 8.44 g/m*3 11.26 C 0 km/h
2791 13-01-2011 10:00:00 11.94 C 8.32 g/m*3 11.94 C 0 km/h
2792 13-01-2011 11:00:00 12.52 C 8.26 g/m*3 12.52 C 0 km/h
2793 13-01-2011 12:00:00 12.46 C 8.31 g/m*3 12.46 C 0 km/h
2794 13-01-2011 13:00:00 12.54 C 8.4 g/m*3 12.54 C 0 km/h
2795 13-01-2011 14:00:00 13.18 C 8.28 g/m*3 13.18 C 0 km/h
2796 13-01-2011 15:00:00 13.06 C 8.26 g/m*3 13.06 C 0 km/h
2797 13-01-2011 16:00:00 12.9 C 8.48 g/m*3 12.9 C 0 km/h
2798 13-01-2011 17:00:00 12.86 C 8.5 g/m*3 12.86 C 0 km/h
2799 13-01-2011 18:00:00 12.84 C 8.42 g/m*3 12.84 C 0 km/h
2800 13-01-2011 19:00:00 12.82 C 8.5 g/m*3 12.82 C 0 km/h
Sensor: Nr:Datum:Temp:Abs-Feuchte:Windchill:Wind:
Aussen-T/F 2801 13-01-2011 20:00:00 12.7 C 8.53 g/m*3 12.7 C 0 km/h
2802 13-01-2011 21:00:00 12.82 C 8.46 g/m*3 12.82 C 0 km/h
2803 13-01-2011 22:00:00 12.82 C 8.34 g/m*3 12.82 C 0 km/h
2804 13-01-2011 23:00:00 12.74 C 8.26 g/m*3 12.74 C 0 km/h
2805 14-01-2011 00:00:00 12.56 C 8.14 g/m*3 12.56 C 0 km/h
2806 14-01-2011 01:00:00 12.5 C 8.09 g/m*3 12.5 C 0 km/h
2807 14-01-2011 02:00:00 12.34 C 7.95 g/m*3 12.34 C 0 km/h
2808 14-01-2011 03:00:00 12.24 C 7.83 g/m*3 12.24 C 0 km/h
2809 14-01-2011 04:00:00 12.24 C 7.81 g/m*3 12.24 C 0 km/h
2810 14-01-2011 05:00:00 12.26 C 7.8 g/m*3 12.26 C 0 km/h
2811 14-01-2011 06:00:00 12.56 C 7.61 g/m*3 12.56 C 0 km/h
2812 14-01-2011 07:00:00 12.3 C 7.36 g/m*3 12.3 C 0 km/h
2813 14-01-2011 08:00:00 11.66 C 6.99 g/m*3 11.66 C 0 km/h
2814 14-01-2011 09:00:00 11.46 C 6.84 g/m*3 11.46 C 0 km/h
2815 14-01-2011 10:00:00 11.74 C 6.71 g/m*3 11.74 C 0 km/h
2816 14-01-2011 11:00:00 12.02 C 6.62 g/m*3 12.02 C 0 km/h
2817 14-01-2011 12:00:00 12.14 C 6.54 g/m*3 12.14 C 0 km/h
2818 14-01-2011 13:00:00 12 C 6.63 g/m*3 12 C 0 km/h
2819 14-01-2011 14:00:00 11.64 C 6.81 g/m*3 11.64 C 0 km/h
2820 14-01-2011 15:00:00 12.12 C 6.55 g/m*3 12.12 C 0 km/h
2821 14-01-2011 16:00:00 11.96 C 6.4 g/m*3 11.96 C 0 km/h
2822 14-01-2011 17:00:00 11.52 C 6.33 g/m*3 11.52 C 0 km/h
2823 14-01-2011 18:00:00 11.04 C 6.32 g/m*3 11.04 C 0 km/h
2824 14-01-2011 19:00:00 11.14 C 6.24 g/m*3 11.14 C 0 km/h
2825 14-01-2011 20:00:00 11.68 C 6.08 g/m*3 11.68 C 0 km/h
Sensor: Nr:Datum:Temp:Abs-Feuchte:Windchill:Wind:
Aussen-T/F 2826 14-01-2011 21:00:00 11.4 C 6.01 g/m*3 11.4 C 0 km/h
2827 14-01-2011 22:00:00 10.82 C 6.25 g/m*3 10.82 C 0 km/h
2828 14-01-2011 23:00:00 9.24 C 6.77 g/m*3 9.24 C 0 km/h
2829 15-01-2011 00:00:00 8.22 C 6.64 g/m*3 8.22 C 0 km/h
2830 15-01-2011 01:00:00 8.22 C 6.41 g/m*3 8.22 C 0 km/h
2831 15-01-2011 02:00:00 8.04 C 6.43 g/m*3 8.04 C 0 km/h
2832 15-01-2011 03:00:00 8.12 C 6.47 g/m*3 8.12 C 0 km/h
2833 15-01-2011 04:00:00 8.22 C 6.41 g/m*3 8.22 C 0 km/h
2834 15-01-2011 05:00:00 7.96 C 6.14 g/m*3 7.96 C 0 km/h
2835 15-01-2011 06:00:00 7.44 C 6.22 g/m*3 7.44 C 0 km/h
2836 15-01-2011 07:00:00 7.08 C 6.14 g/m*3 7.08 C 0 km/h
2837 15-01-2011 08:00:00 7.68 C 6.14 g/m*3 7.68 C 0 km/h
2838 15-01-2011 09:00:00 8.3 C 5.98 g/m*3 8.3 C 0 km/h
2839 15-01-2011 10:00:00 9.06 C 5.91 g/m*3 9.06 C 0 km/h
2840 15-01-2011 11:00:00 9.86 C 5.89 g/m*3 9.86 C 0 km/h
2841 15-01-2011 12:00:00 10.2 C 5.73 g/m*3 10.2 C 0 km/h
2842 15-01-2011 13:00:00 10.04 C 5.58 g/m*3 10.04 C 0 km/h
2843 15-01-2011 14:00:00 10.04 C 5.54 g/m*3 10.04 C 0 km/h
2844 15-01-2011 15:00:00 9.62 C 5.52 g/m*3 9.62 C 0 km/h
2845 15-01-2011 16:00:00 8.9 C 5.71 g/m*3 8.9 C 0 km/h
2846 15-01-2011 17:00:00 9.02 C 5.65 g/m*3 9.02 C 0 km/h
2847 15-01-2011 18:00:00 8.98 C 5.78 g/m*3 8.98 C 0 km/h
2848 15-01-2011 19:00:00 9.18 C 5.69 g/m*3 9.18 C 0 km/h
2849 15-01-2011 20:00:00 8.92 C 5.68 g/m*3 8.92 C 0 km/h
2850 15-01-2011 21:00:00 8.04 C 5.62 g/m*3 8.04 C 0 km/h
Sensor: Nr:Datum:Temp:Abs-Feuchte:Windchill:Wind:
Aussen-T/F 2851 15-01-2011 22:00:00 8.6 C 5.89 g/m*3 8.6 C 0 km/h
2852 15-01-2011 23:00:00 8.62 C 5.89 g/m*3 8.62 C 0 km/h
2853 16-01-2011 00:00:00 8.9 C 5.83 g/m*3 8.9 C 0 km/h
2854 16-01-2011 01:00:00 8.24 C 5.69 g/m*3 8.24 C 0 km/h
2855 16-01-2011 02:00:00 7.96 C 5.77 g/m*3 7.96 C 0 km/h
2856 16-01-2011 03:00:00 8.14 C 5.71 g/m*3 8.14 C 0 km/h
2857 16-01-2011 04:00:00 8.22 C 5.75 g/m*3 8.22 C 0 km/h
2858 16-01-2011 05:00:00 7.16 C 5.98 g/m*3 7.16 C 0 km/h
2859 16-01-2011 06:00:00 7.06 C 6.08 g/m*3 7.06 C 0 km/h
2860 16-01-2011 07:00:00 7.88 C 6.07 g/m*3 7.88 C 0 km/h
2861 16-01-2011 08:00:00 8.22 C 5.87 g/m*3 8.22 C 0 km/h
2862 16-01-2011 09:00:00 8.04 C 5.9 g/m*3 8.04 C 0 km/h
2863 16-01-2011 10:00:00 7.98 C 5.91 g/m*3 7.98 C 0 km/h
2864 16-01-2011 11:00:00 8.36 C 5.99 g/m*3 8.36 C 0 km/h
2865 16-01-2011 12:00:00 8.64 C 6.15 g/m*3 8.64 C 0 km/h
2866 16-01-2011 13:00:00 8.82 C 6.19 g/m*3 8.82 C 0 km/h
2867 16-01-2011 14:00:00 8.46 C 6.27 g/m*3 8.46 C 0 km/h
2868 16-01-2011 15:00:00 9.92 C 6.23 g/m*3 9.92 C 0 km/h
2869 16-01-2011 16:00:00 8.04 C 6.35 g/m*3 8.04 C 0 km/h
2870 16-01-2011 17:00:00 5.92 C 6.14 g/m*3 5.92 C 0 km/h
2871 16-01-2011 18:00:00 4.84 C 5.92 g/m*3 4.84 C 0 km/h
2872 16-01-2011 19:00:00 4.22 C 5.77 g/m*3 4.22 C 0 km/h
2873 16-01-2011 20:00:00 3.26 C 5.47 g/m*3 3.26 C 0 km/h
2874 16-01-2011 21:00:00 2.4 C 5.2 g/m*3 2.4 C 0 km/h
2875 16-01-2011 22:00:00 2.16 C 5.16 g/m*3 2.16 C 0 km/h
Sensor: Nr:Datum:Temp:Abs-Feuchte:Windchill:Wind:
Aussen-T/F 2876 16-01-2011 23:00:00 1.36 C 4.89 g/m*3 1.36 C 0 km/h
2877 17-01-2011 00:00:00 1.4 C 4.93 g/m*3 1.4 C 0 km/h
2878 17-01-2011 01:00:00 1.18 C 4.88 g/m*3 1.18 C 0 km/h
2879 17-01-2011 02:00:00 1.12 C 4.87 g/m*3 1.12 C 0 km/h
2880 17-01-2011 03:00:00 1.04 C 4.87 g/m*3 1.04 C 0 km/h
2881 17-01-2011 04:00:00 -0.04 C 4.49 g/m*3 -0.04 C 0 km/h
2882 17-01-2011 05:00:00 0.08 C 4.55 g/m*3 0.08 C 0 km/h
2883 17-01-2011 06:00:00 -0.62 C 4.32 g/m*3 -0.62 C 0 km/h
2884 17-01-2011 07:00:00 -0.4 C 4.4 g/m*3 -0.4 C 0 km/h
2885 17-01-2011 08:00:00 -0.66 C 4.32 g/m*3 -0.66 C 0 km/h
2886 17-01-2011 09:00:00 0.72 C 4.79 g/m*3 0.72 C 0 km/h
2887 17-01-2011 10:00:00 0.68 C 4.77 g/m*3 0.68 C 0 km/h
2888 17-01-2011 11:00:00 2.14 C 5.26 g/m*3 2.14 C 0 km/h
2889 17-01-2011 12:00:00 5.42 C 6.5 g/m*3 5.42 C 0 km/h
2890 17-01-2011 13:00:00 6.06 C 6.54 g/m*3 6.06 C 0 km/h
2891 17-01-2011 14:00:00 6.4 C 6.08 g/m*3 6.4 C 0 km/h
2892 17-01-2011 15:00:00 6.18 C 5.9 g/m*3 6.18 C 0 km/h
2893 17-01-2011 16:00:00 6.18 C 5.96 g/m*3 6.18 C 0 km/h
2894 17-01-2011 17:00:00 6.2 C 5.82 g/m*3 6.2 C 0 km/h
2895 17-01-2011 18:00:00 5.98 C 6.05 g/m*3 5.98 C 0 km/h
2896 17-01-2011 19:00:00 6.22 C 6.1 g/m*3 6.22 C 0 km/h
2897 17-01-2011 20:00:00 6.94 C 6.19 g/m*3 6.94 C 0 km/h
2898 17-01-2011 21:00:00 8.04 C 6.23 g/m*3 8.04 C 0 km/h
2899 17-01-2011 22:00:00 8.28 C 6.13 g/m*3 8.28 C 0 km/h
2900 17-01-2011 23:00:00 8.56 C 6.24 g/m*3 8.56 C 0 km/h
Sensor: Nr:Datum:Temp:Abs-Feuchte:Windchill:Wind:
Aussen-T/F 2901 18-01-2011 00:00:00 7.64 C 6.14 g/m*3 7.64 C 0 km/h
2902 18-01-2011 01:00:00 6.84 C 6.13 g/m*3 6.84 C 0 km/h
2903 18-01-2011 02:00:00 5.24 C 5.94 g/m*3 5.24 C 0 km/h
2904 18-01-2011 03:00:00 7.1 C 6.1 g/m*3 7.1 C 0 km/h
2905 18-01-2011 04:00:00 7.06 C 5.96 g/m*3 7.06 C 0 km/h
2906 18-01-2011 05:00:00 7.68 C 5.94 g/m*3 7.68 C 0 km/h
2907 18-01-2011 06:00:00 7.26 C 5.97 g/m*3 7.26 C 0 km/h
2908 18-01-2011 07:00:00 7.14 C 6.04 g/m*3 7.14 C 0 km/h
2909 18-01-2011 08:00:00 7.3 C 5.97 g/m*3 7.3 C 0 km/h
2910 18-01-2011 09:00:00 8.44 C 6.04 g/m*3 8.44 C 0 km/h
2911 18-01-2011 10:00:00 8.84 C 6.09 g/m*3 8.84 C 0 km/h
2912 18-01-2011 11:00:00 8.74 C 6.05 g/m*3 8.74 C 0 km/h
2913 18-01-2011 12:00:00 9.7 C 6.07 g/m*3 9.7 C 0 km/h
2914 18-01-2011 13:00:00 9.7 C 6.05 g/m*3 9.7 C 0 km/h
2915 18-01-2011 14:00:00 9.72 C 5.94 g/m*3 9.72 C 0 km/h
2916 18-01-2011 15:00:00 9.42 C 5.67 g/m*3 9.42 C 0 km/h
2917 18-01-2011 16:00:00 8.38 C 5.78 g/m*3 8.38 C 0 km/h
2918 18-01-2011 17:00:00 6.54 C 6.42 g/m*3 6.54 C 0 km/h
2919 18-01-2011 18:00:00 6.16 C 6.31 g/m*3 6.16 C 0 km/h
2920 18-01-2011 19:00:00 5.86 C 6.26 g/m*3 5.86 C 0 km/h
2921 18-01-2011 20:00:00 5.74 C 6.04 g/m*3 5.74 C 0 km/h
2922 18-01-2011 21:00:00 5.1 C 5.62 g/m*3 5.1 C 0 km/h
2923 18-01-2011 22:00:00 4.64 C 5.48 g/m*3 4.64 C 0 km/h
2924 18-01-2011 23:00:00 4.68 C 5.47 g/m*3 4.68 C 0 km/h
2925 19-01-2011 00:00:00 4.36 C 5.2 g/m*3 4.36 C 0 km/h
Sensor: Nr:Datum:Temp:Abs-Feuchte:Windchill:Wind:
Aussen-T/F 2926 19-01-2011 01:00:00 3.88 C 4.77 g/m*3 3.88 C 0 km/h
2927 19-01-2011 02:00:00 3.42 C 4.67 g/m*3 3.42 C 0 km/h
2928 19-01-2011 03:00:00 2.92 C 4.8 g/m*3 2.92 C 0 km/h
2929 19-01-2011 04:00:00 2.8 C 4.89 g/m*3 2.8 C 0 km/h
2930 19-01-2011 05:00:00 2.56 C 4.99 g/m*3 2.56 C 0 km/h
2931 19-01-2011 06:00:00 2.64 C 4.99 g/m*3 2.64 C 0 km/h
2932 19-01-2011 07:00:00 2.8 C 4.85 g/m*3 2.8 C 0 km/h
2933 19-01-2011 08:00:00 2.4 C 4.86 g/m*3 2.4 C 0 km/h
2934 19-01-2011 09:00:00 2.7 C 4.81 g/m*3 2.7 C 0 km/h
2935 19-01-2011 10:00:00 2.4 C 4.68 g/m*3 2.4 C 0 km/h
2936 19-01-2011 11:00:00 3.64 C 4.84 g/m*3 3.64 C 0 km/h
2937 19-01-2011 12:00:00 4.44 C 4.64 g/m*3 4.44 C 0 km/h
2938 19-01-2011 13:00:00 4.94 C 4.35 g/m*3 4.94 C 0 km/h
2939 19-01-2011 14:00:00 5.36 C 4.24 g/m*3 5.36 C 0 km/h
2940 19-01-2011 15:00:00 4.94 C 4.13 g/m*3 4.94 C 0 km/h
2941 19-01-2011 16:00:00 4.18 C 4.38 g/m*3 4.18 C 0 km/h
2942 19-01-2011 17:00:00 3.34 C 4.54 g/m*3 3.34 C 0 km/h
2943 19-01-2011 18:00:00 2.94 C 4.7 g/m*3 2.94 C 0 km/h
2944 19-01-2011 19:00:00 3.2 C 4.46 g/m*3 3.2 C 0 km/h
2945 19-01-2011 20:00:00 2.36 C 4.69 g/m*3 2.36 C 0 km/h
2946 19-01-2011 21:00:00 2.5 C 4.78 g/m*3 2.5 C 0 km/h
2947 19-01-2011 22:00:00 2.4 C 4.73 g/m*3 2.4 C 0 km/h
2948 19-01-2011 23:00:00 2.28 C 4.69 g/m*3 2.28 C 0 km/h
2949 20-01-2011 00:00:00 1.72 C 4.73 g/m*3 1.72 C 0 km/h
2950 20-01-2011 01:00:00 1.82 C 4.87 g/m*3 1.82 C 0 km/h
Sensor: Nr:Datum:Temp:Abs-Feuchte:Windchill:Wind:
Aussen-T/F 2951 20-01-2011 02:00:00 1.22 C 4.71 g/m*3 1.22 C 0 km/h
2952 20-01-2011 03:00:00 1.34 C 4.82 g/m*3 1.34 C 0 km/h
2953 20-01-2011 04:00:00 1.16 C 4.78 g/m*3 1.16 C 0 km/h
2954 20-01-2011 05:00:00 1.36 C 4.87 g/m*3 1.36 C 0 km/h
2955 20-01-2011 06:00:00 1.28 C 4.85 g/m*3 1.28 C 0 km/h
2956 20-01-2011 07:00:00 1.02 C 4.73 g/m*3 1.02 C 0 km/h
2957 20-01-2011 08:00:00 1.2 C 4.75 g/m*3 1.2 C 0 km/h
2958 20-01-2011 09:00:00 1.44 C 4.7 g/m*3 1.44 C 0 km/h
2959 20-01-2011 10:00:00 2.02 C 4.61 g/m*3 2.02 C 0 km/h
2960 20-01-2011 11:00:00 2.72 C 4.53 g/m*3 2.72 C 0 km/h
2961 20-01-2011 12:00:00 3.26 C 4.44 g/m*3 3.26 C 0 km/h
2962 20-01-2011 13:00:00 3.88 C 4.35 g/m*3 3.88 C 0 km/h
2963 20-01-2011 14:00:00 4.1 C 4.29 g/m*3 4.1 C 0 km/h
2964 20-01-2011 15:00:00 3.26 C 4.1 g/m*3 3.26 C 0 km/h
2965 20-01-2011 16:00:00 2.48 C 3.98 g/m*3 2.48 C 0 km/h
2966 20-01-2011 17:00:00 1.98 C 3.95 g/m*3 1.98 C 0 km/h
2967 20-01-2011 18:00:00 1.7 C 3.97 g/m*3 1.7 C 0 km/h
2968 20-01-2011 19:00:00 1.3 C 3.89 g/m*3 1.3 C 0 km/h
2969 20-01-2011 20:00:00 0.9 C 3.72 g/m*3 0.9 C 0 km/h
2970 20-01-2011 21:00:00 -0.16 C 3.59 g/m*3 -0.16 C 0 km/h
2971 20-01-2011 22:00:00 -0.28 C 3.55 g/m*3 -0.28 C 0 km/h
2972 20-01-2011 23:00:00 0.08 C 3.64 g/m*3 0.08 C 0 km/h
2973 21-01-2011 00:00:00 0.34 C 3.13 g/m*3 0.34 C 0 km/h
2974 21-01-2011 01:00:00 0.18 C 3.08 g/m*3 0.18 C 0 km/h
2975 21-01-2011 02:00:00 0.04 C 3.11 g/m*3 0.04 C 0 km/h
Sensor: Nr:Datum:Temp:Abs-Feuchte:Windchill:Wind:
Aussen-T/F 2976 21-01-2011 03:00:00 -0.36 C 2.8 g/m*3 -0.36 C 0 km/h
2977 21-01-2011 04:00:00 -0.38 C 2.67 g/m*3 -0.38 C 0 km/h
2978 21-01-2011 05:00:00 -0.46 C 2.75 g/m*3 -0.46 C 0 km/h
2979 21-01-2011 06:00:00 -0.74 C 2.81 g/m*3 -0.74 C 0 km/h
2980 21-01-2011 07:00:00 -0.6 C 2.67 g/m*3 -0.6 C 0 km/h
2981 21-01-2011 08:00:00 -0.5 C 2.69 g/m*3 -0.5 C 0 km/h
2982 21-01-2011 09:00:00 -0.14 C 2.75 g/m*3 -0.14 C 0 km/h
2983 21-01-2011 10:00:00 0.14 C 2.74 g/m*3 0.14 C 0 km/h
2984 21-01-2011 11:00:00 0.02 C 2.82 g/m*3 0.02 C 0 km/h
2985 21-01-2011 12:00:00 0.32 C 2.9 g/m*3 0.32 C 0 km/h
2986 21-01-2011 13:00:00 1.06 C 2.95 g/m*3 1.06 C 0 km/h
2987 21-01-2011 14:00:00 1.28 C 3.01 g/m*3 1.28 C 0 km/h
2988 21-01-2011 15:00:00 1.02 C 3.01 g/m*3 1.02 C 0 km/h
2989 21-01-2011 16:00:00 0.18 C 3.13 g/m*3 0.18 C 0 km/h
2990 21-01-2011 17:00:00 -0.22 C 3.25 g/m*3 -0.22 C 0 km/h
2991 21-01-2011 18:00:00 -0.14 C 3.26 g/m*3 -0.14 C 0 km/h
2992 21-01-2011 19:00:00 -0.4 C 3.25 g/m*3 -0.4 C 0 km/h
2993 21-01-2011 20:00:00 -0.42 C 3.4 g/m*3 -0.42 C 0 km/h
2994 21-01-2011 21:00:00 -0.78 C 3.61 g/m*3 -0.78 C 0 km/h
2995 21-01-2011 22:00:00 -0.58 C 3.7 g/m*3 -0.58 C 0 km/h
2996 21-01-2011 23:00:00 -0.48 C 3.8 g/m*3 -0.48 C 0 km/h
2997 22-01-2011 00:00:00 -0.4 C 3.86 g/m*3 -0.4 C 0 km/h
2998 22-01-2011 01:00:00 -0.4 C 3.86 g/m*3 -0.4 C 0 km/h
2999 22-01-2011 02:00:00 -0.4 C 3.86 g/m*3 -0.4 C 0 km/h
3000 22-01-2011 03:00:00 -0.4 C 3.86 g/m*3 -0.4 C 0 km/h
Sensor: Nr:Datum:Temp:Abs-Feuchte:Windchill:Wind:
Aussen-T/F 3001 22-01-2011 04:00:00 -0.4 C 3.86 g/m*3 -0.4 C 0 km/h
3002 22-01-2011 05:00:00 -0.4 C 3.86 g/m*3 -0.4 C 0 km/h
3003 22-01-2011 06:00:00 -0.4 C 3.86 g/m*3 -0.4 C 0 km/h
3004 22-01-2011 07:00:00 -0.4 C 3.86 g/m*3 -0.4 C 0 km/h
3005 22-01-2011 08:00:00 -0.32 C 3.89 g/m*3 -0.32 C 0 km/h
3006 22-01-2011 09:00:00 0 C 3.97 g/m*3 0 C 0 km/h
3007 22-01-2011 10:00:00 0.92 C 3.86 g/m*3 0.92 C 0 km/h
3008 22-01-2011 11:00:00 1.4 C 3.72 g/m*3 1.4 C 0 km/h
3009 22-01-2011 12:00:00 1.72 C 3.69 g/m*3 1.72 C 0 km/h
3010 22-01-2011 13:00:00 1.72 C 3.73 g/m*3 1.72 C 0 km/h
3011 22-01-2011 14:00:00 1.84 C 3.98 g/m*3 1.84 C 0 km/h
3012 22-01-2011 15:00:00 1.56 C 3.92 g/m*3 1.56 C 0 km/h
3013 22-01-2011 16:00:00 1.28 C 3.86 g/m*3 1.28 C 0 km/h
3014 22-01-2011 17:00:00 0.72 C 3.9 g/m*3 0.72 C 0 km/h
3015 22-01-2011 18:00:00 0.56 C 3.93 g/m*3 0.56 C 0 km/h
3016 22-01-2011 19:00:00 0.34 C 4.05 g/m*3 0.34 C 0 km/h
3017 22-01-2011 20:00:00 0.38 C 4.01 g/m*3 0.38 C 0 km/h
3018 22-01-2011 21:00:00 0.32 C 4.03 g/m*3 0.32 C 0 km/h
3019 22-01-2011 22:00:00 0.25 C 4.04 g/m*3 0.25 C 0 km/h
3020 22-01-2011 23:00:00 0 C 3.97 g/m*3 0 C 0 km/h
3021 23-01-2011 00:00:00 0.22 C 4.03 g/m*3 0.22 C 0 km/h
3022 23-01-2011 01:00:00 0.22 C 4.03 g/m*3 0.22 C 0 km/h
3023 23-01-2011 02:00:00 0.28 C 4.05 g/m*3 0.28 C 0 km/h
3024 23-01-2011 03:00:00 0.44 C 4.05 g/m*3 0.44 C 0 km/h
3025 23-01-2011 04:00:00 0.4 C 4.05 g/m*3 0.4 C 0 km/h
Sensor: Nr:Datum:Temp:Abs-Feuchte:Windchill:Wind:
Aussen-T/F 3026 23-01-2011 05:00:00 0.22 C 4.21 g/m*3 0.22 C 0 km/h
3027 23-01-2011 06:00:00 0.42 C 4.4 g/m*3 0.42 C 0 km/h
3028 23-01-2011 07:00:00 0.66 C 4.51 g/m*3 0.66 C 0 km/h
3029 23-01-2011 08:00:00 0.94 C 4.61 g/m*3 0.94 C 0 km/h
3030 23-01-2011 09:00:00 1.46 C 4.71 g/m*3 1.46 C 0 km/h
3031 23-01-2011 10:00:00 1.92 C 4.55 g/m*3 1.92 C 0 km/h
3032 23-01-2011 11:00:00 2.02 C 4.54 g/m*3 2.02 C 0 km/h
3033 23-01-2011 12:00:00 2.16 C 4.62 g/m*3 2.16 C 0 km/h
3034 23-01-2011 13:00:00 2.22 C 4.76 g/m*3 2.22 C 0 km/h
3035 23-01-2011 14:00:00 2.4 C 4.88 g/m*3 2.4 C 0 km/h
3036 23-01-2011 15:00:00 2.3 C 4.9 g/m*3 2.3 C 0 km/h
3037 23-01-2011 16:00:00 2.2 C 4.97 g/m*3 2.2 C 0 km/h
3038 23-01-2011 17:00:00 2.16 C 5.03 g/m*3 2.16 C 0 km/h
3039 23-01-2011 18:00:00 2.12 C 5.06 g/m*3 2.12 C 0 km/h
3040 23-01-2011 19:00:00 2.18 C 5.12 g/m*3 2.18 C 0 km/h
3041 23-01-2011 20:00:00 2.22 C 5.14 g/m*3 2.22 C 0 km/h
3042 23-01-2011 21:00:00 2.24 C 5.2 g/m*3 2.24 C 0 km/h
3043 23-01-2011 22:00:00 2.28 C 5.21 g/m*3 2.28 C 0 km/h
3044 23-01-2011 23:00:00 2.36 C 5.24 g/m*3 2.36 C 0 km/h
3045 24-01-2011 00:00:00 2.42 C 5.26 g/m*3 2.42 C 0 km/h
3046 24-01-2011 01:00:00 2.58 C 5.35 g/m*3 2.58 C 0 km/h
3047 24-01-2011 02:00:00 2.56 C 5.37 g/m*3 2.56 C 0 km/h
3048 24-01-2011 03:00:00 2.02 C 5.13 g/m*3 2.02 C 0 km/h
3049 24-01-2011 04:00:00 2.12 C 5.2 g/m*3 2.12 C 0 km/h
3050 24-01-2011 05:00:00 2.48 C 5.34 g/m*3 2.48 C 0 km/h
Sensor: Nr:Datum:Temp:Abs-Feuchte:Windchill:Wind:
Aussen-T/F 3051 24-01-2011 06:00:00 2.5 C 5.35 g/m*3 2.5 C 0 km/h
3052 24-01-2011 07:00:00 2.78 C 5.33 g/m*3 2.78 C 0 km/h
3053 24-01-2011 08:00:00 2.76 C 5.07 g/m*3 2.76 C 0 km/h
3054 24-01-2011 09:00:00 2.92 C 4.75 g/m*3 2.92 C 0 km/h
3055 24-01-2011 10:00:00 3.12 C 4.6 g/m*3 3.12 C 0 km/h
3056 24-01-2011 11:00:00 3.46 C 4.57 g/m*3 3.46 C 0 km/h
3057 24-01-2011 12:00:00 4.04 C 4.6 g/m*3 4.04 C 0 km/h
3058 24-01-2011 13:00:00 4.36 C 4.7 g/m*3 4.36 C 0 km/h
3059 24-01-2011 14:00:00 4.2 C 4.7 g/m*3 4.2 C 0 km/h
3060 24-01-2011 15:00:00 3.98 C 4.79 g/m*3 3.98 C 0 km/h
3061 24-01-2011 16:00:00 3.78 C 4.96 g/m*3 3.78 C 0 km/h
3062 24-01-2011 17:00:00 3.6 C 4.96 g/m*3 3.6 C 0 km/h
3063 24-01-2011 18:00:00 3.44 C 5.03 g/m*3 3.44 C 0 km/h
3064 24-01-2011 19:00:00 3.18 C 5.1 g/m*3 3.18 C 0 km/h
3065 24-01-2011 20:00:00 3.16 C 5.24 g/m*3 3.16 C 0 km/h
3066 24-01-2011 21:00:00 3.08 C 5.24 g/m*3 3.08 C 0 km/h
3067 24-01-2011 22:00:00 3.08 C 5.33 g/m*3 3.08 C 0 km/h
3068 24-01-2011 23:00:00 2.82 C 5.29 g/m*3 2.82 C 0 km/h
3069 25-01-2011 00:00:00 2.74 C 5.19 g/m*3 2.74 C 0 km/h
3070 25-01-2011 01:00:00 2.66 C 4.76 g/m*3 2.66 C 0 km/h
3071 25-01-2011 02:00:00 1.88 C 4.72 g/m*3 1.88 C 0 km/h
3072 25-01-2011 03:00:00 1.98 C 4.66 g/m*3 1.98 C 0 km/h
3073 25-01-2011 04:00:00 2.64 C 4.43 g/m*3 2.64 C 0 km/h
3074 25-01-2011 05:00:00 3.12 C 4.29 g/m*3 3.12 C 0 km/h
3075 25-01-2011 06:00:00 3.34 C 4.19 g/m*3 3.34 C 0 km/h
Sensor: Nr:Datum:Temp:Abs-Feuchte:Windchill:Wind:
Aussen-T/F 3076 25-01-2011 07:00:00 2.98 C 4.18 g/m*3 2.98 C 0 km/h
3077 25-01-2011 08:00:00 2.52 C 4.28 g/m*3 2.52 C 0 km/h
3078 25-01-2011 09:00:00 2.92 C 4.27 g/m*3 2.92 C 0 km/h
3079 25-01-2011 10:00:00 2.92 C 4.38 g/m*3 2.92 C 0 km/h
3080 25-01-2011 11:00:00 2.96 C 4.58 g/m*3 2.96 C 0 km/h
3081 25-01-2011 12:00:00 3.38 C 4.75 g/m*3 3.38 C 0 km/h
3082 25-01-2011 13:00:00 3.94 C 4.67 g/m*3 3.94 C 0 km/h
3083 25-01-2011 14:00:00 3.98 C 4.72 g/m*3 3.98 C 0 km/h
3084 25-01-2011 15:00:00 2.3 C 4.72 g/m*3 2.3 C 0 km/h
3085 25-01-2011 16:00:00 2.52 C 4.88 g/m*3 2.52 C 0 km/h
3086 25-01-2011 17:00:00 2.42 C 4.77 g/m*3 2.42 C 0 km/h
3087 25-01-2011 18:00:00 2.36 C 4.74 g/m*3 2.36 C 0 km/h
3088 25-01-2011 19:00:00 1.5 C 4.62 g/m*3 1.5 C 0 km/h
3089 25-01-2011 20:00:00 0.84 C 4.46 g/m*3 0.84 C 0 km/h
3090 25-01-2011 21:00:00 1.08 C 4.47 g/m*3 1.08 C 0 km/h
3091 25-01-2011 22:00:00 1.84 C 4.35 g/m*3 1.84 C 0 km/h
3092 25-01-2011 23:00:00 1.14 C 4.32 g/m*3 1.14 C 0 km/h
3093 26-01-2011 00:00:00 0.64 C 4.31 g/m*3 0.64 C 0 km/h
3094 26-01-2011 01:00:00 -0.58 C 4.07 g/m*3 -0.58 C 0 km/h
3095 26-01-2011 02:00:00 -0.62 C 4.13 g/m*3 -0.62 C 0 km/h
3096 26-01-2011 03:00:00 -0.52 C 4.21 g/m*3 -0.52 C 0 km/h
3097 26-01-2011 04:00:00 -0.46 C 4.24 g/m*3 -0.46 C 0 km/h
3098 26-01-2011 05:00:00 -0.2 C 4.35 g/m*3 -0.2 C 0 km/h
3099 26-01-2011 06:00:00 -0.16 C 4.36 g/m*3 -0.16 C 0 km/h
3100 26-01-2011 07:00:00 -0.22 C 4.34 g/m*3 -0.22 C 0 km/h
Sensor: Nr:Datum:Temp:Abs-Feuchte:Windchill:Wind:
Aussen-T/F 3101 26-01-2011 08:00:00 0.04 C 4.43 g/m*3 0.04 C 0 km/h
3102 26-01-2011 09:00:00 0.66 C 4.65 g/m*3 0.66 C 0 km/h
3103 26-01-2011 10:00:00 1.6 C 4.81 g/m*3 1.6 C 0 km/h
3104 26-01-2011 11:00:00 2.48 C 4.55 g/m*3 2.48 C 0 km/h
3105 26-01-2011 12:00:00 3.56 C 4.1 g/m*3 3.56 C 0 km/h
3106 26-01-2011 13:00:00 3.24 C 4 g/m*3 3.24 C 0 km/h
3107 26-01-2011 14:00:00 3.34 C 3.91 g/m*3 3.34 C 0 km/h
3108 26-01-2011 15:00:00 3.32 C 3.84 g/m*3 3.32 C 0 km/h
3109 26-01-2011 16:00:00 2.24 C 4.04 g/m*3 2.24 C 0 km/h
3110 26-01-2011 17:00:00 0.76 C 4.28 g/m*3 0.76 C 0 km/h
3111 26-01-2011 18:00:00 0.64 C 4.29 g/m*3 0.64 C 0 km/h
3112 26-01-2011 19:00:00 0.44 C 4.24 g/m*3 0.44 C 0 km/h
3113 26-01-2011 20:00:00 0.5 C 4.31 g/m*3 0.5 C 0 km/h
3114 26-01-2011 21:00:00 0.52 C 4.26 g/m*3 0.52 C 0 km/h
3115 26-01-2011 22:00:00 -0.16 C 4.01 g/m*3 -0.16 C 0 km/h
3116 26-01-2011 23:00:00 -0.88 C 3.86 g/m*3 -0.88 C 0 km/h
3117 27-01-2011 00:00:00 -1.24 C 3.81 g/m*3 -1.24 C 0 km/h
3118 27-01-2011 01:00:00 -1.76 C 3.69 g/m*3 -1.76 C 0 km/h
3119 27-01-2011 02:00:00 -2.52 C 3.5 g/m*3 -2.52 C 0 km/h
3120 27-01-2011 03:00:00 -3.36 C 3.32 g/m*3 -3.36 C 0 km/h
3121 27-01-2011 04:00:00 -2.2 C 3.68 g/m*3 -2.2 C 0 km/h
3122 27-01-2011 05:00:00 -1.56 C 3.9 g/m*3 -1.56 C 0 km/h
3123 27-01-2011 06:00:00 -1.38 C 3.96 g/m*3 -1.38 C 0 km/h
3124 27-01-2011 07:00:00 -1.32 C 3.98 g/m*3 -1.32 C 0 km/h
3125 27-01-2011 08:00:00 -1.18 C 4.04 g/m*3 -1.18 C 0 km/h
Sensor: Nr:Datum:Temp:Abs-Feuchte:Windchill:Wind:
Aussen-T/F 3126 27-01-2011 09:00:00 -0.24 C 4.33 g/m*3 -0.24 C 0 km/h
3127 27-01-2011 10:00:00 0.86 C 4.29 g/m*3 0.86 C 0 km/h
3128 27-01-2011 11:00:00 1.86 C 3.63 g/m*3 1.86 C 0 km/h
3129 27-01-2011 12:00:00 2.44 C 3.33 g/m*3 2.44 C 0 km/h
3130 27-01-2011 13:00:00 2.64 C 3.1 g/m*3 2.64 C 0 km/h
3131 27-01-2011 14:00:00 2.4 C 2.95 g/m*3 2.4 C 0 km/h
3132 27-01-2011 15:00:00 1.88 C 2.81 g/m*3 1.88 C 0 km/h
3133 27-01-2011 16:00:00 1.18 C 2.74 g/m*3 1.18 C 0 km/h
3134 27-01-2011 17:00:00 0.26 C 2.75 g/m*3 0.26 C 0 km/h
3135 27-01-2011 18:00:00 0 C 2.77 g/m*3 0 C 0 km/h
3136 27-01-2011 19:00:00 -0.16 C 2.82 g/m*3 -0.16 C 0 km/h
3137 27-01-2011 20:00:00 -0.34 C 2.86 g/m*3 -0.34 C 0 km/h
3138 27-01-2011 21:00:00 -0.92 C 2.84 g/m*3 -0.92 C 0 km/h
3139 27-01-2011 22:00:00 -1.2 C 2.84 g/m*3 -1.2 C 0 km/h
3140 27-01-2011 23:00:00 -1 C 2.78 g/m*3 -1 C 0 km/h
3141 28-01-2011 00:00:00 -1.34 C 2.76 g/m*3 -1.34 C 0 km/h
3142 28-01-2011 01:00:00 -1.24 C 2.67 g/m*3 -1.24 C 0 km/h
3143 28-01-2011 02:00:00 -1.42 C 2.69 g/m*3 -1.42 C 0 km/h
3144 28-01-2011 03:00:00 -1.18 C 2.79 g/m*3 -1.18 C 0 km/h
3145 28-01-2011 04:00:00 -1.04 C 2.82 g/m*3 -1.04 C 0 km/h
3146 28-01-2011 05:00:00 -0.98 C 2.83 g/m*3 -0.98 C 0 km/h
3147 28-01-2011 06:00:00 -0.98 C 2.77 g/m*3 -0.98 C 0 km/h
3148 28-01-2011 07:00:00 -1.06 C 2.79 g/m*3 -1.06 C 0 km/h
3149 28-01-2011 08:00:00 -2.1 C 2.72 g/m*3 -2.1 C 0 km/h
3150 28-01-2011 09:00:00 -1.4 C 2.8 g/m*3 -1.4 C 0 km/h
Sensor: Nr:Datum:Temp:Abs-Feuchte:Windchill:Wind:
Aussen-T/F 3151 28-01-2011 10:00:00 -0.6 C 2.69 g/m*3 -0.6 C 0 km/h
3152 28-01-2011 11:00:00 0.14 C 2.7 g/m*3 0.14 C 0 km/h
3153 28-01-2011 12:00:00 0.72 C 2.7 g/m*3 0.72 C 0 km/h
3154 28-01-2011 13:00:00 0.96 C 2.72 g/m*3 0.96 C 0 km/h
3155 28-01-2011 14:00:00 1.22 C 2.75 g/m*3 1.22 C 0 km/h
3156 28-01-2011 15:00:00 1.26 C 2.8 g/m*3 1.26 C 0 km/h
3157 28-01-2011 16:00:00 0.44 C 2.86 g/m*3 0.44 C 0 km/h
3158 28-01-2011 17:00:00 -1.38 C 2.96 g/m*3 -1.38 C 0 km/h
3159 28-01-2011 18:00:00 -2.44 C 3.09 g/m*3 -2.44 C 0 km/h
3160 28-01-2011 19:00:00 -2.68 C 3.08 g/m*3 -2.68 C 0 km/h
3161 28-01-2011 20:00:00 -3.52 C 3.01 g/m*3 -3.52 C 0 km/h
3162 28-01-2011 21:00:00 -3.84 C 3.02 g/m*3 -3.84 C 0 km/h
3163 28-01-2011 22:00:00 -4.18 C 3 g/m*3 -4.18 C 0 km/h
3164 28-01-2011 23:00:00 -3.86 C 3.07 g/m*3 -3.86 C 0 km/h
3165 29-01-2011 00:00:00 -4.68 C 2.87 g/m*3 -4.68 C 0 km/h
3166 29-01-2011 01:00:00 -5.04 C 2.8 g/m*3 -5.04 C 0 km/h
3167 29-01-2011 02:00:00 -5.52 C 2.71 g/m*3 -5.52 C 0 km/h
3168 29-01-2011 03:00:00 -5.52 C 2.74 g/m*3 -5.52 C 0 km/h
3169 29-01-2011 04:00:00 -5.48 C 2.74 g/m*3 -5.48 C 0 km/h
3170 29-01-2011 05:00:00 -5.88 C 2.65 g/m*3 -5.88 C 0 km/h
3171 29-01-2011 06:00:00 -6.52 C 2.5 g/m*3 -6.52 C 0 km/h
3172 29-01-2011 07:00:00 -6.5 C 2.5 g/m*3 -6.5 C 0 km/h
3173 29-01-2011 08:00:00 -6.28 C 2.55 g/m*3 -6.28 C 0 km/h
3174 29-01-2011 09:00:00 -6.44 C 2.5 g/m*3 -6.44 C 0 km/h
3175 29-01-2011 10:00:00 -5.78 C 2.62 g/m*3 -5.78 C 0 km/h
Sensor: Nr:Datum:Temp:Abs-Feuchte:Windchill:Wind:
Aussen-T/F 3176 29-01-2011 11:00:00 -4.86 C 2.82 g/m*3 -4.86 C 0 km/h
3177 29-01-2011 12:00:00 -4 C 2.99 g/m*3 -4 C 0 km/h
3178 29-01-2011 13:00:00 -3.26 C 3.03 g/m*3 -3.26 C 0 km/h
3179 29-01-2011 14:00:00 -2.42 C 3.09 g/m*3 -2.42 C 0 km/h
3180 29-01-2011 15:00:00 -1.6 C 3.16 g/m*3 -1.6 C 0 km/h
3181 29-01-2011 16:00:00 -2.3 C 2.9 g/m*3 -2.3 C 0 km/h
3182 29-01-2011 17:00:00 -3.32 C 2.6 g/m*3 -3.32 C 0 km/h
3183 29-01-2011 18:00:00 -4.22 C 2.51 g/m*3 -4.22 C 0 km/h
3184 29-01-2011 19:00:00 -4.52 C 2.57 g/m*3 -4.52 C 0 km/h
3185 29-01-2011 20:00:00 -5.08 C 2.55 g/m*3 -5.08 C 0 km/h
3186 29-01-2011 21:00:00 -5.96 C 2.45 g/m*3 -5.96 C 0 km/h
3187 29-01-2011 22:00:00 -6.2 C 2.43 g/m*3 -6.2 C 0 km/h
3188 29-01-2011 23:00:00 -6.22 C 2.46 g/m*3 -6.22 C 0 km/h
3189 30-01-2011 00:00:00 -6.72 C 2.39 g/m*3 -6.72 C 0 km/h
3190 30-01-2011 01:00:00 -7.12 C 2.32 g/m*3 -7.12 C 0 km/h
3191 30-01-2011 02:00:00 -7.7 C 2.18 g/m*3 -7.7 C 0 km/h
3192 30-01-2011 03:00:00 -7.74 C 2.21 g/m*3 -7.74 C 0 km/h
3193 30-01-2011 04:00:00 -7.78 C 2.21 g/m*3 -7.78 C 0 km/h
3194 30-01-2011 05:00:00 -8.24 C 2.14 g/m*3 -8.24 C 0 km/h
3195 30-01-2011 06:00:00 -8.72 C 2.06 g/m*3 -8.72 C 0 km/h
3196 30-01-2011 07:00:00 -7.8 C 2.23 g/m*3 -7.8 C 0 km/h
3197 30-01-2011 08:00:00 -8.86 C 2.01 g/m*3 -8.86 C 0 km/h
3198 30-01-2011 09:00:00 -8.06 C 2.13 g/m*3 -8.06 C 0 km/h
3199 30-01-2011 10:00:00 -6.54 C 2.43 g/m*3 -6.54 C 0 km/h
3200 30-01-2011 11:00:00 -5.94 C 2.53 g/m*3 -5.94 C 0 km/h
Sensor: Nr:Datum:Temp:Abs-Feuchte:Windchill:Wind:
Aussen-T/F 3201 30-01-2011 12:00:00 -5.36 C 2.68 g/m*3 -5.36 C 0 km/h
3202 30-01-2011 13:00:00 -4.42 C 2.85 g/m*3 -4.42 C 0 km/h
3203 30-01-2011 14:00:00 -3.38 C 3.01 g/m*3 -3.38 C 0 km/h
3204 30-01-2011 15:00:00 -2.32 C 3.06 g/m*3 -2.32 C 0 km/h
3205 30-01-2011 16:00:00 -2.98 C 2.95 g/m*3 -2.98 C 0 km/h
3206 30-01-2011 17:00:00 -3.96 C 2.9 g/m*3 -3.96 C 0 km/h
3207 30-01-2011 18:00:00 -4.44 C 2.83 g/m*3 -4.44 C 0 km/h
3208 30-01-2011 19:00:00 -5.12 C 2.74 g/m*3 -5.12 C 0 km/h
3209 30-01-2011 20:00:00 -5.16 C 2.76 g/m*3 -5.16 C 0 km/h
3210 30-01-2011 21:00:00 -5.86 C 2.63 g/m*3 -5.86 C 0 km/h
3211 30-01-2011 22:00:00 -7.14 C 2.38 g/m*3 -7.14 C 0 km/h
3212 30-01-2011 23:00:00 -7.66 C 2.26 g/m*3 -7.66 C 0 km/h
3213 31-01-2011 00:00:00 -7.5 C 2.29 g/m*3 -7.5 C 0 km/h
3214 31-01-2011 01:00:00 -8.24 C 2.14 g/m*3 -8.24 C 0 km/h
3215 31-01-2011 02:00:00 -8.58 C 2.05 g/m*3 -8.58 C